Darstellungsparameter: Aktuell verwendete Einstellungen:
Skalierung der Graphiken ... ?
xyx+y,   Skalierungsfaktor:      Skalierung: Modus: x, Faktor: 1
Darstellungszeitraum ... ?
Vom - - bis: - -   Zeitraum: 27.06.2017 - 26.12.2017
Min/Max/Avg-Anzeige ... ?
Zeige MMA aktuell
Zeige MMA Monat
Zeige MMA alles
Zeige --A aktuell
Zeige --A Monat
Zeige --A alles
Keine MMA-Anzeige
MMA:
Minimum Maximum Average (ber die Originaldaten)
MMA-Basis: 27.06.2017 - 26.12.2017
Quicknavigation für Darstellung... ?
Tage:      1T, 2T, 3T, 5T -1T -2T -3T -5T +1T +2T +3T +5T
Wochen: 1W, 2W, 3W -1W -2W -3W +1W +2W +3W
Monate: 1M, 3M, 6M -1M -3M -6M +1M +3M +6M
Jahre:    1J, 3J, 5J, 10J -1J -3J -5J -10J +1J +3J +5J +10J
Nutze für die Darstellung ... ?
Originaldaten oder Mittelwerte auf ...
Stundenbasis Tagesbasis Wochenbasis
Monatsbasis Jahresbasis      Datenbasis: Original-Daten
Darstellen als:
Statistik (Auto) Statistik J:M      Darstellung:
Zur Graphik,    zurück zur Übersicht aller Sensoren.
 
Tabellarische Datenbersicht: ?
 
Sensor: Nr:Datum:Temp:Abs-Feuchte:Windchill:Wind:
Aussen-T/F 1 27-06-2017 00:00:00 18.2 C 11.81 g/m*3 18.2 C 0 km/h
2 27-06-2017 00:05:00 18.1 C 11.74 g/m*3 18.1 C 0 km/h
3 27-06-2017 00:10:00 18 C 11.83 g/m*3 18 C 0 km/h
4 27-06-2017 00:15:00 17.9 C 11.6 g/m*3 17.9 C 0 km/h
5 27-06-2017 00:20:00 17.8 C 11.69 g/m*3 17.8 C 0 km/h
6 27-06-2017 00:25:00 17.7 C 11.62 g/m*3 17.7 C 0 km/h
7 27-06-2017 00:30:00 17.6 C 11.4 g/m*3 17.6 C 0 km/h
8 27-06-2017 00:35:00 17.6 C 11.7 g/m*3 17.6 C 0 km/h
9 27-06-2017 00:40:00 17.4 C 11.56 g/m*3 17.4 C 0 km/h
10 27-06-2017 00:45:00 17.4 C 11.71 g/m*3 17.4 C 0 km/h
11 27-06-2017 00:50:00 17.3 C 11.64 g/m*3 17.3 C 0 km/h
12 27-06-2017 00:55:00 17.3 C 11.79 g/m*3 17.3 C 0 km/h
13 27-06-2017 01:00:00 17.2 C 11.57 g/m*3 17.2 C 0 km/h
14 27-06-2017 01:05:00 17.2 C 11.72 g/m*3 17.2 C 0 km/h
15 27-06-2017 01:10:00 17.1 C 11.5 g/m*3 17.1 C 0 km/h
16 27-06-2017 01:15:00 17.1 C 11.65 g/m*3 17.1 C 0 km/h
17 27-06-2017 01:20:00 17 C 11.43 g/m*3 17 C 0 km/h
18 27-06-2017 01:25:00 16.9 C 11.36 g/m*3 16.9 C 0 km/h
19 27-06-2017 01:30:00 16.9 C 11.36 g/m*3 16.9 C 0 km/h
20 27-06-2017 01:35:00 16.8 C 11.44 g/m*3 16.8 C 0 km/h
21 27-06-2017 01:40:00 16.8 C 11.44 g/m*3 16.8 C 0 km/h
22 27-06-2017 01:45:00 16.7 C 11.51 g/m*3 16.7 C 0 km/h
23 27-06-2017 01:50:00 16.6 C 11.3 g/m*3 16.6 C 0 km/h
24 27-06-2017 01:55:00 16.6 C 11.44 g/m*3 16.6 C 0 km/h
25 27-06-2017 02:00:00 16.5 C 11.37 g/m*3 16.5 C 0 km/h
Sensor: Nr:Datum:Temp:Abs-Feuchte:Windchill:Wind:
Aussen-T/F 26 27-06-2017 02:05:00 16.4 C 11.31 g/m*3 16.4 C 0 km/h
27 27-06-2017 02:10:00 16.4 C 11.31 g/m*3 16.4 C 0 km/h
28 27-06-2017 02:15:00 16.3 C 11.24 g/m*3 16.3 C 0 km/h
29 27-06-2017 02:20:00 16.3 C 11.38 g/m*3 16.3 C 0 km/h
30 27-06-2017 02:25:00 16.3 C 11.38 g/m*3 16.3 C 0 km/h
31 27-06-2017 02:30:00 16.3 C 11.38 g/m*3 16.3 C 0 km/h
32 27-06-2017 02:35:00 16.3 C 11.38 g/m*3 16.3 C 0 km/h
33 27-06-2017 02:40:00 16.3 C 11.52 g/m*3 16.3 C 0 km/h
34 27-06-2017 02:45:00 16.3 C 11.52 g/m*3 16.3 C 0 km/h
35 27-06-2017 02:50:00 16.3 C 11.65 g/m*3 16.3 C 0 km/h
36 27-06-2017 02:55:00 16.3 C 11.65 g/m*3 16.3 C 0 km/h
37 27-06-2017 03:00:00 16.3 C 11.65 g/m*3 16.3 C 0 km/h
38 27-06-2017 03:05:00 16.3 C 11.79 g/m*3 16.3 C 0 km/h
39 27-06-2017 03:10:00 16.4 C 11.86 g/m*3 16.4 C 0 km/h
40 27-06-2017 03:15:00 16.4 C 11.86 g/m*3 16.4 C 0 km/h
41 27-06-2017 03:20:00 16.4 C 11.86 g/m*3 16.4 C 0 km/h
42 27-06-2017 03:25:00 16.4 C 11.86 g/m*3 16.4 C 0 km/h
43 27-06-2017 03:30:00 16.4 C 11.72 g/m*3 16.4 C 1.6 km/h
44 27-06-2017 03:35:00 16.5 C 11.8 g/m*3 16.5 C 0 km/h
45 27-06-2017 03:40:00 16.6 C 11.87 g/m*3 16.6 C 0 km/h
46 27-06-2017 03:45:00 16.6 C 11.87 g/m*3 16.6 C 0 km/h
47 27-06-2017 03:50:00 16.6 C 11.87 g/m*3 16.6 C 0 km/h
48 27-06-2017 03:55:00 16.5 C 11.8 g/m*3 16.5 C 0 km/h
49 27-06-2017 04:00:00 16.5 C 11.8 g/m*3 16.5 C 0 km/h
50 27-06-2017 04:05:00 16.4 C 11.72 g/m*3 16.4 C 0 km/h
Sensor: Nr:Datum:Temp:Abs-Feuchte:Windchill:Wind:
Aussen-T/F 51 27-06-2017 04:10:00 16.4 C 11.72 g/m*3 16.4 C 0 km/h
52 27-06-2017 04:15:00 16.4 C 11.72 g/m*3 16.4 C 0 km/h
53 27-06-2017 04:20:00 16.3 C 11.65 g/m*3 16.3 C 0 km/h
54 27-06-2017 04:25:00 16.3 C 11.79 g/m*3 16.3 C 0 km/h
55 27-06-2017 04:30:00 16.3 C 11.79 g/m*3 16.3 C 0 km/h
56 27-06-2017 04:35:00 16.3 C 11.79 g/m*3 16.3 C 0 km/h
57 27-06-2017 04:40:00 16.3 C 11.79 g/m*3 16.3 C 0 km/h
58 27-06-2017 04:45:00 16.3 C 11.79 g/m*3 16.3 C 0 km/h
59 27-06-2017 04:50:00 16.3 C 11.79 g/m*3 16.3 C 0 km/h
60 27-06-2017 04:55:00 16.3 C 11.79 g/m*3 16.3 C 0 km/h
61 27-06-2017 05:00:00 16.3 C 11.79 g/m*3 16.3 C 0 km/h
62 27-06-2017 05:05:00 16.4 C 11.86 g/m*3 16.4 C 0 km/h
63 27-06-2017 05:10:00 16.5 C 11.94 g/m*3 16.5 C 1.6 km/h
64 27-06-2017 05:15:00 16.6 C 12.01 g/m*3 16.6 C 0 km/h
65 27-06-2017 05:20:00 16.6 C 12.01 g/m*3 16.6 C 0 km/h
66 27-06-2017 05:25:00 16.6 C 11.87 g/m*3 16.6 C 0 km/h
67 27-06-2017 05:30:00 16.7 C 12.08 g/m*3 16.7 C 0 km/h
68 27-06-2017 05:35:00 16.7 C 12.08 g/m*3 16.7 C 0 km/h
69 27-06-2017 05:40:00 16.7 C 12.08 g/m*3 16.7 C 0 km/h
70 27-06-2017 05:45:00 16.7 C 12.08 g/m*3 16.7 C 0 km/h
71 27-06-2017 05:50:00 16.7 C 12.22 g/m*3 16.7 C 0 km/h
72 27-06-2017 05:55:00 16.6 C 12.15 g/m*3 16.6 C 0 km/h
73 27-06-2017 06:00:00 16.6 C 12.15 g/m*3 16.6 C 0 km/h
74 27-06-2017 06:05:00 16.6 C 12.15 g/m*3 16.6 C 1.6 km/h
75 27-06-2017 06:10:00 16.6 C 12.15 g/m*3 16.6 C 0 km/h
Sensor: Nr:Datum:Temp:Abs-Feuchte:Windchill:Wind:
Aussen-T/F 76 27-06-2017 06:15:00 16.5 C 12.22 g/m*3 16.5 C 0 km/h
77 27-06-2017 06:20:00 16.4 C 12.14 g/m*3 16.4 C 0 km/h
78 27-06-2017 06:25:00 16.4 C 12.14 g/m*3 16.4 C 0 km/h
79 27-06-2017 06:30:00 16.4 C 12.28 g/m*3 16.4 C 0 km/h
80 27-06-2017 06:35:00 16.4 C 12.28 g/m*3 16.4 C 0 km/h
81 27-06-2017 06:40:00 16.4 C 12.28 g/m*3 16.4 C 0 km/h
82 27-06-2017 06:45:00 16.3 C 12.21 g/m*3 16.3 C 0 km/h
83 27-06-2017 06:50:00 16.4 C 12.42 g/m*3 16.4 C 0 km/h
84 27-06-2017 06:55:00 16.4 C 12.42 g/m*3 16.4 C 0 km/h
85 27-06-2017 07:00:00 16.4 C 12.42 g/m*3 16.4 C 0 km/h
86 27-06-2017 07:05:00 16.4 C 12.56 g/m*3 16.4 C 0 km/h
87 27-06-2017 07:10:00 16.4 C 12.56 g/m*3 16.4 C 0 km/h
88 27-06-2017 07:15:00 16.4 C 12.56 g/m*3 16.4 C 1.6 km/h
89 27-06-2017 07:20:00 16.4 C 12.7 g/m*3 16.4 C 0 km/h
90 27-06-2017 07:25:00 16.4 C 12.7 g/m*3 16.4 C 0 km/h
91 27-06-2017 07:30:00 16.4 C 12.7 g/m*3 16.4 C 0 km/h
92 27-06-2017 07:35:00 16.4 C 12.7 g/m*3 16.4 C 0 km/h
93 27-06-2017 07:40:00 16.4 C 12.7 g/m*3 16.4 C 0 km/h
94 27-06-2017 07:45:00 16.5 C 12.92 g/m*3 16.5 C 0 km/h
95 27-06-2017 07:50:00 16.5 C 12.92 g/m*3 16.5 C 0 km/h
96 27-06-2017 07:55:00 16.6 C 13 g/m*3 16.6 C 0 km/h
97 27-06-2017 08:00:00 16.7 C 13.07 g/m*3 16.7 C 0 km/h
98 27-06-2017 08:05:00 16.8 C 13.3 g/m*3 16.8 C 0 km/h
99 27-06-2017 08:10:00 16.9 C 13.23 g/m*3 16.9 C 1.6 km/h
100 27-06-2017 08:15:00 16.9 C 13.23 g/m*3 16.9 C 1.6 km/h
Sensor: Nr:Datum:Temp:Abs-Feuchte:Windchill:Wind:
Aussen-T/F 101 27-06-2017 08:20:00 17 C 13.31 g/m*3 17 C 0 km/h
102 27-06-2017 08:25:00 17.1 C 13.39 g/m*3 17.1 C 1.6 km/h
103 27-06-2017 08:30:00 17 C 13.17 g/m*3 17 C 0 km/h
104 27-06-2017 08:35:00 16.9 C 12.94 g/m*3 16.9 C 1.6 km/h
105 27-06-2017 08:40:00 17 C 13.17 g/m*3 17 C 0 km/h
106 27-06-2017 08:45:00 17 C 13.02 g/m*3 17 C 0 km/h
107 27-06-2017 08:50:00 17 C 13.02 g/m*3 17 C 0 km/h
108 27-06-2017 08:55:00 17.1 C 13.25 g/m*3 17.1 C 0 km/h
109 27-06-2017 09:00:00 17.1 C 13.1 g/m*3 17.1 C 1.6 km/h
110 27-06-2017 09:05:00 17.2 C 13.18 g/m*3 17.2 C 0 km/h
111 27-06-2017 09:10:00 17.3 C 13.26 g/m*3 17.3 C 1.6 km/h
112 27-06-2017 09:15:00 17.2 C 12.74 g/m*3 17.2 C 6.4 km/h
113 27-06-2017 09:20:00 17.3 C 12.52 g/m*3 17.3 C 6.4 km/h
114 27-06-2017 09:25:00 17.5 C 12.37 g/m*3 17.5 C 9.7 km/h
115 27-06-2017 09:30:00 17.7 C 12.37 g/m*3 17.7 C 6.4 km/h
116 27-06-2017 09:35:00 17.8 C 12.45 g/m*3 17.8 C 3.2 km/h
117 27-06-2017 09:40:00 17.9 C 12.52 g/m*3 17.9 C 4.8 km/h
118 27-06-2017 09:45:00 18 C 12.44 g/m*3 18 C 4.8 km/h
119 27-06-2017 09:50:00 18.1 C 12.67 g/m*3 18.1 C 6.4 km/h
120 27-06-2017 09:55:00 18.1 C 12.52 g/m*3 18.1 C 6.4 km/h
121 27-06-2017 10:00:00 18.1 C 12.52 g/m*3 18.1 C 8.1 km/h
122 27-06-2017 10:05:00 18.1 C 12.52 g/m*3 18.1 C 8.1 km/h
123 27-06-2017 10:10:00 18.1 C 12.52 g/m*3 18.1 C 8.1 km/h
124 27-06-2017 10:15:00 18.1 C 12.52 g/m*3 18.1 C 8.1 km/h
125 27-06-2017 10:20:00 18.1 C 12.67 g/m*3 18.1 C 8.1 km/h
Sensor: Nr:Datum:Temp:Abs-Feuchte:Windchill:Wind:
Aussen-T/F 126 27-06-2017 10:25:00 18.1 C 12.82 g/m*3 18.1 C 4.8 km/h
127 27-06-2017 10:30:00 18.2 C 13.21 g/m*3 18.2 C 4.8 km/h
128 27-06-2017 10:35:00 18.2 C 13.06 g/m*3 18.2 C 6.4 km/h
129 27-06-2017 10:40:00 18.2 C 12.9 g/m*3 18.2 C 4.8 km/h
130 27-06-2017 10:45:00 18.2 C 13.06 g/m*3 18.2 C 3.2 km/h
131 27-06-2017 10:50:00 18.3 C 13.29 g/m*3 18.3 C 4.8 km/h
132 27-06-2017 10:55:00 18.2 C 13.21 g/m*3 18.2 C 4.8 km/h
133 27-06-2017 11:00:00 18.2 C 13.21 g/m*3 18.2 C 4.8 km/h
134 27-06-2017 11:05:00 18.3 C 13.29 g/m*3 18.3 C 3.2 km/h
135 27-06-2017 11:10:00 18.3 C 13.29 g/m*3 18.3 C 1.6 km/h
136 27-06-2017 11:15:00 18.3 C 13.13 g/m*3 18.3 C 1.6 km/h
137 27-06-2017 11:20:00 18.3 C 13.29 g/m*3 18.3 C 1.6 km/h
138 27-06-2017 11:25:00 18.4 C 13.37 g/m*3 18.4 C 3.2 km/h
139 27-06-2017 11:30:00 18.5 C 13.29 g/m*3 18.5 C 3.2 km/h
140 27-06-2017 11:35:00 18.5 C 13.29 g/m*3 18.5 C 3.2 km/h
141 27-06-2017 11:40:00 18.6 C 13.37 g/m*3 18.6 C 3.2 km/h
142 27-06-2017 11:45:00 18.6 C 13.21 g/m*3 18.6 C 3.2 km/h
143 27-06-2017 11:50:00 18.6 C 13.21 g/m*3 18.6 C 3.2 km/h
144 27-06-2017 11:55:00 18.7 C 13.29 g/m*3 18.7 C 9.7 km/h
145 27-06-2017 12:00:00 18.7 C 13.29 g/m*3 18.7 C 8.1 km/h
146 27-06-2017 12:05:00 18.8 C 13.37 g/m*3 18.8 C 4.8 km/h
147 27-06-2017 12:10:00 18.8 C 13.37 g/m*3 18.8 C 3.2 km/h
148 27-06-2017 12:15:00 19 C 13.36 g/m*3 19 C 8.1 km/h
149 27-06-2017 12:20:00 19 C 13.2 g/m*3 19 C 3.2 km/h
150 27-06-2017 12:25:00 19.1 C 13.44 g/m*3 19.1 C 6.4 km/h
Sensor: Nr:Datum:Temp:Abs-Feuchte:Windchill:Wind:
Aussen-T/F 151 27-06-2017 12:30:00 19 C 13.36 g/m*3 19 C 9.7 km/h
152 27-06-2017 12:35:00 19.1 C 13.44 g/m*3 19.1 C 4.8 km/h
153 27-06-2017 12:40:00 19.1 C 13.44 g/m*3 19.1 C 6.4 km/h
154 27-06-2017 12:45:00 19.1 C 13.61 g/m*3 19.1 C 6.4 km/h
155 27-06-2017 12:50:00 19.2 C 13.69 g/m*3 19.2 C 4.8 km/h
156 27-06-2017 12:55:00 19.2 C 13.85 g/m*3 19.2 C 4.8 km/h
157 27-06-2017 13:00:00 19.2 C 14.02 g/m*3 19.2 C 3.2 km/h
158 27-06-2017 13:05:00 19.2 C 14.02 g/m*3 19.2 C 4.8 km/h
159 27-06-2017 13:10:00 19.1 C 13.77 g/m*3 19.1 C 9.7 km/h
160 27-06-2017 13:15:00 19 C 13.69 g/m*3 19 C 4.8 km/h
161 27-06-2017 13:20:00 19.1 C 14.1 g/m*3 19.1 C 3.2 km/h
162 27-06-2017 13:25:00 19.1 C 13.77 g/m*3 19.1 C 3.2 km/h
163 27-06-2017 13:30:00 19.1 C 13.77 g/m*3 19.1 C 6.4 km/h
164 27-06-2017 13:35:00 19 C 13.85 g/m*3 19 C 8.1 km/h
165 27-06-2017 13:40:00 18.9 C 13.93 g/m*3 18.9 C 6.4 km/h
166 27-06-2017 13:45:00 18.9 C 14.09 g/m*3 18.9 C 8.1 km/h
167 27-06-2017 13:50:00 18.9 C 13.93 g/m*3 18.9 C 6.4 km/h
168 27-06-2017 13:55:00 19.1 C 14.26 g/m*3 19.1 C 6.4 km/h
169 27-06-2017 14:00:00 19.2 C 14.18 g/m*3 19.2 C 9.7 km/h
170 27-06-2017 14:05:00 19.2 C 14.18 g/m*3 19.2 C 8.1 km/h
171 27-06-2017 14:10:00 19.3 C 14.26 g/m*3 19.3 C 4.8 km/h
172 27-06-2017 14:15:00 19.4 C 14.35 g/m*3 19.4 C 4.8 km/h
173 27-06-2017 14:20:00 19.4 C 14.18 g/m*3 19.4 C 6.4 km/h
174 27-06-2017 14:25:00 19.5 C 14.27 g/m*3 19.5 C 4.8 km/h
175 27-06-2017 14:30:00 19.7 C 14.43 g/m*3 19.7 C 9.7 km/h
Sensor: Nr:Datum:Temp:Abs-Feuchte:Windchill:Wind:
Aussen-T/F 176 27-06-2017 14:35:00 19.9 C 14.43 g/m*3 19.9 C 9.7 km/h
177 27-06-2017 14:40:00 20.2 C 14.69 g/m*3 20.2 C 11.3 km/h
178 27-06-2017 14:45:00 20.4 C 14.51 g/m*3 20.4 C 8.1 km/h
179 27-06-2017 14:50:00 20.7 C 14.76 g/m*3 20.7 C 12.9 km/h
180 27-06-2017 14:55:00 20.8 C 14.85 g/m*3 20.8 C 11.3 km/h
181 27-06-2017 15:00:00 21.1 C 14.92 g/m*3 21.1 C 6.4 km/h
182 27-06-2017 15:05:00 21.2 C 15.01 g/m*3 21.2 C 6.4 km/h
183 27-06-2017 15:10:00 21.2 C 14.83 g/m*3 21.2 C 9.7 km/h
184 27-06-2017 15:15:00 21.3 C 15.1 g/m*3 21.3 C 9.7 km/h
185 27-06-2017 15:20:00 21.4 C 15.19 g/m*3 21.4 C 6.4 km/h
186 27-06-2017 15:25:00 21.6 C 15.17 g/m*3 21.6 C 4.8 km/h
187 27-06-2017 15:30:00 21.7 C 15.26 g/m*3 21.7 C 8.1 km/h
188 27-06-2017 15:35:00 21.7 C 15.07 g/m*3 21.7 C 9.7 km/h
189 27-06-2017 15:40:00 21.9 C 15.44 g/m*3 21.9 C 6.4 km/h
190 27-06-2017 15:45:00 22.1 C 15.42 g/m*3 22.1 C 4.8 km/h
191 27-06-2017 15:50:00 22.2 C 15.31 g/m*3 22.2 C 8.1 km/h
192 27-06-2017 15:55:00 22.2 C 15.31 g/m*3 22.2 C 9.7 km/h
193 27-06-2017 16:00:00 22.3 C 15.4 g/m*3 22.3 C 8.1 km/h
194 27-06-2017 16:05:00 22.4 C 15.49 g/m*3 22.4 C 11.3 km/h
195 27-06-2017 16:10:00 22.7 C 15.96 g/m*3 22.7 C 6.4 km/h
196 27-06-2017 16:15:00 22.8 C 15.44 g/m*3 22.8 C 8.1 km/h
197 27-06-2017 16:20:00 22.9 C 15.53 g/m*3 22.9 C 9.7 km/h
198 27-06-2017 16:25:00 23.1 C 15.92 g/m*3 23.1 C 4.8 km/h
199 27-06-2017 16:30:00 23.2 C 15.59 g/m*3 23.2 C 8.1 km/h
200 27-06-2017 16:35:00 23.3 C 15.68 g/m*3 23.3 C 8.1 km/h
Sensor: Nr:Datum:Temp:Abs-Feuchte:Windchill:Wind:
Aussen-T/F 201 27-06-2017 16:40:00 23.4 C 15.56 g/m*3 23.4 C 8.1 km/h
202 27-06-2017 16:45:00 23.5 C 15.65 g/m*3 23.5 C 6.4 km/h
203 27-06-2017 16:50:00 23.6 C 15.74 g/m*3 23.6 C 8.1 km/h
204 27-06-2017 16:55:00 23.6 C 15.53 g/m*3 23.6 C 8.1 km/h
205 27-06-2017 17:00:00 23.6 C 15.74 g/m*3 23.6 C 6.4 km/h
206 27-06-2017 17:05:00 23.6 C 15.53 g/m*3 23.6 C 4.8 km/h
207 27-06-2017 17:10:00 23.6 C 15.53 g/m*3 23.6 C 6.4 km/h
208 27-06-2017 17:15:00 23.7 C 15.61 g/m*3 23.7 C 4.8 km/h
209 27-06-2017 17:20:00 23.7 C 15.61 g/m*3 23.7 C 6.4 km/h
210 27-06-2017 17:25:00 23.7 C 15.61 g/m*3 23.7 C 6.4 km/h
211 27-06-2017 17:30:00 23.6 C 15.53 g/m*3 23.6 C 6.4 km/h
212 27-06-2017 17:35:00 23.4 C 15.56 g/m*3 23.4 C 8.1 km/h
213 27-06-2017 17:40:00 23.3 C 15.47 g/m*3 23.3 C 4.8 km/h
214 27-06-2017 17:45:00 23.2 C 15.59 g/m*3 23.2 C 4.8 km/h
215 27-06-2017 17:50:00 23.1 C 15.71 g/m*3 23.1 C 1.6 km/h
216 27-06-2017 17:55:00 23.1 C 16.12 g/m*3 23.1 C 3.2 km/h
217 27-06-2017 18:00:00 22.9 C 15.94 g/m*3 22.9 C 4.8 km/h
218 27-06-2017 18:05:00 22.7 C 15.96 g/m*3 22.7 C 0 km/h
219 27-06-2017 18:10:00 22.6 C 16.07 g/m*3 22.6 C 0 km/h
220 27-06-2017 18:15:00 22.4 C 16.09 g/m*3 22.4 C 0 km/h
221 27-06-2017 18:20:00 22.2 C 16.3 g/m*3 22.2 C 0 km/h
222 27-06-2017 18:25:00 21.9 C 16.21 g/m*3 21.9 C 0 km/h
223 27-06-2017 18:30:00 21.7 C 16.41 g/m*3 21.7 C 0 km/h
224 27-06-2017 18:35:00 21.4 C 16.12 g/m*3 21.4 C 0 km/h
225 27-06-2017 18:40:00 21.3 C 16.4 g/m*3 21.3 C 0 km/h
Sensor: Nr:Datum:Temp:Abs-Feuchte:Windchill:Wind:
Aussen-T/F 226 27-06-2017 18:45:00 21.1 C 16.21 g/m*3 21.1 C 0 km/h
227 27-06-2017 18:50:00 21 C 16.3 g/m*3 21 C 0 km/h
228 27-06-2017 18:55:00 20.8 C 16.12 g/m*3 20.8 C 0 km/h
229 27-06-2017 19:00:00 20.8 C 16.3 g/m*3 20.8 C 1.6 km/h
230 27-06-2017 19:05:00 20.7 C 16.2 g/m*3 20.7 C 0 km/h
231 27-06-2017 19:10:00 20.7 C 16.38 g/m*3 20.7 C 0 km/h
232 27-06-2017 19:15:00 20.6 C 16.29 g/m*3 20.6 C 0 km/h
233 27-06-2017 19:20:00 20.6 C 16.29 g/m*3 20.6 C 0 km/h
234 27-06-2017 19:25:00 20.4 C 16.28 g/m*3 20.4 C 0 km/h
235 27-06-2017 19:30:00 20.4 C 16.28 g/m*3 20.4 C 0 km/h
236 27-06-2017 19:35:00 20.4 C 16.28 g/m*3 20.4 C 0 km/h
237 27-06-2017 19:40:00 20.4 C 16.45 g/m*3 20.4 C 0 km/h
238 27-06-2017 19:45:00 20.4 C 16.45 g/m*3 20.4 C 0 km/h
239 27-06-2017 19:50:00 20.4 C 16.45 g/m*3 20.4 C 0 km/h
240 27-06-2017 19:55:00 20.4 C 16.45 g/m*3 20.4 C 1.6 km/h
241 27-06-2017 20:00:00 20.4 C 16.45 g/m*3 20.4 C 0 km/h
242 27-06-2017 20:05:00 20.5 C 16.55 g/m*3 20.5 C 0 km/h
243 27-06-2017 20:10:00 20.5 C 16.55 g/m*3 20.5 C 0 km/h
244 27-06-2017 20:15:00 20.5 C 16.55 g/m*3 20.5 C 0 km/h
245 27-06-2017 20:20:00 20.5 C 16.55 g/m*3 20.5 C 0 km/h
246 27-06-2017 20:25:00 20.6 C 16.82 g/m*3 20.6 C 0 km/h
247 27-06-2017 20:30:00 20.7 C 16.92 g/m*3 20.7 C 1.6 km/h
248 27-06-2017 20:35:00 20.7 C 16.74 g/m*3 20.7 C 0 km/h
249 27-06-2017 20:40:00 20.7 C 16.74 g/m*3 20.7 C 0 km/h
250 27-06-2017 20:45:00 20.6 C 16.64 g/m*3 20.6 C 0 km/h
Sensor: Nr:Datum:Temp:Abs-Feuchte:Windchill:Wind:
Aussen-T/F 251 27-06-2017 20:50:00 20.6 C 16.64 g/m*3 20.6 C 0 km/h
252 27-06-2017 20:55:00 20.4 C 16.45 g/m*3 20.4 C 0 km/h
253 27-06-2017 21:00:00 20.3 C 16.36 g/m*3 20.3 C 0 km/h
254 27-06-2017 21:05:00 20.2 C 16.26 g/m*3 20.2 C 0 km/h
255 27-06-2017 21:10:00 20.1 C 16.17 g/m*3 20.1 C 0 km/h
256 27-06-2017 21:15:00 19.9 C 15.98 g/m*3 19.9 C 0 km/h
257 27-06-2017 21:20:00 19.9 C 15.98 g/m*3 19.9 C 0 km/h
258 27-06-2017 21:25:00 19.8 C 15.89 g/m*3 19.8 C 0 km/h
259 27-06-2017 21:30:00 19.7 C 15.79 g/m*3 19.7 C 0 km/h
260 27-06-2017 21:35:00 19.7 C 15.79 g/m*3 19.7 C 0 km/h
261 27-06-2017 21:40:00 19.6 C 15.7 g/m*3 19.6 C 0 km/h
262 27-06-2017 21:45:00 19.6 C 15.7 g/m*3 19.6 C 0 km/h
263 27-06-2017 21:50:00 19.5 C 15.61 g/m*3 19.5 C 0 km/h
264 27-06-2017 21:55:00 19.4 C 15.52 g/m*3 19.4 C 0 km/h
265 27-06-2017 22:00:00 19.3 C 15.59 g/m*3 19.3 C 0 km/h
266 27-06-2017 22:05:00 19.3 C 15.59 g/m*3 19.3 C 0 km/h
267 27-06-2017 22:10:00 19.3 C 15.59 g/m*3 19.3 C 0 km/h
268 27-06-2017 22:15:00 19.2 C 15.5 g/m*3 19.2 C 0 km/h
269 27-06-2017 22:20:00 19.2 C 15.5 g/m*3 19.2 C 0 km/h
270 27-06-2017 22:25:00 19.2 C 15.5 g/m*3 19.2 C 0 km/h
271 27-06-2017 22:30:00 19.2 C 15.5 g/m*3 19.2 C 0 km/h
272 27-06-2017 22:35:00 19.2 C 15.5 g/m*3 19.2 C 0 km/h
273 27-06-2017 22:40:00 19.1 C 15.41 g/m*3 19.1 C 0 km/h
274 27-06-2017 22:45:00 19.1 C 15.41 g/m*3 19.1 C 0 km/h
275 27-06-2017 22:50:00 19.1 C 15.41 g/m*3 19.1 C 0 km/h
Sensor: Nr:Datum:Temp:Abs-Feuchte:Windchill:Wind:
Aussen-T/F 276 27-06-2017 22:55:00 19.1 C 15.57 g/m*3 19.1 C 0 km/h
277 27-06-2017 23:00:00 19.1 C 15.57 g/m*3 19.1 C 0 km/h
278 27-06-2017 23:05:00 19 C 15.48 g/m*3 19 C 0 km/h
279 27-06-2017 23:10:00 19 C 15.48 g/m*3 19 C 0 km/h
280 27-06-2017 23:15:00 18.9 C 15.39 g/m*3 18.9 C 0 km/h
281 27-06-2017 23:20:00 18.9 C 15.39 g/m*3 18.9 C 0 km/h
282 27-06-2017 23:25:00 18.9 C 15.39 g/m*3 18.9 C 0 km/h
283 27-06-2017 23:30:00 18.9 C 15.39 g/m*3 18.9 C 0 km/h
284 27-06-2017 23:35:00 18.9 C 15.39 g/m*3 18.9 C 0 km/h
285 27-06-2017 23:40:00 18.9 C 15.39 g/m*3 18.9 C 0 km/h
286 27-06-2017 23:45:00 18.9 C 15.39 g/m*3 18.9 C 0 km/h
287 27-06-2017 23:50:00 18.9 C 15.39 g/m*3 18.9 C 0 km/h
288 27-06-2017 23:55:00 18.9 C 15.39 g/m*3 18.9 C 0 km/h
289 28-06-2017 00:00:00 18.8 C 15.3 g/m*3 18.8 C 0 km/h
290 28-06-2017 00:05:00 18.8 C 15.3 g/m*3 18.8 C 0 km/h
291 28-06-2017 00:10:00 18.8 C 15.3 g/m*3 18.8 C 0 km/h
292 28-06-2017 00:15:00 18.8 C 15.3 g/m*3 18.8 C 0 km/h
293 28-06-2017 00:20:00 18.8 C 15.3 g/m*3 18.8 C 0 km/h
294 28-06-2017 00:25:00 18.8 C 15.3 g/m*3 18.8 C 0 km/h
295 28-06-2017 00:30:00 18.8 C 15.3 g/m*3 18.8 C 0 km/h
296 28-06-2017 00:35:00 18.8 C 15.3 g/m*3 18.8 C 0 km/h
297 28-06-2017 00:40:00 18.8 C 15.3 g/m*3 18.8 C 0 km/h
298 28-06-2017 00:45:00 18.8 C 15.3 g/m*3 18.8 C 0 km/h
299 28-06-2017 00:50:00 18.7 C 15.21 g/m*3 18.7 C 0 km/h
300 28-06-2017 00:55:00 18.7 C 15.21 g/m*3 18.7 C 0 km/h
Sensor: Nr:Datum:Temp:Abs-Feuchte:Windchill:Wind:
Aussen-T/F 301 28-06-2017 01:00:00 18.7 C 15.21 g/m*3 18.7 C 0 km/h
302 28-06-2017 01:05:00 18.7 C 15.37 g/m*3 18.7 C 1.6 km/h
303 28-06-2017 01:10:00 18.8 C 15.46 g/m*3 18.8 C 1.6 km/h
304 28-06-2017 01:15:00 18.8 C 15.46 g/m*3 18.8 C 0 km/h
305 28-06-2017 01:20:00 18.8 C 15.46 g/m*3 18.8 C 4.8 km/h
306 28-06-2017 01:25:00 18.8 C 15.46 g/m*3 18.8 C 4.8 km/h
307 28-06-2017 01:30:00 18.8 C 15.46 g/m*3 18.8 C 4.8 km/h
308 28-06-2017 01:35:00 18.8 C 15.46 g/m*3 18.8 C 6.4 km/h
309 28-06-2017 01:40:00 18.8 C 15.46 g/m*3 18.8 C 3.2 km/h
310 28-06-2017 01:45:00 18.8 C 15.46 g/m*3 18.8 C 1.6 km/h
311 28-06-2017 01:50:00 18.7 C 15.37 g/m*3 18.7 C 1.6 km/h
312 28-06-2017 01:55:00 18.7 C 15.37 g/m*3 18.7 C 0 km/h
313 28-06-2017 02:00:00 18.7 C 15.37 g/m*3 18.7 C 0 km/h
314 28-06-2017 02:05:00 18.6 C 15.12 g/m*3 18.6 C 0 km/h
315 28-06-2017 02:10:00 18.6 C 15.12 g/m*3 18.6 C 0 km/h
316 28-06-2017 02:15:00 18.5 C 15.03 g/m*3 18.5 C 0 km/h
317 28-06-2017 02:20:00 18.4 C 14.94 g/m*3 18.4 C 0 km/h
318 28-06-2017 02:25:00 18.4 C 15.1 g/m*3 18.4 C 0 km/h
319 28-06-2017 02:30:00 18.3 C 15.01 g/m*3 18.3 C 0 km/h
320 28-06-2017 02:35:00 18.3 C 15.01 g/m*3 18.3 C 0 km/h
321 28-06-2017 02:40:00 18.2 C 14.77 g/m*3 18.2 C 0 km/h
322 28-06-2017 02:45:00 18.2 C 14.77 g/m*3 18.2 C 0 km/h
323 28-06-2017 02:50:00 18.2 C 14.92 g/m*3 18.2 C 0 km/h
324 28-06-2017 02:55:00 18.2 C 14.92 g/m*3 18.2 C 0 km/h
325 28-06-2017 03:00:00 18.2 C 14.92 g/m*3 18.2 C 0 km/h
Sensor: Nr:Datum:Temp:Abs-Feuchte:Windchill:Wind:
Aussen-T/F 326 28-06-2017 03:05:00 18.2 C 14.92 g/m*3 18.2 C 0 km/h
327 28-06-2017 03:10:00 18.2 C 14.92 g/m*3 18.2 C 0 km/h
328 28-06-2017 03:15:00 18.1 C 14.83 g/m*3 18.1 C 0 km/h
329 28-06-2017 03:20:00 18.2 C 14.92 g/m*3 18.2 C 1.6 km/h
330 28-06-2017 03:25:00 18.3 C 15.01 g/m*3 18.3 C 9.7 km/h
331 28-06-2017 03:30:00 18.3 C 15.01 g/m*3 18.3 C 1.6 km/h
332 28-06-2017 03:35:00 18.4 C 15.1 g/m*3 18.4 C 0 km/h
333 28-06-2017 03:40:00 18.3 C 15.01 g/m*3 18.3 C 0 km/h
334 28-06-2017 03:45:00 18.3 C 15.01 g/m*3 18.3 C 0 km/h
335 28-06-2017 03:50:00 18.3 C 15.01 g/m*3 18.3 C 0 km/h
336 28-06-2017 03:55:00 18.2 C 14.92 g/m*3 18.2 C 0 km/h
337 28-06-2017 04:00:00 18.2 C 14.92 g/m*3 18.2 C 3.2 km/h
338 28-06-2017 04:05:00 18.1 C 14.83 g/m*3 18.1 C 17.7 km/h
339 28-06-2017 04:10:00 18 C 14.75 g/m*3 18 C 4.8 km/h
340 28-06-2017 04:15:00 18 C 14.75 g/m*3 18 C 3.2 km/h
341 28-06-2017 04:20:00 18 C 14.75 g/m*3 18 C 4.8 km/h
342 28-06-2017 04:25:00 18 C 14.75 g/m*3 18 C 1.6 km/h
343 28-06-2017 04:30:00 18 C 14.75 g/m*3 18 C 0 km/h
344 28-06-2017 04:35:00 17.9 C 14.66 g/m*3 17.9 C 0 km/h
345 28-06-2017 04:40:00 17.9 C 14.66 g/m*3 17.9 C 0 km/h
346 28-06-2017 04:45:00 17.9 C 14.66 g/m*3 17.9 C 0 km/h
347 28-06-2017 04:50:00 17.8 C 14.57 g/m*3 17.8 C 0 km/h
348 28-06-2017 04:55:00 17.8 C 14.57 g/m*3 17.8 C 0 km/h
349 28-06-2017 05:00:00 17.8 C 14.57 g/m*3 17.8 C 0 km/h
350 28-06-2017 05:05:00 17.8 C 14.57 g/m*3 17.8 C 0 km/h
Sensor: Nr:Datum:Temp:Abs-Feuchte:Windchill:Wind:
Aussen-T/F 351 28-06-2017 05:10:00 17.8 C 14.57 g/m*3 17.8 C 0 km/h
352 28-06-2017 05:15:00 17.8 C 14.57 g/m*3 17.8 C 0 km/h
353 28-06-2017 05:20:00 17.8 C 14.57 g/m*3 17.8 C 0 km/h
354 28-06-2017 05:25:00 17.8 C 14.57 g/m*3 17.8 C 0 km/h
355 28-06-2017 05:30:00 17.8 C 14.57 g/m*3 17.8 C 0 km/h
356 28-06-2017 05:35:00 17.8 C 14.57 g/m*3 17.8 C 0 km/h
357 28-06-2017 05:40:00 17.8 C 14.57 g/m*3 17.8 C 0 km/h
358 28-06-2017 05:45:00 17.8 C 14.57 g/m*3 17.8 C 0 km/h
359 28-06-2017 05:50:00 17.8 C 14.57 g/m*3 17.8 C 0 km/h
360 28-06-2017 05:55:00 17.8 C 14.57 g/m*3 17.8 C 0 km/h
361 28-06-2017 06:00:00 17.8 C 14.57 g/m*3 17.8 C 0 km/h
362 28-06-2017 06:05:00 17.8 C 14.57 g/m*3 17.8 C 0 km/h
363 28-06-2017 06:10:00 17.8 C 14.57 g/m*3 17.8 C 0 km/h
364 28-06-2017 06:15:00 17.9 C 14.66 g/m*3 17.9 C 0 km/h
365 28-06-2017 06:20:00 17.9 C 14.66 g/m*3 17.9 C 0 km/h
366 28-06-2017 06:25:00 17.9 C 14.66 g/m*3 17.9 C 0 km/h
367 28-06-2017 06:30:00 17.9 C 14.66 g/m*3 17.9 C 0 km/h
368 28-06-2017 06:35:00 18 C 14.9 g/m*3 18 C 0 km/h
369 28-06-2017 06:40:00 18.1 C 14.99 g/m*3 18.1 C 0 km/h
370 28-06-2017 06:45:00 18.1 C 14.99 g/m*3 18.1 C 0 km/h
371 28-06-2017 06:50:00 18.2 C 15.08 g/m*3 18.2 C 0 km/h
372 28-06-2017 06:55:00 18.2 C 15.08 g/m*3 18.2 C 0 km/h
373 28-06-2017 07:00:00 18.2 C 14.92 g/m*3 18.2 C 0 km/h
374 28-06-2017 07:05:00 18.2 C 14.92 g/m*3 18.2 C 0 km/h
375 28-06-2017 07:10:00 18.3 C 15.01 g/m*3 18.3 C 0 km/h
Sensor: Nr:Datum:Temp:Abs-Feuchte:Windchill:Wind:
Aussen-T/F 376 28-06-2017 07:15:00 18.3 C 15.01 g/m*3 18.3 C 0 km/h
377 28-06-2017 07:20:00 18.3 C 15.01 g/m*3 18.3 C 0 km/h
378 28-06-2017 07:25:00 18.3 C 15.01 g/m*3 18.3 C 0 km/h
379 28-06-2017 07:30:00 18.3 C 15.01 g/m*3 18.3 C 0 km/h
380 28-06-2017 07:35:00 18.3 C 15.01 g/m*3 18.3 C 0 km/h
381 28-06-2017 07:40:00 18.3 C 15.01 g/m*3 18.3 C 1.6 km/h
382 28-06-2017 07:45:00 18.3 C 15.01 g/m*3 18.3 C 0 km/h
383 28-06-2017 07:50:00 18.4 C 15.26 g/m*3 18.4 C 0 km/h
384 28-06-2017 07:55:00 18.4 C 15.26 g/m*3 18.4 C 0 km/h
385 28-06-2017 08:00:00 18.6 C 15.44 g/m*3 18.6 C 0 km/h
386 28-06-2017 08:05:00 18.7 C 15.53 g/m*3 18.7 C 0 km/h
387 28-06-2017 08:10:00 18.8 C 15.62 g/m*3 18.8 C 0 km/h
388 28-06-2017 08:15:00 19 C 15.81 g/m*3 19 C 0 km/h
389 28-06-2017 08:20:00 19.1 C 15.9 g/m*3 19.1 C 0 km/h
390 28-06-2017 08:25:00 19.3 C 16.09 g/m*3 19.3 C 1.6 km/h
391 28-06-2017 08:30:00 19.4 C 16.18 g/m*3 19.4 C 0 km/h
392 28-06-2017 08:35:00 19.4 C 16.18 g/m*3 19.4 C 0 km/h
393 28-06-2017 08:40:00 19.4 C 16.18 g/m*3 19.4 C 0 km/h
394 28-06-2017 08:45:00 19.4 C 16.18 g/m*3 19.4 C 0 km/h
395 28-06-2017 08:50:00 19.3 C 16.09 g/m*3 19.3 C 0 km/h
396 28-06-2017 08:55:00 19.3 C 16.09 g/m*3 19.3 C 0 km/h
397 28-06-2017 09:00:00 19.2 C 15.99 g/m*3 19.2 C 0 km/h
398 28-06-2017 09:05:00 19.2 C 15.99 g/m*3 19.2 C 1.6 km/h
399 28-06-2017 09:10:00 19.1 C 15.74 g/m*3 19.1 C 3.2 km/h
400 28-06-2017 09:15:00 18.9 C 15.55 g/m*3 18.9 C 0 km/h
Sensor: Nr:Datum:Temp:Abs-Feuchte:Windchill:Wind:
Aussen-T/F 401 28-06-2017 09:20:00 18.8 C 15.46 g/m*3 18.8 C 0 km/h
402 28-06-2017 09:25:00 18.8 C 15.46 g/m*3 18.8 C 1.6 km/h
403 28-06-2017 09:30:00 18.8 C 15.46 g/m*3 18.8 C 3.2 km/h
404 28-06-2017 09:35:00 18.8 C 15.62 g/m*3 18.8 C 0 km/h
405 28-06-2017 09:40:00 18.8 C 15.46 g/m*3 18.8 C 6.4 km/h
406 28-06-2017 09:45:00 18.8 C 15.46 g/m*3 18.8 C 0 km/h
407 28-06-2017 09:50:00 18.9 C 15.71 g/m*3 18.9 C 0 km/h
408 28-06-2017 09:55:00 18.9 C 15.71 g/m*3 18.9 C 0 km/h
409 28-06-2017 10:00:00 19 C 15.64 g/m*3 19 C 0 km/h
410 28-06-2017 10:05:00 19.1 C 15.74 g/m*3 19.1 C 0 km/h
411 28-06-2017 10:10:00 19.1 C 15.9 g/m*3 19.1 C 3.2 km/h
412 28-06-2017 10:15:00 19.1 C 15.9 g/m*3 19.1 C 0 km/h
413 28-06-2017 10:20:00 19.1 C 15.9 g/m*3 19.1 C 0 km/h
414 28-06-2017 10:25:00 19.1 C 15.9 g/m*3 19.1 C 0 km/h
415 28-06-2017 10:30:00 19.2 C 15.99 g/m*3 19.2 C 0 km/h
416 28-06-2017 10:35:00 19.1 C 15.74 g/m*3 19.1 C 0 km/h
417 28-06-2017 10:40:00 19.1 C 15.74 g/m*3 19.1 C 0 km/h
418 28-06-2017 10:45:00 19.1 C 15.74 g/m*3 19.1 C 0 km/h
419 28-06-2017 10:50:00 19.1 C 15.9 g/m*3 19.1 C 1.6 km/h
420 28-06-2017 10:55:00 19.3 C 16.09 g/m*3 19.3 C 0 km/h
421 28-06-2017 11:00:00 19.4 C 16.18 g/m*3 19.4 C 0 km/h
422 28-06-2017 11:05:00 19.6 C 16.38 g/m*3 19.6 C 1.6 km/h
423 28-06-2017 11:10:00 19.7 C 16.47 g/m*3 19.7 C 0 km/h
424 28-06-2017 11:15:00 19.8 C 16.57 g/m*3 19.8 C 1.6 km/h
425 28-06-2017 11:20:00 19.9 C 16.67 g/m*3 19.9 C 3.2 km/h
Sensor: Nr:Datum:Temp:Abs-Feuchte:Windchill:Wind:
Aussen-T/F 426 28-06-2017 11:25:00 19.7 C 16.3 g/m*3 19.7 C 8.1 km/h
427 28-06-2017 11:30:00 19.7 C 16.3 g/m*3 19.7 C 0 km/h
428 28-06-2017 11:35:00 19.7 C 16.3 g/m*3 19.7 C 0 km/h
429 28-06-2017 11:40:00 19.7 C 16.3 g/m*3 19.7 C 1.6 km/h
430 28-06-2017 11:45:00 19.6 C 16.04 g/m*3 19.6 C 6.4 km/h
431 28-06-2017 11:50:00 19.8 C 16.4 g/m*3 19.8 C 3.2 km/h
432 28-06-2017 11:55:00 19.9 C 16.32 g/m*3 19.9 C 8.1 km/h
433 28-06-2017 12:00:00 19.8 C 16.06 g/m*3 19.8 C 6.4 km/h
434 28-06-2017 12:05:00 20 C 16.24 g/m*3 20 C 8.1 km/h
435 28-06-2017 12:10:00 20.1 C 16.34 g/m*3 20.1 C 12.9 km/h
436 28-06-2017 12:15:00 20.1 C 16.17 g/m*3 20.1 C 8.1 km/h
437 28-06-2017 12:20:00 20.2 C 16.26 g/m*3 20.2 C 6.4 km/h
438 28-06-2017 12:25:00 20.3 C 16.18 g/m*3 20.3 C 9.7 km/h
439 28-06-2017 12:30:00 20.4 C 16.1 g/m*3 20.4 C 8.1 km/h
440 28-06-2017 12:35:00 20.5 C 16.01 g/m*3 20.5 C 6.4 km/h
441 28-06-2017 12:40:00 20.6 C 15.93 g/m*3 20.6 C 6.4 km/h
442 28-06-2017 12:45:00 20.8 C 16.12 g/m*3 20.8 C 4.8 km/h
443 28-06-2017 12:50:00 20.9 C 15.84 g/m*3 20.9 C 8.1 km/h
444 28-06-2017 12:55:00 21.2 C 16.68 g/m*3 21.2 C 0 km/h
445 28-06-2017 13:00:00 21.4 C 16.87 g/m*3 21.4 C 0 km/h
446 28-06-2017 13:05:00 21.5 C 16.78 g/m*3 21.5 C 8.1 km/h
447 28-06-2017 13:10:00 21.6 C 16.88 g/m*3 21.6 C 1.6 km/h
448 28-06-2017 13:15:00 21.5 C 15.84 g/m*3 21.5 C 11.3 km/h
449 28-06-2017 13:20:00 21.4 C 15.94 g/m*3 21.4 C 14.5 km/h
450 28-06-2017 13:25:00 21.2 C 15.38 g/m*3 21.2 C 11.3 km/h
Sensor: Nr:Datum:Temp:Abs-Feuchte:Windchill:Wind:
Aussen-T/F 451 28-06-2017 13:30:00 21.2 C 15.75 g/m*3 21.2 C 11.3 km/h
452 28-06-2017 13:35:00 21.1 C 15.48 g/m*3 21.1 C 11.3 km/h
453 28-06-2017 13:40:00 20.9 C 15.3 g/m*3 20.9 C 16.1 km/h
454 28-06-2017 13:45:00 20.8 C 15.39 g/m*3 20.8 C 14.5 km/h
455 28-06-2017 13:50:00 20.7 C 15.48 g/m*3 20.7 C 6.4 km/h
456 28-06-2017 13:55:00 20.8 C 15.39 g/m*3 20.8 C 11.3 km/h
457 28-06-2017 14:00:00 21.1 C 15.66 g/m*3 21.1 C 12.9 km/h
458 28-06-2017 14:05:00 21.4 C 15.94 g/m*3 21.4 C 8.1 km/h
459 28-06-2017 14:10:00 21.6 C 16.12 g/m*3 21.6 C 8.1 km/h
460 28-06-2017 14:15:00 21.7 C 15.64 g/m*3 21.7 C 16.1 km/h
461 28-06-2017 14:20:00 21.7 C 15.07 g/m*3 21.7 C 14.5 km/h
462 28-06-2017 14:25:00 21.6 C 14.98 g/m*3 21.6 C 14.5 km/h
463 28-06-2017 14:30:00 21.6 C 15.17 g/m*3 21.6 C 14.5 km/h
464 28-06-2017 14:35:00 21.6 C 15.36 g/m*3 21.6 C 17.7 km/h
465 28-06-2017 14:40:00 21.7 C 15.26 g/m*3 21.7 C 12.9 km/h
466 28-06-2017 14:45:00 21.7 C 14.88 g/m*3 21.7 C 14.5 km/h
467 28-06-2017 14:50:00 21.7 C 15.45 g/m*3 21.7 C 12.9 km/h
468 28-06-2017 14:55:00 21.7 C 15.07 g/m*3 21.7 C 12.9 km/h
469 28-06-2017 15:00:00 21.7 C 15.26 g/m*3 21.7 C 6.4 km/h
470 28-06-2017 15:05:00 21.8 C 15.73 g/m*3 21.8 C 9.7 km/h
471 28-06-2017 15:10:00 21.9 C 14.86 g/m*3 21.9 C 12.9 km/h
472 28-06-2017 15:15:00 21.9 C 15.05 g/m*3 21.9 C 8.1 km/h
473 28-06-2017 15:20:00 21.9 C 14.86 g/m*3 21.9 C 9.7 km/h
474 28-06-2017 15:25:00 21.8 C 15.16 g/m*3 21.8 C 8.1 km/h
475 28-06-2017 15:30:00 21.8 C 15.54 g/m*3 21.8 C 6.4 km/h
Sensor: Nr:Datum:Temp:Abs-Feuchte:Windchill:Wind:
Aussen-T/F 476 28-06-2017 15:35:00 21.7 C 16.02 g/m*3 21.7 C 1.6 km/h
477 28-06-2017 15:40:00 21.7 C 16.02 g/m*3 21.7 C 3.2 km/h
478 28-06-2017 15:45:00 21.8 C 16.12 g/m*3 21.8 C 3.2 km/h
479 28-06-2017 15:50:00 21.8 C 16.5 g/m*3 21.8 C 1.6 km/h
480 28-06-2017 15:55:00 22.1 C 16.98 g/m*3 22.1 C 4.8 km/h
481 28-06-2017 16:00:00 22.8 C 17.27 g/m*3 22.8 C 8.1 km/h
482 28-06-2017 16:05:00 23.3 C 16.73 g/m*3 23.3 C 9.7 km/h
483 28-06-2017 16:10:00 23.4 C 16.19 g/m*3 23.4 C 11.3 km/h
484 28-06-2017 16:15:00 23.1 C 15.92 g/m*3 23.1 C 3.2 km/h
485 28-06-2017 16:20:00 22.8 C 15.44 g/m*3 22.8 C 6.4 km/h
486 28-06-2017 16:25:00 22.5 C 15.78 g/m*3 22.5 C 14.5 km/h
487 28-06-2017 16:30:00 21.8 C 15.73 g/m*3 21.8 C 12.9 km/h
488 28-06-2017 16:35:00 21.2 C 15.57 g/m*3 21.2 C 4.8 km/h
489 28-06-2017 16:40:00 21.2 C 16.68 g/m*3 21.2 C 1.6 km/h
490 28-06-2017 16:45:00 21.5 C 17.35 g/m*3 21.5 C 6.4 km/h
491 28-06-2017 16:50:00 22 C 18.05 g/m*3 22 C 4.8 km/h
492 28-06-2017 16:55:00 22.1 C 17.18 g/m*3 22.1 C 11.3 km/h
493 28-06-2017 17:00:00 22.4 C 17.87 g/m*3 22.4 C 8.1 km/h
494 28-06-2017 17:05:00 22.8 C 18.08 g/m*3 22.8 C 4.8 km/h
495 28-06-2017 17:10:00 23.1 C 17.98 g/m*3 23.1 C 6.4 km/h
496 28-06-2017 17:15:00 23.2 C 17.26 g/m*3 23.2 C 9.7 km/h
497 28-06-2017 17:20:00 23.6 C 18.08 g/m*3 23.6 C 3.2 km/h
498 28-06-2017 17:25:00 23.7 C 17.54 g/m*3 23.7 C 6.4 km/h
499 28-06-2017 17:30:00 23.9 C 17.74 g/m*3 23.9 C 8.1 km/h
500 28-06-2017 17:35:00 24.1 C 16.85 g/m*3 24.1 C 9.7 km/h
Sensor: Nr:Datum:Temp:Abs-Feuchte:Windchill:Wind:
Aussen-T/F 501 28-06-2017 17:40:00 24.2 C 16.72 g/m*3 24.2 C 6.4 km/h
502 28-06-2017 17:45:00 24.2 C 16.94 g/m*3 24.2 C 8.1 km/h
503 28-06-2017 17:50:00 24.1 C 17.72 g/m*3 24.1 C 1.6 km/h
504 28-06-2017 17:55:00 23.8 C 17.42 g/m*3 23.8 C 0 km/h
505 28-06-2017 18:00:00 23.4 C 17.24 g/m*3 23.4 C 0 km/h
506 28-06-2017 18:05:00 23.2 C 17.46 g/m*3 23.2 C 1.6 km/h
507 28-06-2017 18:10:00 23 C 17.47 g/m*3 23 C 0 km/h
508 28-06-2017 18:15:00 22.9 C 17.17 g/m*3 22.9 C 0 km/h
509 28-06-2017 18:20:00 22.7 C 16.97 g/m*3 22.7 C 0 km/h
510 28-06-2017 18:25:00 22.5 C 16.98 g/m*3 22.5 C 0 km/h
511 28-06-2017 18:30:00 22.3 C 16.98 g/m*3 22.3 C 0 km/h
512 28-06-2017 18:35:00 22.4 C 17.68 g/m*3 22.4 C 0 km/h
513 28-06-2017 18:40:00 22.8 C 17.48 g/m*3 22.8 C 4.8 km/h
514 28-06-2017 18:45:00 23.3 C 17.14 g/m*3 23.3 C 4.8 km/h
515 28-06-2017 18:50:00 23.5 C 16.28 g/m*3 23.5 C 4.8 km/h
516 28-06-2017 18:55:00 23.3 C 16.52 g/m*3 23.3 C 4.8 km/h
517 28-06-2017 19:00:00 23.1 C 16.54 g/m*3 23.1 C 0 km/h
518 28-06-2017 19:05:00 22.8 C 17.07 g/m*3 22.8 C 0 km/h
519 28-06-2017 19:10:00 22.6 C 16.87 g/m*3 22.6 C 0 km/h
520 28-06-2017 19:15:00 22.2 C 16.69 g/m*3 22.2 C 0 km/h
521 28-06-2017 19:20:00 22 C 16.5 g/m*3 22 C 0 km/h
522 28-06-2017 19:25:00 21.8 C 16.31 g/m*3 21.8 C 0 km/h
523 28-06-2017 19:30:00 21.6 C 16.31 g/m*3 21.6 C 0 km/h
524 28-06-2017 19:35:00 21.4 C 16.31 g/m*3 21.4 C 0 km/h
525 28-06-2017 19:40:00 21.3 C 16.4 g/m*3 21.3 C 0 km/h
Sensor: Nr:Datum:Temp:Abs-Feuchte:Windchill:Wind:
Aussen-T/F 526 28-06-2017 19:45:00 21.6 C 16.88 g/m*3 21.6 C 0 km/h
527 28-06-2017 19:50:00 21.7 C 16.79 g/m*3 21.7 C 0 km/h
528 28-06-2017 19:55:00 22 C 16.89 g/m*3 22 C 1.6 km/h
529 28-06-2017 20:00:00 22.3 C 17.18 g/m*3 22.3 C 0 km/h
530 28-06-2017 20:05:00 22.4 C 16.48 g/m*3 22.4 C 0 km/h
531 28-06-2017 20:10:00 22.7 C 16.97 g/m*3 22.7 C 0 km/h
532 28-06-2017 20:15:00 22.9 C 16.96 g/m*3 22.9 C 0 km/h
533 28-06-2017 20:20:00 22.9 C 16.76 g/m*3 22.9 C 0 km/h
534 28-06-2017 20:25:00 22.9 C 16.55 g/m*3 22.9 C 1.6 km/h
535 28-06-2017 20:30:00 22.8 C 16.66 g/m*3 22.8 C 1.6 km/h
536 28-06-2017 20:35:00 22.7 C 16.37 g/m*3 22.7 C 0 km/h
537 28-06-2017 20:40:00 22.3 C 15.8 g/m*3 22.3 C 0 km/h
538 28-06-2017 20:45:00 21.9 C 15.63 g/m*3 21.9 C 1.6 km/h
539 28-06-2017 20:50:00 21.5 C 15.46 g/m*3 21.5 C 0 km/h
540 28-06-2017 20:55:00 21.2 C 15.38 g/m*3 21.2 C 1.6 km/h
541 28-06-2017 21:00:00 20.9 C 15.3 g/m*3 20.9 C 0 km/h
542 28-06-2017 21:05:00 20.7 C 15.12 g/m*3 20.7 C 0 km/h
543 28-06-2017 21:10:00 20.4 C 14.86 g/m*3 20.4 C 0 km/h
544 28-06-2017 21:15:00 20.2 C 14.69 g/m*3 20.2 C 0 km/h
545 28-06-2017 21:20:00 19.9 C 14.6 g/m*3 19.9 C 0 km/h
546 28-06-2017 21:25:00 19.7 C 14.6 g/m*3 19.7 C 0 km/h
547 28-06-2017 21:30:00 19.4 C 14.52 g/m*3 19.4 C 1.6 km/h
548 28-06-2017 21:35:00 19.2 C 14.35 g/m*3 19.2 C 0 km/h
549 28-06-2017 21:40:00 19.1 C 14.43 g/m*3 19.1 C 1.6 km/h
550 28-06-2017 21:45:00 18.8 C 14.17 g/m*3 18.8 C 0 km/h
Sensor: Nr:Datum:Temp:Abs-Feuchte:Windchill:Wind:
Aussen-T/F 551 28-06-2017 21:50:00 18.7 C 14.09 g/m*3 18.7 C 0 km/h
552 28-06-2017 21:55:00 18.6 C 14.17 g/m*3 18.6 C 0 km/h
553 28-06-2017 22:00:00 18.4 C 14 g/m*3 18.4 C 0 km/h
554 28-06-2017 22:05:00 18.3 C 13.92 g/m*3 18.3 C 0 km/h
555 28-06-2017 22:10:00 18.2 C 13.99 g/m*3 18.2 C 0 km/h
556 28-06-2017 22:15:00 18.1 C 13.91 g/m*3 18.1 C 0 km/h
557 28-06-2017 22:20:00 17.9 C 13.74 g/m*3 17.9 C 0 km/h
558 28-06-2017 22:25:00 17.8 C 13.66 g/m*3 17.8 C 0 km/h
559 28-06-2017 22:30:00 17.7 C 13.58 g/m*3 17.7 C 0 km/h
560 28-06-2017 22:35:00 17.6 C 13.65 g/m*3 17.6 C 0 km/h
561 28-06-2017 22:40:00 17.4 C 13.49 g/m*3 17.4 C 0 km/h
562 28-06-2017 22:45:00 17.3 C 13.41 g/m*3 17.3 C 0 km/h
563 28-06-2017 22:50:00 17.3 C 13.41 g/m*3 17.3 C 0 km/h
564 28-06-2017 22:55:00 17.2 C 13.47 g/m*3 17.2 C 0 km/h
565 28-06-2017 23:00:00 17.1 C 13.39 g/m*3 17.1 C 0 km/h
566 28-06-2017 23:05:00 16.9 C 13.23 g/m*3 16.9 C 0 km/h
567 28-06-2017 23:10:00 16.8 C 13.15 g/m*3 16.8 C 0 km/h
568 28-06-2017 23:15:00 16.7 C 13.07 g/m*3 16.7 C 0 km/h
569 28-06-2017 23:20:00 16.6 C 13 g/m*3 16.6 C 0 km/h
570 28-06-2017 23:25:00 16.5 C 13.06 g/m*3 16.5 C 0 km/h
571 28-06-2017 23:30:00 16.4 C 12.98 g/m*3 16.4 C 0 km/h
572 28-06-2017 23:35:00 16.4 C 12.98 g/m*3 16.4 C 0 km/h
573 28-06-2017 23:40:00 16.3 C 12.9 g/m*3 16.3 C 0 km/h
574 28-06-2017 23:45:00 16.2 C 12.82 g/m*3 16.2 C 0 km/h
575 28-06-2017 23:50:00 16.2 C 12.82 g/m*3 16.2 C 0 km/h
Sensor: Nr:Datum:Temp:Abs-Feuchte:Windchill:Wind:
Aussen-T/F 576 28-06-2017 23:55:00 16.2 C 12.82 g/m*3 16.2 C 0 km/h
577 29-06-2017 00:00:00 16.1 C 12.88 g/m*3 16.1 C 0 km/h
578 29-06-2017 00:05:00 16.1 C 12.88 g/m*3 16.1 C 0 km/h
579 29-06-2017 00:10:00 16.1 C 12.88 g/m*3 16.1 C 0 km/h
580 29-06-2017 00:15:00 16 C 12.81 g/m*3 16 C 0 km/h
581 29-06-2017 00:20:00 15.9 C 12.73 g/m*3 15.9 C 0 km/h
582 29-06-2017 00:25:00 15.9 C 12.73 g/m*3 15.9 C 0 km/h
583 29-06-2017 00:30:00 15.9 C 12.73 g/m*3 15.9 C 0 km/h
584 29-06-2017 00:35:00 15.8 C 12.65 g/m*3 15.8 C 0 km/h
585 29-06-2017 00:40:00 15.8 C 12.65 g/m*3 15.8 C 0 km/h
586 29-06-2017 00:45:00 15.7 C 12.58 g/m*3 15.7 C 0 km/h
587 29-06-2017 00:50:00 15.7 C 12.58 g/m*3 15.7 C 0 km/h
588 29-06-2017 00:55:00 15.7 C 12.58 g/m*3 15.7 C 0 km/h
589 29-06-2017 01:00:00 15.7 C 12.71 g/m*3 15.7 C 0 km/h
590 29-06-2017 01:05:00 15.7 C 12.71 g/m*3 15.7 C 0 km/h
591 29-06-2017 01:10:00 15.6 C 12.5 g/m*3 15.6 C 0 km/h
592 29-06-2017 01:15:00 15.6 C 12.63 g/m*3 15.6 C 0 km/h
593 29-06-2017 01:20:00 15.6 C 12.63 g/m*3 15.6 C 0 km/h
594 29-06-2017 01:25:00 15.6 C 12.63 g/m*3 15.6 C 0 km/h
595 29-06-2017 01:30:00 15.7 C 12.71 g/m*3 15.7 C 0 km/h
596 29-06-2017 01:35:00 15.7 C 12.71 g/m*3 15.7 C 0 km/h
597 29-06-2017 01:40:00 15.7 C 12.71 g/m*3 15.7 C 0 km/h
598 29-06-2017 01:45:00 15.7 C 12.71 g/m*3 15.7 C 0 km/h
599 29-06-2017 01:50:00 15.8 C 12.79 g/m*3 15.8 C 0 km/h
600 29-06-2017 01:55:00 15.8 C 12.79 g/m*3 15.8 C 0 km/h
Sensor: Nr:Datum:Temp:Abs-Feuchte:Windchill:Wind:
Aussen-T/F 601 29-06-2017 02:00:00 15.8 C 12.79 g/m*3 15.8 C 0 km/h
602 29-06-2017 02:05:00 15.8 C 12.79 g/m*3 15.8 C 0 km/h
603 29-06-2017 02:10:00 15.8 C 12.79 g/m*3 15.8 C 1.6 km/h
604 29-06-2017 02:15:00 15.7 C 12.71 g/m*3 15.7 C 0 km/h
605 29-06-2017 02:20:00 15.7 C 12.71 g/m*3 15.7 C 0 km/h
606 29-06-2017 02:25:00 15.7 C 12.71 g/m*3 15.7 C 0 km/h
607 29-06-2017 02:30:00 15.7 C 12.71 g/m*3 15.7 C 0 km/h
608 29-06-2017 02:35:00 15.8 C 12.92 g/m*3 15.8 C 0 km/h
609 29-06-2017 02:40:00 15.9 C 13 g/m*3 15.9 C 0 km/h
610 29-06-2017 02:45:00 15.9 C 13 g/m*3 15.9 C 0 km/h
611 29-06-2017 02:50:00 15.9 C 13 g/m*3 15.9 C 1.6 km/h
612 29-06-2017 02:55:00 16 C 13.08 g/m*3 16 C 0 km/h
613 29-06-2017 03:00:00 16.1 C 13.16 g/m*3 16.1 C 0 km/h
614 29-06-2017 03:05:00 16.1 C 13.16 g/m*3 16.1 C 0 km/h
615 29-06-2017 03:10:00 16.2 C 13.24 g/m*3 16.2 C 0 km/h
616 29-06-2017 03:15:00 16.2 C 13.24 g/m*3 16.2 C 0 km/h
617 29-06-2017 03:20:00 16.3 C 13.32 g/m*3 16.3 C 0 km/h
618 29-06-2017 03:25:00 16.3 C 13.32 g/m*3 16.3 C 1.6 km/h
619 29-06-2017 03:30:00 16.3 C 13.32 g/m*3 16.3 C 3.2 km/h
620 29-06-2017 03:35:00 16.3 C 13.32 g/m*3 16.3 C 1.6 km/h
621 29-06-2017 03:40:00 16.3 C 13.32 g/m*3 16.3 C 3.2 km/h
622 29-06-2017 03:45:00 16.3 C 13.32 g/m*3 16.3 C 1.6 km/h
623 29-06-2017 03:50:00 16.3 C 13.32 g/m*3 16.3 C 0 km/h
624 29-06-2017 03:55:00 16.3 C 13.32 g/m*3 16.3 C 0 km/h
625 29-06-2017 04:00:00 16.3 C 13.32 g/m*3 16.3 C 0 km/h
Sensor: Nr:Datum:Temp:Abs-Feuchte:Windchill:Wind:
Aussen-T/F 626 29-06-2017 04:05:00 16.3 C 13.32 g/m*3 16.3 C 0 km/h
627 29-06-2017 04:10:00 16.3 C 13.32 g/m*3 16.3 C 0 km/h
628 29-06-2017 04:15:00 16.3 C 13.32 g/m*3 16.3 C 0 km/h
629 29-06-2017 04:20:00 16.3 C 13.32 g/m*3 16.3 C 0 km/h
630 29-06-2017 04:25:00 16.3 C 13.32 g/m*3 16.3 C 1.6 km/h
631 29-06-2017 04:30:00 16.3 C 13.32 g/m*3 16.3 C 0 km/h
632 29-06-2017 04:35:00 16.3 C 13.32 g/m*3 16.3 C 0 km/h
633 29-06-2017 04:40:00 16.3 C 13.32 g/m*3 16.3 C 0 km/h
634 29-06-2017 04:45:00 16.3 C 13.18 g/m*3 16.3 C 0 km/h
635 29-06-2017 04:50:00 16.3 C 13.18 g/m*3 16.3 C 0 km/h
636 29-06-2017 04:55:00 16.3 C 13.32 g/m*3 16.3 C 0 km/h
637 29-06-2017 05:00:00 16.4 C 13.4 g/m*3 16.4 C 1.6 km/h
638 29-06-2017 05:05:00 16.4 C 13.4 g/m*3 16.4 C 0 km/h
639 29-06-2017 05:10:00 16.4 C 13.26 g/m*3 16.4 C 0 km/h
640 29-06-2017 05:15:00 16.4 C 13.26 g/m*3 16.4 C 0 km/h
641 29-06-2017 05:20:00 16.4 C 13.26 g/m*3 16.4 C 0 km/h
642 29-06-2017 05:25:00 16.4 C 13.26 g/m*3 16.4 C 0 km/h
643 29-06-2017 05:30:00 16.4 C 13.26 g/m*3 16.4 C 0 km/h
644 29-06-2017 05:35:00 16.4 C 13.26 g/m*3 16.4 C 0 km/h
645 29-06-2017 05:40:00 16.4 C 13.26 g/m*3 16.4 C 0 km/h
646 29-06-2017 05:45:00 16.4 C 13.26 g/m*3 16.4 C 0 km/h
647 29-06-2017 05:50:00 16.4 C 13.26 g/m*3 16.4 C 0 km/h
648 29-06-2017 05:55:00 16.4 C 13.26 g/m*3 16.4 C 0 km/h
649 29-06-2017 06:00:00 16.4 C 13.26 g/m*3 16.4 C 1.6 km/h
650 29-06-2017 06:05:00 16.4 C 13.26 g/m*3 16.4 C 1.6 km/h
Sensor: Nr:Datum:Temp:Abs-Feuchte:Windchill:Wind:
Aussen-T/F 651 29-06-2017 06:10:00 16.5 C 13.34 g/m*3 16.5 C 1.6 km/h
652 29-06-2017 06:15:00 16.5 C 13.34 g/m*3 16.5 C 0 km/h
653 29-06-2017 06:20:00 16.5 C 13.34 g/m*3 16.5 C 0 km/h
654 29-06-2017 06:25:00 16.5 C 13.34 g/m*3 16.5 C 1.6 km/h
655 29-06-2017 06:30:00 16.5 C 13.34 g/m*3 16.5 C 0 km/h
656 29-06-2017 06:35:00 16.5 C 13.34 g/m*3 16.5 C 0 km/h
657 29-06-2017 06:40:00 16.6 C 13.42 g/m*3 16.6 C 0 km/h
658 29-06-2017 06:45:00 16.6 C 13.42 g/m*3 16.6 C 1.6 km/h
659 29-06-2017 06:50:00 16.6 C 13.42 g/m*3 16.6 C 1.6 km/h
660 29-06-2017 06:55:00 16.5 C 13.34 g/m*3 16.5 C 3.2 km/h
661 29-06-2017 07:00:00 16.6 C 13.42 g/m*3 16.6 C 1.6 km/h
662 29-06-2017 07:05:00 16.6 C 13.28 g/m*3 16.6 C 3.2 km/h
663 29-06-2017 07:10:00 16.6 C 13.28 g/m*3 16.6 C 4.8 km/h
664 29-06-2017 07:15:00 16.6 C 13.28 g/m*3 16.6 C 9.7 km/h
665 29-06-2017 07:20:00 16.6 C 13.28 g/m*3 16.6 C 3.2 km/h
666 29-06-2017 07:25:00 16.7 C 13.36 g/m*3 16.7 C 1.6 km/h
667 29-06-2017 07:30:00 16.7 C 13.36 g/m*3 16.7 C 1.6 km/h
668 29-06-2017 07:35:00 16.8 C 13.3 g/m*3 16.8 C 3.2 km/h
669 29-06-2017 07:40:00 16.8 C 13.3 g/m*3 16.8 C 0 km/h
670 29-06-2017 07:45:00 16.8 C 13.3 g/m*3 16.8 C 1.6 km/h
671 29-06-2017 07:50:00 16.9 C 13.38 g/m*3 16.9 C 3.2 km/h
672 29-06-2017 07:55:00 16.8 C 13.15 g/m*3 16.8 C 4.8 km/h
673 29-06-2017 08:00:00 16.9 C 13.23 g/m*3 16.9 C 4.8 km/h
674 29-06-2017 08:05:00 16.9 C 13.09 g/m*3 16.9 C 4.8 km/h
675 29-06-2017 08:10:00 17 C 13.02 g/m*3 17 C 3.2 km/h
Sensor: Nr:Datum:Temp:Abs-Feuchte:Windchill:Wind:
Aussen-T/F 676 29-06-2017 08:15:00 17.1 C 13.1 g/m*3 17.1 C 6.4 km/h
677 29-06-2017 08:20:00 17.2 C 13.03 g/m*3 17.2 C 6.4 km/h
678 29-06-2017 08:25:00 17.2 C 13.03 g/m*3 17.2 C 12.9 km/h
679 29-06-2017 08:30:00 17.3 C 12.96 g/m*3 17.3 C 4.8 km/h
680 29-06-2017 08:35:00 17.4 C 13.04 g/m*3 17.4 C 6.4 km/h
681 29-06-2017 08:40:00 17.5 C 13.12 g/m*3 17.5 C 4.8 km/h
682 29-06-2017 08:45:00 17.7 C 13.43 g/m*3 17.7 C 1.6 km/h
683 29-06-2017 08:50:00 17.7 C 13.28 g/m*3 17.7 C 6.4 km/h
684 29-06-2017 08:55:00 17.8 C 13.2 g/m*3 17.8 C 6.4 km/h
685 29-06-2017 09:00:00 17.8 C 13.2 g/m*3 17.8 C 4.8 km/h
686 29-06-2017 09:05:00 17.9 C 13.28 g/m*3 17.9 C 1.6 km/h
687 29-06-2017 09:10:00 18 C 13.36 g/m*3 18 C 4.8 km/h
688 29-06-2017 09:15:00 18 C 13.21 g/m*3 18 C 8.1 km/h
689 29-06-2017 09:20:00 18.1 C 13.29 g/m*3 18.1 C 3.2 km/h
690 29-06-2017 09:25:00 18.1 C 13.29 g/m*3 18.1 C 6.4 km/h
691 29-06-2017 09:30:00 18.2 C 13.37 g/m*3 18.2 C 8.1 km/h
692 29-06-2017 09:35:00 18.3 C 13.6 g/m*3 18.3 C 1.6 km/h
693 29-06-2017 09:40:00 18.3 C 13.45 g/m*3 18.3 C 8.1 km/h
694 29-06-2017 09:45:00 18.4 C 13.68 g/m*3 18.4 C 4.8 km/h
695 29-06-2017 09:50:00 18.5 C 13.61 g/m*3 18.5 C 8.1 km/h
696 29-06-2017 09:55:00 18.6 C 13.69 g/m*3 18.6 C 6.4 km/h
697 29-06-2017 10:00:00 18.7 C 13.61 g/m*3 18.7 C 9.7 km/h
698 29-06-2017 10:05:00 18.8 C 13.85 g/m*3 18.8 C 8.1 km/h
699 29-06-2017 10:10:00 18.8 C 13.37 g/m*3 18.8 C 9.7 km/h
700 29-06-2017 10:15:00 18.8 C 13.37 g/m*3 18.8 C 12.9 km/h
Sensor: Nr:Datum:Temp:Abs-Feuchte:Windchill:Wind:
Aussen-T/F 701 29-06-2017 10:20:00 18.9 C 13.45 g/m*3 18.9 C 6.4 km/h
702 29-06-2017 10:25:00 18.9 C 13.12 g/m*3 18.9 C 9.7 km/h
703 29-06-2017 10:30:00 18.9 C 13.28 g/m*3 18.9 C 8.1 km/h
704 29-06-2017 10:35:00 19.1 C 13.61 g/m*3 19.1 C 6.4 km/h
705 29-06-2017 10:40:00 19.1 C 13.28 g/m*3 19.1 C 8.1 km/h
706 29-06-2017 10:45:00 19.2 C 13.36 g/m*3 19.2 C 8.1 km/h
707 29-06-2017 10:50:00 19.2 C 13.19 g/m*3 19.2 C 11.3 km/h
708 29-06-2017 10:55:00 19.3 C 13.44 g/m*3 19.3 C 8.1 km/h
709 29-06-2017 11:00:00 19.3 C 13.27 g/m*3 19.3 C 11.3 km/h
710 29-06-2017 11:05:00 19.4 C 13.35 g/m*3 19.4 C 8.1 km/h
711 29-06-2017 11:10:00 19.4 C 13.01 g/m*3 19.4 C 12.9 km/h
712 29-06-2017 11:15:00 19.5 C 13.26 g/m*3 19.5 C 6.4 km/h
713 29-06-2017 11:20:00 19.6 C 13.17 g/m*3 19.6 C 14.5 km/h
714 29-06-2017 11:25:00 19.7 C 13.25 g/m*3 19.7 C 14.5 km/h
715 29-06-2017 11:30:00 19.8 C 13.15 g/m*3 19.8 C 11.3 km/h
716 29-06-2017 11:35:00 19.9 C 12.89 g/m*3 19.9 C 16.1 km/h
717 29-06-2017 11:40:00 19.9 C 12.89 g/m*3 19.9 C 9.7 km/h
718 29-06-2017 11:45:00 20 C 12.96 g/m*3 20 C 11.3 km/h
719 29-06-2017 11:50:00 20.1 C 13.04 g/m*3 20.1 C 8.1 km/h
720 29-06-2017 11:55:00 20.2 C 13.29 g/m*3 20.2 C 8.1 km/h
721 29-06-2017 12:00:00 20.3 C 13.19 g/m*3 20.3 C 8.1 km/h
722 29-06-2017 12:05:00 20.4 C 12.91 g/m*3 20.4 C 11.3 km/h
723 29-06-2017 12:10:00 20.5 C 12.99 g/m*3 20.5 C 8.1 km/h
724 29-06-2017 12:15:00 20.6 C 12.89 g/m*3 20.6 C 12.9 km/h
725 29-06-2017 12:20:00 20.7 C 12.96 g/m*3 20.7 C 9.7 km/h
Sensor: Nr:Datum:Temp:Abs-Feuchte:Windchill:Wind:
Aussen-T/F 726 29-06-2017 12:25:00 20.7 C 12.96 g/m*3 20.7 C 8.1 km/h
727 29-06-2017 12:30:00 20.8 C 13.04 g/m*3 20.8 C 6.4 km/h
728 29-06-2017 12:35:00 21 C 13.19 g/m*3 21 C 4.8 km/h
729 29-06-2017 12:40:00 21.2 C 12.79 g/m*3 21.2 C 14.5 km/h
730 29-06-2017 12:45:00 21.2 C 13.16 g/m*3 21.2 C 9.7 km/h
731 29-06-2017 12:50:00 21.3 C 12.86 g/m*3 21.3 C 11.3 km/h
732 29-06-2017 12:55:00 21.5 C 13.01 g/m*3 21.5 C 8.1 km/h
733 29-06-2017 13:00:00 21.6 C 12.9 g/m*3 21.6 C 12.9 km/h
734 29-06-2017 13:05:00 21.6 C 12.71 g/m*3 21.6 C 11.3 km/h
735 29-06-2017 13:10:00 21.7 C 13.16 g/m*3 21.7 C 11.3 km/h
736 29-06-2017 13:15:00 21.8 C 13.05 g/m*3 21.8 C 11.3 km/h
737 29-06-2017 13:20:00 21.8 C 12.85 g/m*3 21.8 C 12.9 km/h
738 29-06-2017 13:25:00 21.9 C 12.54 g/m*3 21.9 C 14.5 km/h
739 29-06-2017 13:30:00 22 C 13.39 g/m*3 22 C 9.7 km/h
740 29-06-2017 13:35:00 22.1 C 13.08 g/m*3 22.1 C 11.3 km/h
741 29-06-2017 13:40:00 22.2 C 12.76 g/m*3 22.2 C 11.3 km/h
742 29-06-2017 13:45:00 22.2 C 12.76 g/m*3 22.2 C 16.1 km/h
743 29-06-2017 13:50:00 22.2 C 12.96 g/m*3 22.2 C 11.3 km/h
744 29-06-2017 13:55:00 22.2 C 12.76 g/m*3 22.2 C 12.9 km/h
745 29-06-2017 14:00:00 22.3 C 13.03 g/m*3 22.3 C 11.3 km/h
746 29-06-2017 14:05:00 22.3 C 13.23 g/m*3 22.3 C 14.5 km/h
747 29-06-2017 14:10:00 22.3 C 13.62 g/m*3 22.3 C 8.1 km/h
748 29-06-2017 14:15:00 22.4 C 13.11 g/m*3 22.4 C 12.9 km/h
749 29-06-2017 14:20:00 22.4 C 13.11 g/m*3 22.4 C 16.1 km/h
750 29-06-2017 14:25:00 22.3 C 12.64 g/m*3 22.3 C 12.9 km/h
Sensor: Nr:Datum:Temp:Abs-Feuchte:Windchill:Wind:
Aussen-T/F 751 29-06-2017 14:30:00 22.3 C 12.44 g/m*3 22.3 C 16.1 km/h
752 29-06-2017 14:35:00 22.2 C 13.15 g/m*3 22.2 C 11.3 km/h
753 29-06-2017 14:40:00 22.2 C 12.76 g/m*3 22.2 C 9.7 km/h
754 29-06-2017 14:45:00 22.3 C 12.44 g/m*3 22.3 C 16.1 km/h
755 29-06-2017 14:50:00 22.3 C 12.44 g/m*3 22.3 C 11.3 km/h
756 29-06-2017 14:55:00 22.3 C 12.24 g/m*3 22.3 C 11.3 km/h
757 29-06-2017 15:00:00 22.4 C 12.51 g/m*3 22.4 C 12.9 km/h
758 29-06-2017 15:05:00 22.4 C 12.71 g/m*3 22.4 C 12.9 km/h
759 29-06-2017 15:10:00 22.5 C 12.18 g/m*3 22.5 C 11.3 km/h
760 29-06-2017 15:15:00 22.4 C 12.31 g/m*3 22.4 C 12.9 km/h
761 29-06-2017 15:20:00 22.6 C 12.86 g/m*3 22.6 C 14.5 km/h
762 29-06-2017 15:25:00 22.7 C 12.53 g/m*3 22.7 C 11.3 km/h
763 29-06-2017 15:30:00 22.8 C 12.8 g/m*3 22.8 C 11.3 km/h
764 29-06-2017 15:35:00 23.1 C 12.2 g/m*3 23.1 C 12.9 km/h
765 29-06-2017 15:40:00 23.3 C 12.13 g/m*3 23.3 C 11.3 km/h
766 29-06-2017 15:45:00 23.4 C 12.62 g/m*3 23.4 C 14.5 km/h
767 29-06-2017 15:50:00 23.6 C 12.76 g/m*3 23.6 C 6.4 km/h
768 29-06-2017 15:55:00 23.7 C 12.19 g/m*3 23.7 C 11.3 km/h
769 29-06-2017 16:00:00 23.4 C 12.62 g/m*3 23.4 C 12.9 km/h
770 29-06-2017 16:05:00 22.8 C 11.58 g/m*3 22.8 C 19.3 km/h
771 29-06-2017 16:10:00 21.7 C 12.21 g/m*3 21.7 C 22.5 km/h
772 29-06-2017 16:15:00 20.7 C 13.5 g/m*3 20.7 C 9.7 km/h
773 29-06-2017 16:20:00 19.7 C 13.75 g/m*3 19.7 C 3.2 km/h
774 29-06-2017 16:25:00 18.7 C 13.13 g/m*3 18.7 C 3.2 km/h
775 29-06-2017 16:30:00 18.1 C 12.98 g/m*3 18.1 C 3.2 km/h
Sensor: Nr:Datum:Temp:Abs-Feuchte:Windchill:Wind:
Aussen-T/F 776 29-06-2017 16:35:00 17.7 C 12.98 g/m*3 17.7 C 1.6 km/h
777 29-06-2017 16:40:00 17.7 C 13.43 g/m*3 17.7 C 1.6 km/h
778 29-06-2017 16:45:00 17.7 C 13.58 g/m*3 17.7 C 0 km/h
779 29-06-2017 16:50:00 17.7 C 13.73 g/m*3 17.7 C 0 km/h
780 29-06-2017 16:55:00 17.9 C 14.05 g/m*3 17.9 C 0 km/h
781 29-06-2017 17:00:00 18.3 C 14.54 g/m*3 18.3 C 0 km/h
782 29-06-2017 17:05:00 18.8 C 15.14 g/m*3 18.8 C 0 km/h
783 29-06-2017 17:10:00 19.1 C 15.25 g/m*3 19.1 C 0 km/h
784 29-06-2017 17:15:00 19.3 C 15.43 g/m*3 19.3 C 0 km/h
785 29-06-2017 17:20:00 19.6 C 15.7 g/m*3 19.6 C 0 km/h
786 29-06-2017 17:25:00 20.1 C 16.17 g/m*3 20.1 C 0 km/h
787 29-06-2017 17:30:00 20.2 C 16.09 g/m*3 20.2 C 0 km/h
788 29-06-2017 17:35:00 20.4 C 16.28 g/m*3 20.4 C 0 km/h
789 29-06-2017 17:40:00 20.6 C 16.47 g/m*3 20.6 C 0 km/h
790 29-06-2017 17:45:00 20.7 C 16.56 g/m*3 20.7 C 0 km/h
791 29-06-2017 17:50:00 20.6 C 16.11 g/m*3 20.6 C 0 km/h
792 29-06-2017 17:55:00 19.9 C 13.92 g/m*3 19.9 C 17.7 km/h
793 29-06-2017 18:00:00 19.3 C 13.93 g/m*3 19.3 C 8.1 km/h
794 29-06-2017 18:05:00 18.8 C 13.53 g/m*3 18.8 C 3.2 km/h
795 29-06-2017 18:10:00 18.4 C 13.37 g/m*3 18.4 C 1.6 km/h
796 29-06-2017 18:15:00 18.2 C 13.37 g/m*3 18.2 C 1.6 km/h
797 29-06-2017 18:20:00 18.1 C 13.6 g/m*3 18.1 C 0 km/h
798 29-06-2017 18:25:00 18.1 C 13.75 g/m*3 18.1 C 0 km/h
799 29-06-2017 18:30:00 18.2 C 13.83 g/m*3 18.2 C 0 km/h
800 29-06-2017 18:35:00 18.3 C 13.92 g/m*3 18.3 C 0 km/h
Sensor: Nr:Datum:Temp:Abs-Feuchte:Windchill:Wind:
Aussen-T/F 801 29-06-2017 18:40:00 18.5 C 14.08 g/m*3 18.5 C 0 km/h
802 29-06-2017 18:45:00 18.4 C 13.84 g/m*3 18.4 C 0 km/h
803 29-06-2017 18:50:00 18.4 C 14 g/m*3 18.4 C 0 km/h
804 29-06-2017 18:55:00 18.4 C 14.16 g/m*3 18.4 C 0 km/h
805 29-06-2017 19:00:00 18.4 C 14 g/m*3 18.4 C 0 km/h
806 29-06-2017 19:05:00 18.4 C 14.16 g/m*3 18.4 C 0 km/h
807 29-06-2017 19:10:00 18.4 C 14.16 g/m*3 18.4 C 0 km/h
808 29-06-2017 19:15:00 18.4 C 14.16 g/m*3 18.4 C 0 km/h
809 29-06-2017 19:20:00 18.4 C 14.16 g/m*3 18.4 C 0 km/h
810 29-06-2017 19:25:00 18.3 C 14.07 g/m*3 18.3 C 0 km/h
811 29-06-2017 19:30:00 18.3 C 14.07 g/m*3 18.3 C 0 km/h
812 29-06-2017 19:35:00 18.3 C 14.07 g/m*3 18.3 C 0 km/h
813 29-06-2017 19:40:00 18.2 C 13.99 g/m*3 18.2 C 0 km/h
814 29-06-2017 19:45:00 18.1 C 14.06 g/m*3 18.1 C 0 km/h
815 29-06-2017 19:50:00 18.1 C 14.06 g/m*3 18.1 C 0 km/h
816 29-06-2017 19:55:00 17.9 C 13.89 g/m*3 17.9 C 0 km/h
817 29-06-2017 20:00:00 17.8 C 13.66 g/m*3 17.8 C 0 km/h
818 29-06-2017 20:05:00 17.7 C 13.58 g/m*3 17.7 C 0 km/h
819 29-06-2017 20:10:00 17.7 C 13.73 g/m*3 17.7 C 0 km/h
820 29-06-2017 20:15:00 17.7 C 13.73 g/m*3 17.7 C 0 km/h
821 29-06-2017 20:20:00 17.4 C 13.19 g/m*3 17.4 C 8.1 km/h
822 29-06-2017 20:25:00 17.2 C 12.45 g/m*3 17.2 C 12.9 km/h
823 29-06-2017 20:30:00 17.2 C 12.59 g/m*3 17.2 C 12.9 km/h
824 29-06-2017 20:35:00 17.2 C 12.59 g/m*3 17.2 C 1.6 km/h
825 29-06-2017 20:40:00 17.1 C 12.52 g/m*3 17.1 C 1.6 km/h
Sensor: Nr:Datum:Temp:Abs-Feuchte:Windchill:Wind:
Aussen-T/F 826 29-06-2017 20:45:00 17 C 12.59 g/m*3 17 C 1.6 km/h
827 29-06-2017 20:50:00 16.9 C 12.51 g/m*3 16.9 C 0 km/h
828 29-06-2017 20:55:00 16.9 C 12.8 g/m*3 16.9 C 0 km/h
829 29-06-2017 21:00:00 16.8 C 12.72 g/m*3 16.8 C 0 km/h
830 29-06-2017 21:05:00 16.7 C 12.65 g/m*3 16.7 C 0 km/h
831 29-06-2017 21:10:00 16.6 C 12.71 g/m*3 16.6 C 0 km/h
832 29-06-2017 21:15:00 16.5 C 12.64 g/m*3 16.5 C 0 km/h
833 29-06-2017 21:20:00 16.4 C 12.56 g/m*3 16.4 C 0 km/h
834 29-06-2017 21:25:00 16.3 C 12.49 g/m*3 16.3 C 0 km/h
835 29-06-2017 21:30:00 16.2 C 12.41 g/m*3 16.2 C 0 km/h
836 29-06-2017 21:35:00 16.2 C 12.41 g/m*3 16.2 C 0 km/h
837 29-06-2017 21:40:00 16.1 C 12.34 g/m*3 16.1 C 1.6 km/h
838 29-06-2017 21:45:00 16 C 12.26 g/m*3 16 C 1.6 km/h
839 29-06-2017 21:50:00 15.9 C 12.19 g/m*3 15.9 C 0 km/h
840 29-06-2017 21:55:00 15.9 C 12.19 g/m*3 15.9 C 0 km/h
841 29-06-2017 22:00:00 15.8 C 12.25 g/m*3 15.8 C 0 km/h
842 29-06-2017 22:05:00 15.8 C 12.25 g/m*3 15.8 C 0 km/h
843 29-06-2017 22:10:00 15.7 C 12.18 g/m*3 15.7 C 0 km/h
844 29-06-2017 22:15:00 15.7 C 12.18 g/m*3 15.7 C 0 km/h
845 29-06-2017 22:20:00 15.5 C 12.03 g/m*3 15.5 C 0 km/h
846 29-06-2017 22:25:00 15.4 C 11.96 g/m*3 15.4 C 0 km/h
847 29-06-2017 22:30:00 15.3 C 11.88 g/m*3 15.3 C 0 km/h
848 29-06-2017 22:35:00 15.2 C 11.81 g/m*3 15.2 C 1.6 km/h
849 29-06-2017 22:40:00 15.1 C 11.74 g/m*3 15.1 C 0 km/h
850 29-06-2017 22:45:00 15 C 11.67 g/m*3 15 C 0 km/h
Sensor: Nr:Datum:Temp:Abs-Feuchte:Windchill:Wind:
Aussen-T/F 851 29-06-2017 22:50:00 14.9 C 11.73 g/m*3 14.9 C 0 km/h
852 29-06-2017 22:55:00 14.9 C 11.73 g/m*3 14.9 C 0 km/h
853 29-06-2017 23:00:00 14.9 C 11.73 g/m*3 14.9 C 0 km/h
854 29-06-2017 23:05:00 14.8 C 11.65 g/m*3 14.8 C 0 km/h
855 29-06-2017 23:10:00 14.8 C 11.65 g/m*3 14.8 C 0 km/h
856 29-06-2017 23:15:00 14.8 C 11.78 g/m*3 14.8 C 1.6 km/h
857 29-06-2017 23:20:00 14.8 C 11.78 g/m*3 14.8 C 0 km/h
858 29-06-2017 23:25:00 14.7 C 11.71 g/m*3 14.7 C 0 km/h
859 29-06-2017 23:30:00 14.7 C 11.71 g/m*3 14.7 C 0 km/h
860 29-06-2017 23:35:00 14.7 C 11.71 g/m*3 14.7 C 0 km/h
861 29-06-2017 23:40:00 14.7 C 11.71 g/m*3 14.7 C 0 km/h
862 29-06-2017 23:45:00 14.6 C 11.64 g/m*3 14.6 C 0 km/h
863 29-06-2017 23:50:00 14.5 C 11.57 g/m*3 14.5 C 0 km/h
864 29-06-2017 23:55:00 14.5 C 11.57 g/m*3 14.5 C 0 km/h
865 30-06-2017 00:00:00 14.4 C 11.5 g/m*3 14.4 C 0 km/h
866 30-06-2017 00:05:00 14.4 C 11.5 g/m*3 14.4 C 0 km/h
867 30-06-2017 00:10:00 14.3 C 11.43 g/m*3 14.3 C 0 km/h
868 30-06-2017 00:15:00 14.3 C 11.43 g/m*3 14.3 C 0 km/h
869 30-06-2017 00:20:00 14.3 C 11.43 g/m*3 14.3 C 0 km/h
870 30-06-2017 00:25:00 14.3 C 11.43 g/m*3 14.3 C 0 km/h
871 30-06-2017 00:30:00 14.3 C 11.43 g/m*3 14.3 C 0 km/h
872 30-06-2017 00:35:00 14.3 C 11.43 g/m*3 14.3 C 0 km/h
873 30-06-2017 00:40:00 14.3 C 11.55 g/m*3 14.3 C 0 km/h
874 30-06-2017 00:45:00 14.3 C 11.55 g/m*3 14.3 C 0 km/h
875 30-06-2017 00:50:00 14.3 C 11.55 g/m*3 14.3 C 0 km/h
Sensor: Nr:Datum:Temp:Abs-Feuchte:Windchill:Wind:
Aussen-T/F 876 30-06-2017 00:55:00 14.3 C 11.55 g/m*3 14.3 C 0 km/h
877 30-06-2017 01:00:00 14.3 C 11.55 g/m*3 14.3 C 6.4 km/h
878 30-06-2017 01:05:00 14.3 C 11.55 g/m*3 14.3 C 1.6 km/h
879 30-06-2017 01:10:00 14.3 C 11.55 g/m*3 14.3 C 1.6 km/h
880 30-06-2017 01:15:00 14.3 C 11.55 g/m*3 14.3 C 6.4 km/h
881 30-06-2017 01:20:00 14.2 C 11.48 g/m*3 14.2 C 1.6 km/h
882 30-06-2017 01:25:00 14.2 C 11.48 g/m*3 14.2 C 0 km/h
883 30-06-2017 01:30:00 14.2 C 11.48 g/m*3 14.2 C 1.6 km/h
884 30-06-2017 01:35:00 14.2 C 11.48 g/m*3 14.2 C 4.8 km/h
885 30-06-2017 01:40:00 14.3 C 11.55 g/m*3 14.3 C 1.6 km/h
886 30-06-2017 01:45:00 14.3 C 11.55 g/m*3 14.3 C 1.6 km/h
887 30-06-2017 01:50:00 14.3 C 11.55 g/m*3 14.3 C 3.2 km/h
888 30-06-2017 01:55:00 14.4 C 11.62 g/m*3 14.4 C 14.5 km/h
889 30-06-2017 02:00:00 14.4 C 11.62 g/m*3 14.4 C 9.7 km/h
890 30-06-2017 02:05:00 14.5 C 11.69 g/m*3 14.5 C 8.1 km/h
891 30-06-2017 02:10:00 14.5 C 11.69 g/m*3 14.5 C 12.9 km/h
892 30-06-2017 02:15:00 14.5 C 11.69 g/m*3 14.5 C 1.6 km/h
893 30-06-2017 02:20:00 14.5 C 11.57 g/m*3 14.5 C 11.3 km/h
894 30-06-2017 02:25:00 14.5 C 11.57 g/m*3 14.5 C 4.8 km/h
895 30-06-2017 02:30:00 14.5 C 11.57 g/m*3 14.5 C 1.6 km/h
896 30-06-2017 02:35:00 14.5 C 11.57 g/m*3 14.5 C 3.2 km/h
897 30-06-2017 02:40:00 14.6 C 11.64 g/m*3 14.6 C 9.7 km/h
898 30-06-2017 02:45:00 14.6 C 11.64 g/m*3 14.6 C 9.7 km/h
899 30-06-2017 02:50:00 14.6 C 11.51 g/m*3 14.6 C 1.6 km/h
900 30-06-2017 02:55:00 14.6 C 11.64 g/m*3 14.6 C 3.2 km/h
Sensor: Nr:Datum:Temp:Abs-Feuchte:Windchill:Wind:
Aussen-T/F 901 30-06-2017 03:00:00 14.7 C 11.58 g/m*3 14.7 C 6.4 km/h
902 30-06-2017 03:05:00 14.7 C 11.58 g/m*3 14.7 C 4.8 km/h
903 30-06-2017 03:10:00 14.8 C 11.65 g/m*3 14.8 C 9.7 km/h
904 30-06-2017 03:15:00 14.9 C 11.73 g/m*3 14.9 C 12.9 km/h
905 30-06-2017 03:20:00 15 C 11.67 g/m*3 15 C 9.7 km/h
906 30-06-2017 03:25:00 15.1 C 11.74 g/m*3 15.1 C 9.7 km/h
907 30-06-2017 03:30:00 15.2 C 11.68 g/m*3 15.2 C 6.4 km/h
908 30-06-2017 03:35:00 15.2 C 11.68 g/m*3 15.2 C 14.5 km/h
909 30-06-2017 03:40:00 15.2 C 11.68 g/m*3 15.2 C 9.7 km/h
910 30-06-2017 03:45:00 15.2 C 11.55 g/m*3 15.2 C 11.3 km/h
911 30-06-2017 03:50:00 15.3 C 11.62 g/m*3 15.3 C 8.1 km/h
912 30-06-2017 03:55:00 15.3 C 11.62 g/m*3 15.3 C 12.9 km/h
913 30-06-2017 04:00:00 15.3 C 11.62 g/m*3 15.3 C 6.4 km/h
914 30-06-2017 04:05:00 15.3 C 11.62 g/m*3 15.3 C 1.6 km/h
915 30-06-2017 04:10:00 15.2 C 11.55 g/m*3 15.2 C 8.1 km/h
916 30-06-2017 04:15:00 15.2 C 11.55 g/m*3 15.2 C 8.1 km/h
917 30-06-2017 04:20:00 15.2 C 11.55 g/m*3 15.2 C 6.4 km/h
918 30-06-2017 04:25:00 15.1 C 11.48 g/m*3 15.1 C 11.3 km/h
919 30-06-2017 04:30:00 15.1 C 11.48 g/m*3 15.1 C 11.3 km/h
920 30-06-2017 04:35:00 15.1 C 11.48 g/m*3 15.1 C 4.8 km/h
921 30-06-2017 04:40:00 15 C 11.41 g/m*3 15 C 1.6 km/h
922 30-06-2017 04:45:00 14.9 C 11.34 g/m*3 14.9 C 8.1 km/h
923 30-06-2017 04:50:00 14.8 C 11.27 g/m*3 14.8 C 0 km/h
924 30-06-2017 04:55:00 14.8 C 11.27 g/m*3 14.8 C 4.8 km/h
925 30-06-2017 05:00:00 14.7 C 11.21 g/m*3 14.7 C 3.2 km/h
Sensor: Nr:Datum:Temp:Abs-Feuchte:Windchill:Wind:
Aussen-T/F 926 30-06-2017 05:05:00 14.6 C 11.14 g/m*3 14.6 C 1.6 km/h
927 30-06-2017 05:10:00 14.6 C 11.26 g/m*3 14.6 C 0 km/h
928 30-06-2017 05:15:00 14.5 C 11.19 g/m*3 14.5 C 0 km/h
929 30-06-2017 05:20:00 14.4 C 11.13 g/m*3 14.4 C 1.6 km/h
930 30-06-2017 05:25:00 14.3 C 11.18 g/m*3 14.3 C 1.6 km/h
931 30-06-2017 05:30:00 14.3 C 11.18 g/m*3 14.3 C 3.2 km/h
932 30-06-2017 05:35:00 14.2 C 11.11 g/m*3 14.2 C 0 km/h
933 30-06-2017 05:40:00 14.2 C 11.11 g/m*3 14.2 C 4.8 km/h
934 30-06-2017 05:45:00 14.2 C 11.11 g/m*3 14.2 C 3.2 km/h
935 30-06-2017 05:50:00 14.2 C 11.11 g/m*3 14.2 C 1.6 km/h
936 30-06-2017 05:55:00 14.2 C 11.11 g/m*3 14.2 C 1.6 km/h
937 30-06-2017 06:00:00 14.2 C 11.11 g/m*3 14.2 C 0 km/h
938 30-06-2017 06:05:00 14.2 C 11.11 g/m*3 14.2 C 0 km/h
939 30-06-2017 06:10:00 14.3 C 11.18 g/m*3 14.3 C 0 km/h
940 30-06-2017 06:15:00 14.3 C 11.18 g/m*3 14.3 C 0 km/h
941 30-06-2017 06:20:00 14.4 C 11.25 g/m*3 14.4 C 0 km/h
942 30-06-2017 06:25:00 14.5 C 11.32 g/m*3 14.5 C 1.6 km/h
943 30-06-2017 06:30:00 14.6 C 11.26 g/m*3 14.6 C 11.3 km/h
944 30-06-2017 06:35:00 14.7 C 11.21 g/m*3 14.7 C 4.8 km/h
945 30-06-2017 06:40:00 14.8 C 11.15 g/m*3 14.8 C 8.1 km/h
946 30-06-2017 06:45:00 14.9 C 11.22 g/m*3 14.9 C 1.6 km/h
947 30-06-2017 06:50:00 15 C 11.41 g/m*3 15 C 0 km/h
948 30-06-2017 06:55:00 15.1 C 11.35 g/m*3 15.1 C 6.4 km/h
949 30-06-2017 07:00:00 15.2 C 11.42 g/m*3 15.2 C 4.8 km/h
950 30-06-2017 07:05:00 15.3 C 11.23 g/m*3 15.3 C 9.7 km/h
Sensor: Nr:Datum:Temp:Abs-Feuchte:Windchill:Wind:
Aussen-T/F 951 30-06-2017 07:10:00 15.4 C 11.17 g/m*3 15.4 C 9.7 km/h
952 30-06-2017 07:15:00 15.6 C 11.3 g/m*3 15.6 C 8.1 km/h
953 30-06-2017 07:20:00 15.7 C 11.51 g/m*3 15.7 C 9.7 km/h
954 30-06-2017 07:25:00 15.8 C 11.58 g/m*3 15.8 C 6.4 km/h
955 30-06-2017 07:30:00 15.9 C 11.24 g/m*3 15.9 C 8.1 km/h
956 30-06-2017 07:35:00 15.9 C 11.24 g/m*3 15.9 C 12.9 km/h
957 30-06-2017 07:40:00 16 C 11.31 g/m*3 16 C 11.3 km/h
958 30-06-2017 07:45:00 16 C 11.31 g/m*3 16 C 8.1 km/h
959 30-06-2017 07:50:00 16.1 C 11.38 g/m*3 16.1 C 9.7 km/h
960 30-06-2017 07:55:00 16.1 C 11.38 g/m*3 16.1 C 9.7 km/h
961 30-06-2017 08:00:00 16.2 C 11.45 g/m*3 16.2 C 8.1 km/h
962 30-06-2017 08:05:00 16.3 C 11.38 g/m*3 16.3 C 9.7 km/h
963 30-06-2017 08:10:00 16.3 C 11.52 g/m*3 16.3 C 9.7 km/h
964 30-06-2017 08:15:00 16.3 C 11.52 g/m*3 16.3 C 4.8 km/h
965 30-06-2017 08:20:00 16.3 C 11.38 g/m*3 16.3 C 9.7 km/h
966 30-06-2017 08:25:00 16.4 C 11.45 g/m*3 16.4 C 9.7 km/h
967 30-06-2017 08:30:00 16.5 C 11.51 g/m*3 16.5 C 6.4 km/h
968 30-06-2017 08:35:00 16.6 C 11.44 g/m*3 16.6 C 16.1 km/h
969 30-06-2017 08:40:00 16.6 C 11.3 g/m*3 16.6 C 16.1 km/h
970 30-06-2017 08:45:00 16.6 C 11.44 g/m*3 16.6 C 8.1 km/h
971 30-06-2017 08:50:00 16.6 C 11.44 g/m*3 16.6 C 8.1 km/h
972 30-06-2017 08:55:00 16.7 C 11.51 g/m*3 16.7 C 11.3 km/h
973 30-06-2017 09:00:00 16.8 C 11.44 g/m*3 16.8 C 14.5 km/h
974 30-06-2017 09:05:00 16.8 C 11.29 g/m*3 16.8 C 11.3 km/h
975 30-06-2017 09:10:00 16.9 C 11.51 g/m*3 16.9 C 6.4 km/h
Sensor: Nr:Datum:Temp:Abs-Feuchte:Windchill:Wind:
Aussen-T/F 976 30-06-2017 09:15:00 17.1 C 11.35 g/m*3 17.1 C 16.1 km/h
977 30-06-2017 09:20:00 17.2 C 11.57 g/m*3 17.2 C 11.3 km/h
978 30-06-2017 09:25:00 17.3 C 11.64 g/m*3 17.3 C 14.5 km/h
979 30-06-2017 09:30:00 17.3 C 11.34 g/m*3 17.3 C 8.1 km/h
980 30-06-2017 09:35:00 17.4 C 11.56 g/m*3 17.4 C 6.4 km/h
981 30-06-2017 09:40:00 17.3 C 11.34 g/m*3 17.3 C 11.3 km/h
982 30-06-2017 09:45:00 17.3 C 11.34 g/m*3 17.3 C 9.7 km/h
983 30-06-2017 09:50:00 17.2 C 11.28 g/m*3 17.2 C 9.7 km/h
984 30-06-2017 09:55:00 17.2 C 11.28 g/m*3 17.2 C 16.1 km/h
985 30-06-2017 10:00:00 17.2 C 11.13 g/m*3 17.2 C 14.5 km/h
986 30-06-2017 10:05:00 17.3 C 11.49 g/m*3 17.3 C 8.1 km/h
987 30-06-2017 10:10:00 17.5 C 11.33 g/m*3 17.5 C 9.7 km/h
988 30-06-2017 10:15:00 17.7 C 11.47 g/m*3 17.7 C 12.9 km/h
989 30-06-2017 10:20:00 17.8 C 11.54 g/m*3 17.8 C 8.1 km/h
990 30-06-2017 10:25:00 17.9 C 11.45 g/m*3 17.9 C 16.1 km/h
991 30-06-2017 10:30:00 18 C 11.52 g/m*3 18 C 9.7 km/h
992 30-06-2017 10:35:00 18.1 C 11.28 g/m*3 18.1 C 8.1 km/h
993 30-06-2017 10:40:00 18.2 C 11.19 g/m*3 18.2 C 12.9 km/h
994 30-06-2017 10:45:00 18.2 C 11.04 g/m*3 18.2 C 16.1 km/h
995 30-06-2017 10:50:00 18.3 C 11.1 g/m*3 18.3 C 14.5 km/h
996 30-06-2017 10:55:00 18.3 C 11.26 g/m*3 18.3 C 16.1 km/h
997 30-06-2017 11:00:00 18.3 C 11.41 g/m*3 18.3 C 12.9 km/h
998 30-06-2017 11:05:00 18.2 C 11.04 g/m*3 18.2 C 11.3 km/h
999 30-06-2017 11:10:00 18.2 C 11.04 g/m*3 18.2 C 8.1 km/h
1000 30-06-2017 11:15:00 18.4 C 11.32 g/m*3 18.4 C 8.1 km/h
Sensor: Nr:Datum:Temp:Abs-Feuchte:Windchill:Wind:
Aussen-T/F 1001 30-06-2017 11:20:00 18.6 C 11.14 g/m*3 18.6 C 11.3 km/h
1002 30-06-2017 11:25:00 18.6 C 11.14 g/m*3 18.6 C 12.9 km/h
1003 30-06-2017 11:30:00 18.6 C 10.98 g/m*3 18.6 C 14.5 km/h
1004 30-06-2017 11:35:00 18.7 C 11.53 g/m*3 18.7 C 6.4 km/h
1005 30-06-2017 11:40:00 18.8 C 11.43 g/m*3 18.8 C 9.7 km/h
1006 30-06-2017 11:45:00 18.7 C 10.89 g/m*3 18.7 C 12.9 km/h
1007 30-06-2017 11:50:00 18.6 C 10.98 g/m*3 18.6 C 19.3 km/h
1008 30-06-2017 11:55:00 18.5 C 11.08 g/m*3 18.5 C 8.1 km/h
1009 30-06-2017 12:00:00 18.4 C 11.01 g/m*3 18.4 C 6.4 km/h
1010 30-06-2017 12:05:00 18.5 C 10.92 g/m*3 18.5 C 9.7 km/h
1011 30-06-2017 12:10:00 18.6 C 10.98 g/m*3 18.6 C 8.1 km/h
1012 30-06-2017 12:15:00 18.5 C 10.92 g/m*3 18.5 C 9.7 km/h
1013 30-06-2017 12:20:00 18.4 C 10.85 g/m*3 18.4 C 11.3 km/h
1014 30-06-2017 12:25:00 18.4 C 11.01 g/m*3 18.4 C 11.3 km/h
1015 30-06-2017 12:30:00 18.4 C 10.85 g/m*3 18.4 C 8.1 km/h
1016 30-06-2017 12:35:00 18.5 C 10.92 g/m*3 18.5 C 14.5 km/h
1017 30-06-2017 12:40:00 18.6 C 10.98 g/m*3 18.6 C 11.3 km/h
1018 30-06-2017 12:45:00 18.8 C 11.27 g/m*3 18.8 C 11.3 km/h
1019 30-06-2017 12:50:00 18.9 C 10.69 g/m*3 18.9 C 9.7 km/h
1020 30-06-2017 12:55:00 19 C 11.24 g/m*3 19 C 6.4 km/h
1021 30-06-2017 13:00:00 19.1 C 10.98 g/m*3 19.1 C 12.9 km/h
1022 30-06-2017 13:05:00 19.2 C 11.38 g/m*3 19.2 C 11.3 km/h
1023 30-06-2017 13:10:00 19.3 C 10.95 g/m*3 19.3 C 12.9 km/h
1024 30-06-2017 13:15:00 19.4 C 11.35 g/m*3 19.4 C 11.3 km/h
1025 30-06-2017 13:20:00 19.4 C 10.84 g/m*3 19.4 C 16.1 km/h
Sensor: Nr:Datum:Temp:Abs-Feuchte:Windchill:Wind:
Aussen-T/F 1026 30-06-2017 13:25:00 19.3 C 10.95 g/m*3 19.3 C 9.7 km/h
1027 30-06-2017 13:30:00 19.2 C 10.88 g/m*3 19.2 C 6.4 km/h
1028 30-06-2017 13:35:00 19.1 C 10.82 g/m*3 19.1 C 11.3 km/h
1029 30-06-2017 13:40:00 18.9 C 10.53 g/m*3 18.9 C 14.5 km/h
1030 30-06-2017 13:45:00 18.9 C 10.85 g/m*3 18.9 C 9.7 km/h
1031 30-06-2017 13:50:00 19.1 C 10.82 g/m*3 19.1 C 9.7 km/h
1032 30-06-2017 13:55:00 19.2 C 11.05 g/m*3 19.2 C 11.3 km/h
1033 30-06-2017 14:00:00 19.4 C 10.84 g/m*3 19.4 C 14.5 km/h
1034 30-06-2017 14:05:00 19.6 C 11.48 g/m*3 19.6 C 6.4 km/h
1035 30-06-2017 14:10:00 19.7 C 11.38 g/m*3 19.7 C 8.1 km/h
1036 30-06-2017 14:15:00 19.8 C 11.1 g/m*3 19.8 C 11.3 km/h
1037 30-06-2017 14:20:00 20.1 C 10.95 g/m*3 20.1 C 12.9 km/h
1038 30-06-2017 14:25:00 20.3 C 11.08 g/m*3 20.3 C 9.7 km/h
1039 30-06-2017 14:30:00 20.5 C 11.21 g/m*3 20.5 C 11.3 km/h
1040 30-06-2017 14:35:00 20.7 C 10.98 g/m*3 20.7 C 16.1 km/h
1041 30-06-2017 14:40:00 20.9 C 10.93 g/m*3 20.9 C 16.1 km/h
1042 30-06-2017 14:45:00 21.2 C 10.93 g/m*3 21.2 C 12.9 km/h
1043 30-06-2017 14:50:00 21.2 C 10.93 g/m*3 21.2 C 14.5 km/h
1044 30-06-2017 14:55:00 21.2 C 10.93 g/m*3 21.2 C 14.5 km/h
1045 30-06-2017 15:00:00 21.2 C 10.75 g/m*3 21.2 C 14.5 km/h
1046 30-06-2017 15:05:00 21.1 C 10.5 g/m*3 21.1 C 11.3 km/h
1047 30-06-2017 15:10:00 20.9 C 10.56 g/m*3 20.9 C 9.7 km/h
1048 30-06-2017 15:15:00 20.7 C 10.62 g/m*3 20.7 C 11.3 km/h
1049 30-06-2017 15:20:00 20.5 C 10.85 g/m*3 20.5 C 3.2 km/h
1050 30-06-2017 15:25:00 20.4 C 10.61 g/m*3 20.4 C 12.9 km/h
Sensor: Nr:Datum:Temp:Abs-Feuchte:Windchill:Wind:
Aussen-T/F 1051 30-06-2017 15:30:00 20.3 C 11.08 g/m*3 20.3 C 11.3 km/h
1052 30-06-2017 15:35:00 20.5 C 11.39 g/m*3 20.5 C 4.8 km/h
1053 30-06-2017 15:40:00 20.8 C 11.23 g/m*3 20.8 C 9.7 km/h
1054 30-06-2017 15:45:00 21.1 C 11.06 g/m*3 21.1 C 14.5 km/h
1055 30-06-2017 15:50:00 21.3 C 11.18 g/m*3 21.3 C 11.3 km/h
1056 30-06-2017 15:55:00 21.6 C 11.38 g/m*3 21.6 C 17.7 km/h
1057 30-06-2017 16:00:00 21.7 C 11.06 g/m*3 21.7 C 14.5 km/h
1058 30-06-2017 16:05:00 21.8 C 11.32 g/m*3 21.8 C 11.3 km/h
1059 30-06-2017 16:10:00 21.8 C 11.51 g/m*3 21.8 C 8.1 km/h
1060 30-06-2017 16:15:00 21.8 C 11.32 g/m*3 21.8 C 11.3 km/h
1061 30-06-2017 16:20:00 21.7 C 11.45 g/m*3 21.7 C 4.8 km/h
1062 30-06-2017 16:25:00 21.6 C 10.81 g/m*3 21.6 C 12.9 km/h
1063 30-06-2017 16:30:00 21.6 C 11.19 g/m*3 21.6 C 9.7 km/h
1064 30-06-2017 16:35:00 21.4 C 11.06 g/m*3 21.4 C 14.5 km/h
1065 30-06-2017 16:40:00 21.3 C 10.62 g/m*3 21.3 C 14.5 km/h
1066 30-06-2017 16:45:00 21.2 C 10.93 g/m*3 21.2 C 9.7 km/h
1067 30-06-2017 16:50:00 21.2 C 11.12 g/m*3 21.2 C 9.7 km/h
1068 30-06-2017 16:55:00 21.2 C 11.12 g/m*3 21.2 C 8.1 km/h
1069 30-06-2017 17:00:00 21.2 C 11.12 g/m*3 21.2 C 9.7 km/h
1070 30-06-2017 17:05:00 21.3 C 11.18 g/m*3 21.3 C 9.7 km/h
1071 30-06-2017 17:10:00 21.5 C 11.13 g/m*3 21.5 C 9.7 km/h
1072 30-06-2017 17:15:00 21.5 C 11.5 g/m*3 21.5 C 6.4 km/h
1073 30-06-2017 17:20:00 21.4 C 11.25 g/m*3 21.4 C 6.4 km/h
1074 30-06-2017 17:25:00 21.4 C 11.44 g/m*3 21.4 C 6.4 km/h
1075 30-06-2017 17:30:00 21.6 C 11.38 g/m*3 21.6 C 9.7 km/h
Sensor: Nr:Datum:Temp:Abs-Feuchte:Windchill:Wind:
Aussen-T/F 1076 30-06-2017 17:35:00 21.9 C 11.77 g/m*3 21.9 C 8.1 km/h
1077 30-06-2017 17:40:00 22.3 C 11.26 g/m*3 22.3 C 14.5 km/h
1078 30-06-2017 17:45:00 22.4 C 11.72 g/m*3 22.4 C 14.5 km/h
1079 30-06-2017 17:50:00 22.7 C 11.92 g/m*3 22.7 C 16.1 km/h
1080 30-06-2017 17:55:00 23.1 C 11.58 g/m*3 23.1 C 11.3 km/h
1081 30-06-2017 18:00:00 22.8 C 10.97 g/m*3 22.8 C 16.1 km/h
1082 30-06-2017 18:05:00 22.2 C 11.39 g/m*3 22.2 C 14.5 km/h
1083 30-06-2017 18:10:00 21.9 C 11.19 g/m*3 21.9 C 22.5 km/h
1084 30-06-2017 18:15:00 21.7 C 10.68 g/m*3 21.7 C 22.5 km/h
1085 30-06-2017 18:20:00 21.5 C 10.75 g/m*3 21.5 C 14.5 km/h
1086 30-06-2017 18:25:00 21.4 C 10.69 g/m*3 21.4 C 8.1 km/h
1087 30-06-2017 18:30:00 21.2 C 10.93 g/m*3 21.2 C 9.7 km/h
1088 30-06-2017 18:35:00 21.1 C 11.06 g/m*3 21.1 C 11.3 km/h
1089 30-06-2017 18:40:00 20.9 C 10.75 g/m*3 20.9 C 11.3 km/h
1090 30-06-2017 18:45:00 20.8 C 10.86 g/m*3 20.8 C 11.3 km/h
1091 30-06-2017 18:50:00 21.2 C 10.56 g/m*3 21.2 C 12.9 km/h
1092 30-06-2017 18:55:00 21.7 C 11.06 g/m*3 21.7 C 11.3 km/h
1093 30-06-2017 19:00:00 22.1 C 10.54 g/m*3 22.1 C 12.9 km/h
1094 30-06-2017 19:05:00 21.6 C 10.24 g/m*3 21.6 C 17.7 km/h
1095 30-06-2017 19:10:00 21.1 C 10.13 g/m*3 21.1 C 9.7 km/h
1096 30-06-2017 19:15:00 19.4 C 12.35 g/m*3 19.4 C 0 km/h
1097 30-06-2017 19:20:00 19.3 C 12.11 g/m*3 19.3 C 0 km/h
1098 30-06-2017 19:25:00 19.2 C 12.2 g/m*3 19.2 C 0 km/h
1099 30-06-2017 19:30:00 18.9 C 12.15 g/m*3 18.9 C 0 km/h
1100 30-06-2017 19:35:00 18.7 C 12.01 g/m*3 18.7 C 0 km/h
Sensor: Nr:Datum:Temp:Abs-Feuchte:Windchill:Wind:
Aussen-T/F 1101 30-06-2017 19:40:00 18.5 C 12.02 g/m*3 18.5 C 1.6 km/h
1102 30-06-2017 19:45:00 18.3 C 11.88 g/m*3 18.3 C 0 km/h
1103 30-06-2017 19:50:00 18.1 C 11.9 g/m*3 18.1 C 0 km/h
1104 30-06-2017 19:55:00 17.8 C 11.69 g/m*3 17.8 C 0 km/h
1105 30-06-2017 20:00:00 17.7 C 11.77 g/m*3 17.7 C 0 km/h
1106 30-06-2017 20:05:00 17.4 C 11.71 g/m*3 17.4 C 0 km/h
1107 30-06-2017 20:10:00 17.3 C 11.64 g/m*3 17.3 C 0 km/h
1108 30-06-2017 20:15:00 17.1 C 11.65 g/m*3 17.1 C 0 km/h
1109 30-06-2017 20:20:00 16.9 C 11.51 g/m*3 16.9 C 0 km/h
1110 30-06-2017 20:25:00 16.8 C 11.44 g/m*3 16.8 C 0 km/h
1111 30-06-2017 20:30:00 16.6 C 11.44 g/m*3 16.6 C 0 km/h
1112 30-06-2017 20:35:00 16.4 C 11.31 g/m*3 16.4 C 0 km/h
1113 30-06-2017 20:40:00 16.3 C 11.38 g/m*3 16.3 C 0 km/h
1114 30-06-2017 20:45:00 16.2 C 11.31 g/m*3 16.2 C 0 km/h
1115 30-06-2017 20:50:00 16.2 C 11.45 g/m*3 16.2 C 0 km/h
1116 30-06-2017 20:55:00 16.1 C 11.38 g/m*3 16.1 C 0 km/h
1117 30-06-2017 22:25:00 16.1 C 11.51 g/m*3 16.1 C 0 km/h
1118 30-06-2017 22:30:00 16 C 11.31 g/m*3 16 C 0 km/h
1119 30-06-2017 22:35:00 16 C 11.44 g/m*3 16 C 0 km/h
1120 30-06-2017 22:40:00 15.9 C 11.38 g/m*3 15.9 C 0 km/h
1121 30-06-2017 22:45:00 15.9 C 11.38 g/m*3 15.9 C 0 km/h
1122 30-06-2017 22:50:00 15.9 C 11.38 g/m*3 15.9 C 0 km/h
1123 30-06-2017 22:55:00 15.9 C 11.38 g/m*3 15.9 C 0 km/h
1124 30-06-2017 23:00:00 15.9 C 11.38 g/m*3 15.9 C 0 km/h
1125 30-06-2017 23:05:00 15.9 C 11.38 g/m*3 15.9 C 0 km/h
Sensor: Nr:Datum:Temp:Abs-Feuchte:Windchill:Wind:
Aussen-T/F 1126 30-06-2017 23:10:00 15.9 C 11.38 g/m*3 15.9 C 0 km/h
1127 30-06-2017 23:15:00 15.9 C 11.38 g/m*3 15.9 C 0 km/h
1128 30-06-2017 23:20:00 15.9 C 11.38 g/m*3 15.9 C 0 km/h
1129 30-06-2017 23:25:00 15.9 C 11.38 g/m*3 15.9 C 0 km/h
1130 30-06-2017 23:30:00 15.9 C 11.38 g/m*3 15.9 C 0 km/h
1131 30-06-2017 23:35:00 16 C 11.58 g/m*3 16 C 0 km/h
1132 30-06-2017 23:40:00 16.1 C 11.65 g/m*3 16.1 C 0 km/h
1133 30-06-2017 23:45:00 16.1 C 11.51 g/m*3 16.1 C 0 km/h
1134 30-06-2017 23:50:00 16.1 C 11.51 g/m*3 16.1 C 0 km/h
1135 30-06-2017 23:55:00 16.1 C 11.38 g/m*3 16.1 C 0 km/h
1136 01-07-2017 00:00:00 16.1 C 11.38 g/m*3 16.1 C 0 km/h
1137 01-07-2017 00:05:00 16.1 C 11.38 g/m*3 16.1 C 0 km/h
1138 01-07-2017 00:10:00 16.1 C 11.38 g/m*3 16.1 C 0 km/h
1139 01-07-2017 00:15:00 16.1 C 11.51 g/m*3 16.1 C 0 km/h
1140 01-07-2017 00:20:00 16.1 C 11.38 g/m*3 16.1 C 0 km/h
1141 01-07-2017 00:25:00 16.1 C 11.38 g/m*3 16.1 C 1.6 km/h
1142 01-07-2017 00:30:00 16.1 C 11.38 g/m*3 16.1 C 0 km/h
1143 01-07-2017 00:35:00 16.1 C 11.51 g/m*3 16.1 C 0 km/h
1144 01-07-2017 00:40:00 16.1 C 11.51 g/m*3 16.1 C 1.6 km/h
1145 01-07-2017 00:45:00 16.1 C 11.51 g/m*3 16.1 C 0 km/h
1146 01-07-2017 00:50:00 16.1 C 11.51 g/m*3 16.1 C 0 km/h
1147 01-07-2017 00:55:00 16.1 C 11.38 g/m*3 16.1 C 1.6 km/h
1148 01-07-2017 01:00:00 16.1 C 11.38 g/m*3 16.1 C 3.2 km/h
1149 01-07-2017 01:05:00 16.2 C 11.31 g/m*3 16.2 C 9.7 km/h
1150 01-07-2017 01:10:00 16.2 C 11.31 g/m*3 16.2 C 9.7 km/h
Sensor: Nr:Datum:Temp:Abs-Feuchte:Windchill:Wind:
Aussen-T/F 1151 01-07-2017 01:15:00 16.3 C 11.38 g/m*3 16.3 C 4.8 km/h
1152 01-07-2017 01:20:00 16.3 C 11.38 g/m*3 16.3 C 3.2 km/h
1153 01-07-2017 01:25:00 16.3 C 11.24 g/m*3 16.3 C 9.7 km/h
1154 01-07-2017 01:30:00 16.3 C 11.24 g/m*3 16.3 C 3.2 km/h
1155 01-07-2017 01:35:00 16.4 C 11.17 g/m*3 16.4 C 3.2 km/h
1156 01-07-2017 01:40:00 16.4 C 11.17 g/m*3 16.4 C 9.7 km/h
1157 01-07-2017 01:45:00 16.4 C 11.17 g/m*3 16.4 C 4.8 km/h
1158 01-07-2017 01:50:00 16.5 C 11.23 g/m*3 16.5 C 8.1 km/h
1159 01-07-2017 01:55:00 16.5 C 11.23 g/m*3 16.5 C 9.7 km/h
1160 01-07-2017 02:00:00 16.6 C 11.3 g/m*3 16.6 C 8.1 km/h
1161 01-07-2017 02:05:00 16.6 C 11.3 g/m*3 16.6 C 11.3 km/h
1162 01-07-2017 02:10:00 16.6 C 11.16 g/m*3 16.6 C 8.1 km/h
1163 01-07-2017 02:15:00 16.6 C 11.16 g/m*3 16.6 C 6.4 km/h
1164 01-07-2017 02:20:00 16.6 C 11.16 g/m*3 16.6 C 8.1 km/h
1165 01-07-2017 02:25:00 16.6 C 11.16 g/m*3 16.6 C 19.3 km/h
1166 01-07-2017 02:30:00 16.6 C 11.16 g/m*3 16.6 C 8.1 km/h
1167 01-07-2017 02:35:00 16.6 C 11.16 g/m*3 16.6 C 12.9 km/h
1168 01-07-2017 02:40:00 16.6 C 11.3 g/m*3 16.6 C 11.3 km/h
1169 01-07-2017 02:45:00 16.6 C 11.3 g/m*3 16.6 C 1.6 km/h
1170 01-07-2017 02:50:00 16.5 C 11.23 g/m*3 16.5 C 6.4 km/h
1171 01-07-2017 02:55:00 16.4 C 11.17 g/m*3 16.4 C 8.1 km/h
1172 01-07-2017 03:00:00 16.4 C 11.31 g/m*3 16.4 C 9.7 km/h
1173 01-07-2017 03:05:00 16.4 C 11.31 g/m*3 16.4 C 6.4 km/h
1174 01-07-2017 03:10:00 16.4 C 11.31 g/m*3 16.4 C 8.1 km/h
1175 01-07-2017 03:15:00 16.4 C 11.31 g/m*3 16.4 C 8.1 km/h
Sensor: Nr:Datum:Temp:Abs-Feuchte:Windchill:Wind:
Aussen-T/F 1176 01-07-2017 03:20:00 16.4 C 11.31 g/m*3 16.4 C 16.1 km/h
1177 01-07-2017 03:25:00 16.4 C 11.31 g/m*3 16.4 C 8.1 km/h
1178 01-07-2017 03:30:00 16.3 C 11.38 g/m*3 16.3 C 8.1 km/h
1179 01-07-2017 03:35:00 16.3 C 11.38 g/m*3 16.3 C 8.1 km/h
1180 01-07-2017 03:40:00 16.3 C 11.38 g/m*3 16.3 C 14.5 km/h
1181 01-07-2017 03:45:00 16.3 C 11.38 g/m*3 16.3 C 3.2 km/h
1182 01-07-2017 03:50:00 16.3 C 11.38 g/m*3 16.3 C 16.1 km/h
1183 01-07-2017 03:55:00 16.3 C 11.38 g/m*3 16.3 C 11.3 km/h
1184 01-07-2017 04:00:00 16.2 C 11.45 g/m*3 16.2 C 8.1 km/h
1185 01-07-2017 04:05:00 16.2 C 11.45 g/m*3 16.2 C 14.5 km/h
1186 01-07-2017 04:10:00 16.2 C 11.45 g/m*3 16.2 C 9.7 km/h
1187 01-07-2017 04:15:00 16.2 C 11.45 g/m*3 16.2 C 6.4 km/h
1188 01-07-2017 04:20:00 16.1 C 11.38 g/m*3 16.1 C 8.1 km/h
1189 01-07-2017 04:25:00 16.1 C 11.51 g/m*3 16.1 C 4.8 km/h
1190 01-07-2017 04:30:00 16.1 C 11.51 g/m*3 16.1 C 8.1 km/h
1191 01-07-2017 04:35:00 16.1 C 11.51 g/m*3 16.1 C 6.4 km/h
1192 01-07-2017 04:40:00 16 C 11.44 g/m*3 16 C 6.4 km/h
1193 01-07-2017 04:45:00 16 C 11.44 g/m*3 16 C 11.3 km/h
1194 01-07-2017 04:50:00 16 C 11.44 g/m*3 16 C 14.5 km/h
1195 01-07-2017 04:55:00 16 C 11.44 g/m*3 16 C 4.8 km/h
1196 01-07-2017 05:00:00 16 C 11.44 g/m*3 16 C 8.1 km/h
1197 01-07-2017 05:05:00 16 C 11.44 g/m*3 16 C 9.7 km/h
1198 01-07-2017 05:10:00 16 C 11.44 g/m*3 16 C 9.7 km/h
1199 01-07-2017 05:15:00 16 C 11.58 g/m*3 16 C 8.1 km/h
1200 01-07-2017 05:20:00 16 C 11.58 g/m*3 16 C 9.7 km/h
Sensor: Nr:Datum:Temp:Abs-Feuchte:Windchill:Wind:
Aussen-T/F 1201 01-07-2017 05:25:00 15.9 C 11.51 g/m*3 15.9 C 8.1 km/h
1202 01-07-2017 05:30:00 15.9 C 11.51 g/m*3 15.9 C 6.4 km/h
1203 01-07-2017 05:35:00 15.9 C 11.51 g/m*3 15.9 C 11.3 km/h
1204 01-07-2017 05:40:00 15.9 C 11.51 g/m*3 15.9 C 4.8 km/h
1205 01-07-2017 05:45:00 15.8 C 11.58 g/m*3 15.8 C 8.1 km/h
1206 01-07-2017 05:50:00 15.8 C 11.44 g/m*3 15.8 C 8.1 km/h
1207 01-07-2017 05:55:00 15.8 C 11.44 g/m*3 15.8 C 6.4 km/h
1208 01-07-2017 06:00:00 15.9 C 11.51 g/m*3 15.9 C 4.8 km/h
1209 01-07-2017 06:05:00 15.9 C 11.51 g/m*3 15.9 C 8.1 km/h
1210 01-07-2017 06:10:00 15.9 C 11.51 g/m*3 15.9 C 9.7 km/h
1211 01-07-2017 06:15:00 16 C 11.58 g/m*3 16 C 6.4 km/h
1212 01-07-2017 06:20:00 16 C 11.58 g/m*3 16 C 12.9 km/h
1213 01-07-2017 06:25:00 16.1 C 11.65 g/m*3 16.1 C 4.8 km/h
1214 01-07-2017 06:30:00 16.1 C 11.65 g/m*3 16.1 C 8.1 km/h
1215 01-07-2017 06:35:00 16.1 C 11.79 g/m*3 16.1 C 11.3 km/h
1216 01-07-2017 06:40:00 16.1 C 11.93 g/m*3 16.1 C 3.2 km/h
1217 01-07-2017 06:45:00 15.9 C 11.78 g/m*3 15.9 C 9.7 km/h
1218 01-07-2017 06:50:00 15.8 C 11.85 g/m*3 15.8 C 4.8 km/h
1219 01-07-2017 06:55:00 15.8 C 11.85 g/m*3 15.8 C 3.2 km/h
1220 01-07-2017 07:00:00 15.7 C 11.91 g/m*3 15.7 C 8.1 km/h
1221 01-07-2017 07:05:00 15.7 C 11.91 g/m*3 15.7 C 11.3 km/h
1222 01-07-2017 07:10:00 15.7 C 11.91 g/m*3 15.7 C 6.4 km/h
1223 01-07-2017 07:15:00 15.7 C 12.04 g/m*3 15.7 C 6.4 km/h
1224 01-07-2017 07:20:00 15.6 C 11.97 g/m*3 15.6 C 9.7 km/h
1225 01-07-2017 07:25:00 15.6 C 11.97 g/m*3 15.6 C 11.3 km/h
Sensor: Nr:Datum:Temp:Abs-Feuchte:Windchill:Wind:
Aussen-T/F 1226 01-07-2017 07:30:00 15.5 C 12.03 g/m*3 15.5 C 8.1 km/h
1227 01-07-2017 07:35:00 15.5 C 12.03 g/m*3 15.5 C 8.1 km/h
1228 01-07-2017 07:40:00 15.6 C 12.1 g/m*3 15.6 C 4.8 km/h
1229 01-07-2017 07:45:00 15.6 C 12.1 g/m*3 15.6 C 4.8 km/h
1230 01-07-2017 07:50:00 15.6 C 12.1 g/m*3 15.6 C 4.8 km/h
1231 01-07-2017 07:55:00 15.7 C 12.31 g/m*3 15.7 C 4.8 km/h
1232 01-07-2017 08:00:00 15.7 C 12.31 g/m*3 15.7 C 1.6 km/h
1233 01-07-2017 08:05:00 15.7 C 12.18 g/m*3 15.7 C 12.9 km/h
1234 01-07-2017 08:10:00 15.7 C 12.18 g/m*3 15.7 C 12.9 km/h
1235 01-07-2017 08:15:00 15.7 C 12.18 g/m*3 15.7 C 11.3 km/h
1236 01-07-2017 08:20:00 15.7 C 12.18 g/m*3 15.7 C 8.1 km/h
1237 01-07-2017 08:25:00 15.7 C 12.31 g/m*3 15.7 C 12.9 km/h
1238 01-07-2017 08:30:00 15.7 C 12.31 g/m*3 15.7 C 11.3 km/h
1239 01-07-2017 08:35:00 15.7 C 12.31 g/m*3 15.7 C 9.7 km/h
1240 01-07-2017 08:40:00 15.7 C 12.31 g/m*3 15.7 C 9.7 km/h
1241 01-07-2017 08:45:00 15.7 C 12.31 g/m*3 15.7 C 3.2 km/h
1242 01-07-2017 08:50:00 15.8 C 12.38 g/m*3 15.8 C 4.8 km/h
1243 01-07-2017 08:55:00 15.8 C 12.38 g/m*3 15.8 C 1.6 km/h
1244 01-07-2017 09:00:00 15.8 C 12.38 g/m*3 15.8 C 9.7 km/h
1245 01-07-2017 09:05:00 15.8 C 12.38 g/m*3 15.8 C 8.1 km/h
1246 01-07-2017 09:10:00 15.8 C 12.38 g/m*3 15.8 C 6.4 km/h
1247 01-07-2017 09:15:00 15.8 C 12.38 g/m*3 15.8 C 1.6 km/h
1248 01-07-2017 09:20:00 15.9 C 12.59 g/m*3 15.9 C 1.6 km/h
1249 01-07-2017 09:25:00 16 C 12.67 g/m*3 16 C 0 km/h
1250 01-07-2017 09:30:00 16.1 C 12.75 g/m*3 16.1 C 1.6 km/h
Sensor: Nr:Datum:Temp:Abs-Feuchte:Windchill:Wind:
Aussen-T/F 1251 01-07-2017 09:35:00 16.2 C 12.82 g/m*3 16.2 C 12.9 km/h
1252 01-07-2017 09:40:00 16.1 C 12.61 g/m*3 16.1 C 6.4 km/h
1253 01-07-2017 09:45:00 16.1 C 12.75 g/m*3 16.1 C 3.2 km/h
1254 01-07-2017 09:50:00 16.2 C 12.82 g/m*3 16.2 C 1.6 km/h
1255 01-07-2017 09:55:00 16.3 C 12.9 g/m*3 16.3 C 3.2 km/h
1256 01-07-2017 10:00:00 16.4 C 12.98 g/m*3 16.4 C 4.8 km/h
1257 01-07-2017 10:05:00 16.4 C 12.84 g/m*3 16.4 C 4.8 km/h
1258 01-07-2017 10:10:00 16.5 C 13.06 g/m*3 16.5 C 1.6 km/h
1259 01-07-2017 10:15:00 16.7 C 13.22 g/m*3 16.7 C 4.8 km/h
1260 01-07-2017 10:20:00 16.8 C 13.3 g/m*3 16.8 C 1.6 km/h
1261 01-07-2017 10:25:00 16.8 C 13.15 g/m*3 16.8 C 3.2 km/h
1262 01-07-2017 10:30:00 16.8 C 13.15 g/m*3 16.8 C 6.4 km/h
1263 01-07-2017 10:35:00 16.9 C 13.23 g/m*3 16.9 C 8.1 km/h
1264 01-07-2017 10:40:00 16.9 C 13.09 g/m*3 16.9 C 11.3 km/h
1265 01-07-2017 10:45:00 16.7 C 12.79 g/m*3 16.7 C 9.7 km/h
1266 01-07-2017 10:50:00 16.7 C 12.79 g/m*3 16.7 C 8.1 km/h
1267 01-07-2017 10:55:00 16.8 C 13.01 g/m*3 16.8 C 4.8 km/h
1268 01-07-2017 11:00:00 16.7 C 12.93 g/m*3 16.7 C 8.1 km/h
1269 01-07-2017 11:05:00 16.7 C 12.93 g/m*3 16.7 C 8.1 km/h
1270 01-07-2017 11:10:00 16.6 C 12.86 g/m*3 16.6 C 12.9 km/h
1271 01-07-2017 11:15:00 16.7 C 12.93 g/m*3 16.7 C 8.1 km/h
1272 01-07-2017 11:20:00 16.7 C 13.07 g/m*3 16.7 C 9.7 km/h
1273 01-07-2017 11:25:00 16.7 C 12.93 g/m*3 16.7 C 6.4 km/h
1274 01-07-2017 11:30:00 16.8 C 13.15 g/m*3 16.8 C 8.1 km/h
1275 01-07-2017 11:35:00 16.8 C 13.01 g/m*3 16.8 C 8.1 km/h
Sensor: Nr:Datum:Temp:Abs-Feuchte:Windchill:Wind:
Aussen-T/F 1276 01-07-2017 11:40:00 16.9 C 13.09 g/m*3 16.9 C 11.3 km/h
1277 01-07-2017 11:45:00 16.8 C 12.87 g/m*3 16.8 C 12.9 km/h
1278 01-07-2017 11:50:00 16.9 C 12.94 g/m*3 16.9 C 12.9 km/h
1279 01-07-2017 11:55:00 16.9 C 13.09 g/m*3 16.9 C 8.1 km/h
1280 01-07-2017 12:00:00 16.9 C 12.94 g/m*3 16.9 C 14.5 km/h
1281 01-07-2017 12:05:00 16.9 C 12.94 g/m*3 16.9 C 11.3 km/h
1282 01-07-2017 12:10:00 17 C 13.02 g/m*3 17 C 11.3 km/h
1283 01-07-2017 12:15:00 17.1 C 13.1 g/m*3 17.1 C 17.7 km/h
1284 01-07-2017 12:20:00 17.2 C 13.18 g/m*3 17.2 C 9.7 km/h
1285 01-07-2017 12:25:00 17.1 C 12.96 g/m*3 17.1 C 12.9 km/h
1286 01-07-2017 12:30:00 17.1 C 13.1 g/m*3 17.1 C 6.4 km/h
1287 01-07-2017 12:35:00 17.1 C 13.1 g/m*3 17.1 C 11.3 km/h
1288 01-07-2017 12:40:00 17.1 C 12.96 g/m*3 17.1 C 19.3 km/h
1289 01-07-2017 12:45:00 17.2 C 13.03 g/m*3 17.2 C 14.5 km/h
1290 01-07-2017 12:50:00 17.1 C 12.96 g/m*3 17.1 C 16.1 km/h
1291 01-07-2017 12:55:00 17 C 12.88 g/m*3 17 C 11.3 km/h
1292 01-07-2017 13:00:00 16.9 C 12.8 g/m*3 16.9 C 14.5 km/h
1293 01-07-2017 13:05:00 16.9 C 12.8 g/m*3 16.9 C 9.7 km/h
1294 01-07-2017 13:10:00 16.9 C 12.8 g/m*3 16.9 C 9.7 km/h
1295 01-07-2017 13:15:00 16.9 C 12.8 g/m*3 16.9 C 19.3 km/h
1296 01-07-2017 13:20:00 17.1 C 12.96 g/m*3 17.1 C 11.3 km/h
1297 01-07-2017 13:25:00 17.3 C 12.96 g/m*3 17.3 C 17.7 km/h
1298 01-07-2017 13:30:00 17.5 C 13.12 g/m*3 17.5 C 16.1 km/h
1299 01-07-2017 13:35:00 17.7 C 13.13 g/m*3 17.7 C 14.5 km/h
1300 01-07-2017 13:40:00 17.8 C 13.05 g/m*3 17.8 C 12.9 km/h
Sensor: Nr:Datum:Temp:Abs-Feuchte:Windchill:Wind:
Aussen-T/F 1301 01-07-2017 13:45:00 17.8 C 13.05 g/m*3 17.8 C 14.5 km/h
1302 01-07-2017 13:50:00 17.7 C 12.82 g/m*3 17.7 C 11.3 km/h
1303 01-07-2017 13:55:00 17.6 C 12.75 g/m*3 17.6 C 9.7 km/h
1304 01-07-2017 14:00:00 17.6 C 13.05 g/m*3 17.6 C 8.1 km/h
1305 01-07-2017 14:05:00 17.4 C 13.04 g/m*3 17.4 C 3.2 km/h
1306 01-07-2017 14:10:00 17.2 C 12.89 g/m*3 17.2 C 8.1 km/h
1307 01-07-2017 14:15:00 17.1 C 13.1 g/m*3 17.1 C 4.8 km/h
1308 01-07-2017 14:20:00 17.2 C 13.47 g/m*3 17.2 C 4.8 km/h
1309 01-07-2017 14:25:00 17.1 C 13.25 g/m*3 17.1 C 6.4 km/h
1310 01-07-2017 14:30:00 17 C 13.17 g/m*3 17 C 4.8 km/h
1311 01-07-2017 14:35:00 16.9 C 13.23 g/m*3 16.9 C 6.4 km/h
1312 01-07-2017 14:40:00 16.7 C 12.93 g/m*3 16.7 C 11.3 km/h
1313 01-07-2017 14:45:00 16.7 C 13.07 g/m*3 16.7 C 1.6 km/h
1314 01-07-2017 14:50:00 16.7 C 13.07 g/m*3 16.7 C 1.6 km/h
1315 01-07-2017 14:55:00 16.7 C 13.22 g/m*3 16.7 C 8.1 km/h
1316 01-07-2017 15:00:00 16.8 C 13.3 g/m*3 16.8 C 3.2 km/h
1317 01-07-2017 15:05:00 16.7 C 13.22 g/m*3 16.7 C 0 km/h
1318 01-07-2017 15:10:00 16.8 C 13.3 g/m*3 16.8 C 1.6 km/h
1319 01-07-2017 15:15:00 16.9 C 13.38 g/m*3 16.9 C 0 km/h
1320 01-07-2017 15:20:00 16.9 C 13.38 g/m*3 16.9 C 0 km/h
1321 01-07-2017 15:25:00 17 C 13.46 g/m*3 17 C 0 km/h
1322 01-07-2017 15:30:00 17 C 13.46 g/m*3 17 C 0 km/h
1323 01-07-2017 15:35:00 17 C 13.46 g/m*3 17 C 0 km/h
1324 01-07-2017 15:40:00 17.1 C 13.54 g/m*3 17.1 C 0 km/h
1325 01-07-2017 15:45:00 17.1 C 13.54 g/m*3 17.1 C 0 km/h
Sensor: Nr:Datum:Temp:Abs-Feuchte:Windchill:Wind:
Aussen-T/F 1326 01-07-2017 15:50:00 17.1 C 13.68 g/m*3 17.1 C 0 km/h
1327 01-07-2017 15:55:00 17.2 C 13.77 g/m*3 17.2 C 0 km/h
1328 01-07-2017 16:00:00 17.4 C 13.93 g/m*3 17.4 C 1.6 km/h
1329 01-07-2017 16:05:00 17.4 C 13.93 g/m*3 17.4 C 1.6 km/h
1330 01-07-2017 16:10:00 17.3 C 13.7 g/m*3 17.3 C 1.6 km/h
1331 01-07-2017 16:15:00 17.3 C 13.7 g/m*3 17.3 C 1.6 km/h
1332 01-07-2017 16:20:00 17.2 C 13.62 g/m*3 17.2 C 1.6 km/h
1333 01-07-2017 16:25:00 17.2 C 13.62 g/m*3 17.2 C 0 km/h
1334 01-07-2017 16:30:00 17.3 C 13.7 g/m*3 17.3 C 0 km/h
1335 01-07-2017 16:35:00 17.2 C 13.62 g/m*3 17.2 C 0 km/h
1336 01-07-2017 16:40:00 17.2 C 13.62 g/m*3 17.2 C 0 km/h
1337 01-07-2017 16:45:00 17.2 C 13.62 g/m*3 17.2 C 0 km/h
1338 01-07-2017 16:50:00 17.2 C 13.62 g/m*3 17.2 C 0 km/h
1339 01-07-2017 16:55:00 17.1 C 13.54 g/m*3 17.1 C 1.6 km/h
1340 01-07-2017 17:00:00 17 C 13.46 g/m*3 17 C 3.2 km/h
1341 01-07-2017 17:05:00 16.9 C 13.38 g/m*3 16.9 C 1.6 km/h
1342 01-07-2017 17:10:00 16.8 C 13.15 g/m*3 16.8 C 3.2 km/h
1343 01-07-2017 17:15:00 16.7 C 13.07 g/m*3 16.7 C 4.8 km/h
1344 01-07-2017 17:20:00 16.7 C 13.07 g/m*3 16.7 C 4.8 km/h
1345 01-07-2017 17:25:00 16.6 C 13 g/m*3 16.6 C 1.6 km/h
1346 01-07-2017 17:30:00 16.6 C 13.14 g/m*3 16.6 C 0 km/h
1347 01-07-2017 17:35:00 16.6 C 13.14 g/m*3 16.6 C 0 km/h
1348 01-07-2017 17:40:00 16.6 C 13.14 g/m*3 16.6 C 0 km/h
1349 01-07-2017 17:45:00 16.6 C 13.14 g/m*3 16.6 C 0 km/h
1350 01-07-2017 17:50:00 16.6 C 13.14 g/m*3 16.6 C 0 km/h
Sensor: Nr:Datum:Temp:Abs-Feuchte:Windchill:Wind:
Aussen-T/F 1351 01-07-2017 17:55:00 16.6 C 13.14 g/m*3 16.6 C 0 km/h
1352 01-07-2017 18:00:00 16.6 C 13.14 g/m*3 16.6 C 0 km/h
1353 01-07-2017 18:05:00 16.6 C 13.14 g/m*3 16.6 C 0 km/h
1354 01-07-2017 18:10:00 16.7 C 13.36 g/m*3 16.7 C 0 km/h
1355 01-07-2017 18:15:00 16.7 C 13.36 g/m*3 16.7 C 0 km/h
1356 01-07-2017 18:20:00 16.8 C 13.44 g/m*3 16.8 C 0 km/h
1357 01-07-2017 18:25:00 16.9 C 13.52 g/m*3 16.9 C 0 km/h
1358 01-07-2017 18:30:00 17.1 C 13.68 g/m*3 17.1 C 0 km/h
1359 01-07-2017 18:35:00 17.2 C 13.77 g/m*3 17.2 C 0 km/h
1360 01-07-2017 18:40:00 17.2 C 13.77 g/m*3 17.2 C 0 km/h
1361 01-07-2017 18:45:00 17.2 C 13.77 g/m*3 17.2 C 0 km/h
1362 01-07-2017 18:50:00 17.2 C 13.77 g/m*3 17.2 C 0 km/h
1363 01-07-2017 18:55:00 17.2 C 13.77 g/m*3 17.2 C 0 km/h
1364 01-07-2017 19:00:00 17.2 C 13.77 g/m*3 17.2 C 0 km/h
1365 01-07-2017 19:05:00 17.1 C 13.68 g/m*3 17.1 C 0 km/h
1366 01-07-2017 19:10:00 17 C 13.6 g/m*3 17 C 0 km/h
1367 01-07-2017 19:15:00 16.9 C 13.38 g/m*3 16.9 C 0 km/h
1368 01-07-2017 19:20:00 16.9 C 13.38 g/m*3 16.9 C 0 km/h
1369 01-07-2017 19:25:00 16.9 C 13.38 g/m*3 16.9 C 0 km/h
1370 01-07-2017 19:30:00 16.8 C 13.44 g/m*3 16.8 C 0 km/h
1371 01-07-2017 19:35:00 16.8 C 13.44 g/m*3 16.8 C 0 km/h
1372 01-07-2017 19:40:00 16.8 C 13.44 g/m*3 16.8 C 0 km/h
1373 01-07-2017 19:45:00 16.8 C 13.44 g/m*3 16.8 C 0 km/h
1374 01-07-2017 19:50:00 16.7 C 13.36 g/m*3 16.7 C 0 km/h
1375 01-07-2017 19:55:00 16.6 C 13.28 g/m*3 16.6 C 0 km/h
Sensor: Nr:Datum:Temp:Abs-Feuchte:Windchill:Wind:
Aussen-T/F 1376 01-07-2017 20:00:00 16.6 C 13.28 g/m*3 16.6 C 0 km/h
1377 01-07-2017 20:05:00 16.5 C 13.2 g/m*3 16.5 C 0 km/h
1378 01-07-2017 20:10:00 16.4 C 13.12 g/m*3 16.4 C 0 km/h
1379 01-07-2017 20:15:00 16.4 C 13.12 g/m*3 16.4 C 0 km/h
1380 01-07-2017 20:20:00 16.3 C 13.04 g/m*3 16.3 C 0 km/h
1381 01-07-2017 20:25:00 16.3 C 13.04 g/m*3 16.3 C 0 km/h
1382 01-07-2017 20:30:00 16.3 C 13.04 g/m*3 16.3 C 0 km/h
1383 01-07-2017 20:35:00 16.3 C 13.04 g/m*3 16.3 C 0 km/h
1384 01-07-2017 20:40:00 16.3 C 13.04 g/m*3 16.3 C 0 km/h
1385 01-07-2017 20:45:00 16.3 C 13.04 g/m*3 16.3 C 0 km/h
1386 01-07-2017 20:50:00 16.3 C 13.04 g/m*3 16.3 C 0 km/h
1387 01-07-2017 20:55:00 16.3 C 13.04 g/m*3 16.3 C 0 km/h
1388 01-07-2017 21:00:00 16.3 C 13.18 g/m*3 16.3 C 1.6 km/h
1389 01-07-2017 21:05:00 16.2 C 13.1 g/m*3 16.2 C 0 km/h
1390 01-07-2017 21:10:00 16.2 C 13.1 g/m*3 16.2 C 0 km/h
1391 01-07-2017 21:15:00 16.2 C 13.1 g/m*3 16.2 C 0 km/h
1392 01-07-2017 21:20:00 16.2 C 13.1 g/m*3 16.2 C 0 km/h
1393 01-07-2017 21:25:00 16.1 C 13.02 g/m*3 16.1 C 1.6 km/h
1394 01-07-2017 21:30:00 16.1 C 13.02 g/m*3 16.1 C 0 km/h
1395 01-07-2017 21:35:00 16.1 C 13.02 g/m*3 16.1 C 0 km/h
1396 01-07-2017 21:40:00 16.1 C 13.02 g/m*3 16.1 C 0 km/h
1397 01-07-2017 21:45:00 16.1 C 13.02 g/m*3 16.1 C 1.6 km/h
1398 01-07-2017 21:50:00 16.1 C 13.02 g/m*3 16.1 C 4.8 km/h
1399 01-07-2017 21:55:00 16.1 C 13.02 g/m*3 16.1 C 0 km/h
1400 01-07-2017 22:00:00 16.1 C 13.02 g/m*3 16.1 C 1.6 km/h
Sensor: Nr:Datum:Temp:Abs-Feuchte:Windchill:Wind:
Aussen-T/F 1401 01-07-2017 22:05:00 16.1 C 13.02 g/m*3 16.1 C 3.2 km/h
1402 01-07-2017 22:10:00 16.2 C 13.1 g/m*3 16.2 C 0 km/h
1403 01-07-2017 22:15:00 16.2 C 13.1 g/m*3 16.2 C 0 km/h
1404 01-07-2017 22:20:00 16.2 C 13.1 g/m*3 16.2 C 1.6 km/h
1405 01-07-2017 22:25:00 16.2 C 13.1 g/m*3 16.2 C 0 km/h
1406 01-07-2017 22:30:00 16.2 C 13.1 g/m*3 16.2 C 0 km/h
1407 01-07-2017 22:35:00 16.1 C 13.02 g/m*3 16.1 C 3.2 km/h
1408 01-07-2017 22:40:00 16.1 C 13.02 g/m*3 16.1 C 3.2 km/h
1409 01-07-2017 22:45:00 16.1 C 13.02 g/m*3 16.1 C 0 km/h
1410 01-07-2017 22:50:00 16.1 C 13.02 g/m*3 16.1 C 8.1 km/h
1411 01-07-2017 22:55:00 16.1 C 13.02 g/m*3 16.1 C 3.2 km/h
1412 01-07-2017 23:00:00 16.1 C 13.16 g/m*3 16.1 C 0 km/h
1413 01-07-2017 23:05:00 16.1 C 13.02 g/m*3 16.1 C 0 km/h
1414 01-07-2017 23:10:00 16.1 C 13.02 g/m*3 16.1 C 1.6 km/h
1415 01-07-2017 23:15:00 16 C 12.94 g/m*3 16 C 0 km/h
1416 01-07-2017 23:20:00 16 C 12.94 g/m*3 16 C 0 km/h
1417 01-07-2017 23:25:00 15.9 C 12.87 g/m*3 15.9 C 0 km/h
1418 01-07-2017 23:30:00 15.9 C 12.87 g/m*3 15.9 C 0 km/h
1419 01-07-2017 23:35:00 15.9 C 13 g/m*3 15.9 C 0 km/h
1420 01-07-2017 23:40:00 15.9 C 13 g/m*3 15.9 C 1.6 km/h
1421 01-07-2017 23:45:00 15.8 C 12.92 g/m*3 15.8 C 4.8 km/h
1422 01-07-2017 23:50:00 15.8 C 12.92 g/m*3 15.8 C 0 km/h
1423 01-07-2017 23:55:00 15.8 C 12.92 g/m*3 15.8 C 0 km/h
1424 02-07-2017 00:00:00 15.8 C 12.92 g/m*3 15.8 C 0 km/h
1425 02-07-2017 00:05:00 15.8 C 12.92 g/m*3 15.8 C 0 km/h
Sensor: Nr:Datum:Temp:Abs-Feuchte:Windchill:Wind:
Aussen-T/F 1426 02-07-2017 00:10:00 15.8 C 12.92 g/m*3 15.8 C 0 km/h
1427 02-07-2017 00:15:00 15.8 C 12.92 g/m*3 15.8 C 0 km/h
1428 02-07-2017 00:20:00 15.8 C 12.92 g/m*3 15.8 C 0 km/h
1429 02-07-2017 00:25:00 15.8 C 12.92 g/m*3 15.8 C 0 km/h
1430 02-07-2017 00:30:00 15.8 C 12.92 g/m*3 15.8 C 0 km/h
1431 02-07-2017 00:35:00 15.8 C 12.92 g/m*3 15.8 C 0 km/h
1432 02-07-2017 00:40:00 15.8 C 12.92 g/m*3 15.8 C 1.6 km/h
1433 02-07-2017 00:45:00 15.8 C 12.92 g/m*3 15.8 C 0 km/h
1434 02-07-2017 00:50:00 15.8 C 12.92 g/m*3 15.8 C 0 km/h
1435 02-07-2017 00:55:00 15.8 C 12.92 g/m*3 15.8 C 0 km/h
1436 02-07-2017 01:00:00 15.9 C 13 g/m*3 15.9 C 0 km/h
1437 02-07-2017 01:05:00 15.9 C 13 g/m*3 15.9 C 0 km/h
1438 02-07-2017 01:10:00 15.9 C 13 g/m*3 15.9 C 0 km/h
1439 02-07-2017 01:15:00 15.9 C 13 g/m*3 15.9 C 0 km/h
1440 02-07-2017 01:20:00 15.9 C 13 g/m*3 15.9 C 0 km/h
1441 02-07-2017 01:25:00 15.9 C 13 g/m*3 15.9 C 0 km/h
1442 02-07-2017 01:30:00 15.9 C 13 g/m*3 15.9 C 0 km/h
1443 02-07-2017 01:35:00 15.9 C 13 g/m*3 15.9 C 1.6 km/h
1444 02-07-2017 01:40:00 15.9 C 13 g/m*3 15.9 C 6.4 km/h
1445 02-07-2017 01:45:00 15.9 C 13 g/m*3 15.9 C 4.8 km/h
1446 02-07-2017 01:50:00 15.9 C 13 g/m*3 15.9 C 4.8 km/h
1447 02-07-2017 01:55:00 15.8 C 12.92 g/m*3 15.8 C 6.4 km/h
1448 02-07-2017 02:00:00 15.8 C 12.92 g/m*3 15.8 C 6.4 km/h
1449 02-07-2017 02:05:00 15.8 C 12.92 g/m*3 15.8 C 3.2 km/h
1450 02-07-2017 02:10:00 15.7 C 12.84 g/m*3 15.7 C 4.8 km/h
Sensor: Nr:Datum:Temp:Abs-Feuchte:Windchill:Wind:
Aussen-T/F 1451 02-07-2017 02:15:00 15.7 C 12.71 g/m*3 15.7 C 6.4 km/h
1452 02-07-2017 02:20:00 15.7 C 12.71 g/m*3 15.7 C 1.6 km/h
1453 02-07-2017 02:25:00 15.7 C 12.71 g/m*3 15.7 C 6.4 km/h
1454 02-07-2017 02:30:00 15.6 C 12.63 g/m*3 15.6 C 0 km/h
1455 02-07-2017 02:35:00 15.6 C 12.63 g/m*3 15.6 C 4.8 km/h
1456 02-07-2017 02:40:00 15.6 C 12.63 g/m*3 15.6 C 4.8 km/h
1457 02-07-2017 02:45:00 15.4 C 12.48 g/m*3 15.4 C 11.3 km/h
1458 02-07-2017 02:50:00 15.3 C 12.28 g/m*3 15.3 C 9.7 km/h
1459 02-07-2017 02:55:00 15.3 C 12.28 g/m*3 15.3 C 0 km/h
1460 02-07-2017 03:00:00 15.3 C 12.28 g/m*3 15.3 C 4.8 km/h
1461 02-07-2017 03:05:00 15.4 C 12.35 g/m*3 15.4 C 3.2 km/h
1462 02-07-2017 03:10:00 15.3 C 12.28 g/m*3 15.3 C 0 km/h
1463 02-07-2017 03:15:00 15.3 C 12.28 g/m*3 15.3 C 0 km/h
1464 02-07-2017 03:20:00 15.3 C 12.41 g/m*3 15.3 C 1.6 km/h
1465 02-07-2017 03:25:00 15.3 C 12.28 g/m*3 15.3 C 6.4 km/h
1466 02-07-2017 03:30:00 15.2 C 12.2 g/m*3 15.2 C 1.6 km/h
1467 02-07-2017 03:35:00 15.2 C 12.2 g/m*3 15.2 C 1.6 km/h
1468 02-07-2017 03:40:00 15.2 C 12.2 g/m*3 15.2 C 3.2 km/h
1469 02-07-2017 03:45:00 15.1 C 12.13 g/m*3 15.1 C 3.2 km/h
1470 02-07-2017 03:50:00 15.1 C 12.13 g/m*3 15.1 C 1.6 km/h
1471 02-07-2017 03:55:00 15 C 12.05 g/m*3 15 C 6.4 km/h
1472 02-07-2017 04:00:00 14.9 C 11.98 g/m*3 14.9 C 1.6 km/h
1473 02-07-2017 04:05:00 14.9 C 11.98 g/m*3 14.9 C 0 km/h
1474 02-07-2017 04:10:00 14.9 C 11.98 g/m*3 14.9 C 0 km/h
1475 02-07-2017 04:15:00 14.9 C 11.98 g/m*3 14.9 C 1.6 km/h
Sensor: Nr:Datum:Temp:Abs-Feuchte:Windchill:Wind:
Aussen-T/F 1476 02-07-2017 04:20:00 14.9 C 11.98 g/m*3 14.9 C 0 km/h
1477 02-07-2017 04:25:00 14.8 C 11.91 g/m*3 14.8 C 0 km/h
1478 02-07-2017 04:30:00 14.8 C 11.91 g/m*3 14.8 C 0 km/h
1479 02-07-2017 04:35:00 14.7 C 11.83 g/m*3 14.7 C 0 km/h
1480 02-07-2017 04:40:00 14.7 C 11.83 g/m*3 14.7 C 0 km/h
1481 02-07-2017 04:45:00 14.7 C 11.96 g/m*3 14.7 C 0 km/h
1482 02-07-2017 04:50:00 14.7 C 11.96 g/m*3 14.7 C 0 km/h
1483 02-07-2017 04:55:00 14.7 C 11.96 g/m*3 14.7 C 0 km/h
1484 02-07-2017 05:00:00 14.6 C 11.89 g/m*3 14.6 C 0 km/h
1485 02-07-2017 05:05:00 14.6 C 11.89 g/m*3 14.6 C 0 km/h
1486 02-07-2017 05:10:00 14.6 C 11.89 g/m*3 14.6 C 1.6 km/h
1487 02-07-2017 05:15:00 14.5 C 11.82 g/m*3 14.5 C 0 km/h
1488 02-07-2017 05:20:00 14.5 C 11.82 g/m*3 14.5 C 0 km/h
1489 02-07-2017 05:25:00 14.4 C 11.74 g/m*3 14.4 C 0 km/h
1490 02-07-2017 05:30:00 14.4 C 11.74 g/m*3 14.4 C 0 km/h
1491 02-07-2017 05:35:00 14.4 C 11.74 g/m*3 14.4 C 0 km/h
1492 02-07-2017 05:40:00 14.3 C 11.67 g/m*3 14.3 C 0 km/h
1493 02-07-2017 05:45:00 14.2 C 11.6 g/m*3 14.2 C 0 km/h
1494 02-07-2017 05:50:00 14.2 C 11.6 g/m*3 14.2 C 0 km/h
1495 02-07-2017 05:55:00 14.1 C 11.53 g/m*3 14.1 C 0 km/h
1496 02-07-2017 06:00:00 14.1 C 11.53 g/m*3 14.1 C 0 km/h
1497 02-07-2017 06:05:00 14 C 11.46 g/m*3 14 C 0 km/h
1498 02-07-2017 06:10:00 13.9 C 11.39 g/m*3 13.9 C 0 km/h
1499 02-07-2017 06:15:00 14 C 11.46 g/m*3 14 C 0 km/h
1500 02-07-2017 06:20:00 14.1 C 11.53 g/m*3 14.1 C 0 km/h
Sensor: Nr:Datum:Temp:Abs-Feuchte:Windchill:Wind:
Aussen-T/F 1501 02-07-2017 06:25:00 14.1 C 11.53 g/m*3 14.1 C 0 km/h
1502 02-07-2017 06:30:00 14.2 C 11.6 g/m*3 14.2 C 0 km/h
1503 02-07-2017 06:35:00 14.2 C 11.6 g/m*3 14.2 C 0 km/h
1504 02-07-2017 06:40:00 14.2 C 11.6 g/m*3 14.2 C 0 km/h
1505 02-07-2017 06:45:00 14.3 C 11.67 g/m*3 14.3 C 0 km/h
1506 02-07-2017 06:50:00 14.3 C 11.67 g/m*3 14.3 C 0 km/h
1507 02-07-2017 06:55:00 14.4 C 11.87 g/m*3 14.4 C 0 km/h
1508 02-07-2017 07:00:00 14.4 C 11.87 g/m*3 14.4 C 0 km/h
1509 02-07-2017 07:05:00 14.5 C 11.94 g/m*3 14.5 C 3.2 km/h
1510 02-07-2017 07:10:00 14.6 C 12.01 g/m*3 14.6 C 1.6 km/h
1511 02-07-2017 07:15:00 14.5 C 11.82 g/m*3 14.5 C 0 km/h
1512 02-07-2017 07:20:00 14.5 C 11.82 g/m*3 14.5 C 4.8 km/h
1513 02-07-2017 07:25:00 14.6 C 11.89 g/m*3 14.6 C 0 km/h
1514 02-07-2017 07:30:00 14.6 C 11.89 g/m*3 14.6 C 1.6 km/h
1515 02-07-2017 07:35:00 14.7 C 12.09 g/m*3 14.7 C 0 km/h
1516 02-07-2017 07:40:00 14.8 C 12.03 g/m*3 14.8 C 3.2 km/h
1517 02-07-2017 07:45:00 14.8 C 12.03 g/m*3 14.8 C 1.6 km/h
1518 02-07-2017 07:50:00 15.1 C 12.39 g/m*3 15.1 C 0 km/h
1519 02-07-2017 07:55:00 15.2 C 12.33 g/m*3 15.2 C 3.2 km/h
1520 02-07-2017 08:00:00 15.3 C 12.41 g/m*3 15.3 C 1.6 km/h
1521 02-07-2017 08:05:00 15.3 C 12.28 g/m*3 15.3 C 6.4 km/h
1522 02-07-2017 08:10:00 15.3 C 12.14 g/m*3 15.3 C 6.4 km/h
1523 02-07-2017 08:15:00 15.4 C 12.22 g/m*3 15.4 C 6.4 km/h
1524 02-07-2017 08:20:00 15.6 C 12.23 g/m*3 15.6 C 3.2 km/h
1525 02-07-2017 08:25:00 15.6 C 12.23 g/m*3 15.6 C 6.4 km/h
Sensor: Nr:Datum:Temp:Abs-Feuchte:Windchill:Wind:
Aussen-T/F 1526 02-07-2017 08:30:00 15.7 C 12.31 g/m*3 15.7 C 4.8 km/h
1527 02-07-2017 08:35:00 15.7 C 12.18 g/m*3 15.7 C 3.2 km/h
1528 02-07-2017 08:40:00 15.8 C 12.38 g/m*3 15.8 C 0 km/h
1529 02-07-2017 08:45:00 15.8 C 12.11 g/m*3 15.8 C 3.2 km/h
1530 02-07-2017 08:50:00 15.9 C 12.19 g/m*3 15.9 C 3.2 km/h
1531 02-07-2017 08:55:00 16 C 12.13 g/m*3 16 C 1.6 km/h
1532 02-07-2017 09:00:00 16 C 11.85 g/m*3 16 C 9.7 km/h
1533 02-07-2017 09:05:00 16.2 C 11.86 g/m*3 16.2 C 11.3 km/h
1534 02-07-2017 09:10:00 16.6 C 12.29 g/m*3 16.6 C 9.7 km/h
1535 02-07-2017 09:15:00 16.8 C 12.44 g/m*3 16.8 C 8.1 km/h
1536 02-07-2017 09:20:00 17 C 12.3 g/m*3 17 C 9.7 km/h
1537 02-07-2017 09:25:00 17.1 C 12.37 g/m*3 17.1 C 4.8 km/h
1538 02-07-2017 09:30:00 17.2 C 12.59 g/m*3 17.2 C 4.8 km/h
1539 02-07-2017 09:35:00 17.2 C 12.45 g/m*3 17.2 C 8.1 km/h
1540 02-07-2017 09:40:00 17.3 C 12.52 g/m*3 17.3 C 3.2 km/h
1541 02-07-2017 09:45:00 17.4 C 12.89 g/m*3 17.4 C 1.6 km/h
1542 02-07-2017 09:50:00 17.4 C 12.75 g/m*3 17.4 C 6.4 km/h
1543 02-07-2017 09:55:00 17.3 C 12.52 g/m*3 17.3 C 6.4 km/h
1544 02-07-2017 10:00:00 17.4 C 12.75 g/m*3 17.4 C 3.2 km/h
1545 02-07-2017 10:05:00 17.5 C 12.82 g/m*3 17.5 C 3.2 km/h
1546 02-07-2017 10:10:00 17.6 C 12.75 g/m*3 17.6 C 1.6 km/h
1547 02-07-2017 10:15:00 17.6 C 12.9 g/m*3 17.6 C 8.1 km/h
1548 02-07-2017 10:20:00 17.7 C 13.13 g/m*3 17.7 C 3.2 km/h
1549 02-07-2017 10:25:00 17.8 C 13.05 g/m*3 17.8 C 6.4 km/h
1550 02-07-2017 10:30:00 17.8 C 12.75 g/m*3 17.8 C 9.7 km/h
Sensor: Nr:Datum:Temp:Abs-Feuchte:Windchill:Wind:
Aussen-T/F 1551 02-07-2017 10:35:00 17.8 C 12.6 g/m*3 17.8 C 12.9 km/h
1552 02-07-2017 10:40:00 17.8 C 12.75 g/m*3 17.8 C 8.1 km/h
1553 02-07-2017 10:45:00 17.8 C 12.75 g/m*3 17.8 C 3.2 km/h
1554 02-07-2017 10:50:00 17.8 C 12.75 g/m*3 17.8 C 6.4 km/h
1555 02-07-2017 10:55:00 17.8 C 12.75 g/m*3 17.8 C 11.3 km/h
1556 02-07-2017 11:00:00 17.7 C 12.67 g/m*3 17.7 C 6.4 km/h
1557 02-07-2017 11:05:00 17.6 C 12.6 g/m*3 17.6 C 9.7 km/h
1558 02-07-2017 11:10:00 17.6 C 12.6 g/m*3 17.6 C 4.8 km/h
1559 02-07-2017 11:15:00 17.7 C 12.82 g/m*3 17.7 C 4.8 km/h
1560 02-07-2017 11:20:00 17.7 C 12.67 g/m*3 17.7 C 8.1 km/h
1561 02-07-2017 11:25:00 17.8 C 12.6 g/m*3 17.8 C 9.7 km/h
1562 02-07-2017 11:30:00 17.9 C 12.67 g/m*3 17.9 C 4.8 km/h
1563 02-07-2017 11:35:00 18.1 C 12.82 g/m*3 18.1 C 6.4 km/h
1564 02-07-2017 11:40:00 18.3 C 12.82 g/m*3 18.3 C 8.1 km/h
1565 02-07-2017 11:45:00 18.6 C 12.73 g/m*3 18.6 C 11.3 km/h
1566 02-07-2017 11:50:00 18.8 C 12.72 g/m*3 18.8 C 9.7 km/h
1567 02-07-2017 11:55:00 19 C 12.87 g/m*3 19 C 11.3 km/h
1568 02-07-2017 12:00:00 19.3 C 13.27 g/m*3 19.3 C 11.3 km/h
1569 02-07-2017 12:05:00 19.4 C 12.85 g/m*3 19.4 C 8.1 km/h
1570 02-07-2017 12:10:00 19.6 C 12.83 g/m*3 19.6 C 6.4 km/h
1571 02-07-2017 12:15:00 19.7 C 12.74 g/m*3 19.7 C 11.3 km/h
1572 02-07-2017 12:20:00 19.7 C 12.91 g/m*3 19.7 C 14.5 km/h
1573 02-07-2017 12:25:00 19.8 C 12.81 g/m*3 19.8 C 9.7 km/h
1574 02-07-2017 12:30:00 19.8 C 13.15 g/m*3 19.8 C 4.8 km/h
1575 02-07-2017 12:35:00 19.7 C 12.4 g/m*3 19.7 C 11.3 km/h
Sensor: Nr:Datum:Temp:Abs-Feuchte:Windchill:Wind:
Aussen-T/F 1576 02-07-2017 12:40:00 19.7 C 12.74 g/m*3 19.7 C 8.1 km/h
1577 02-07-2017 12:45:00 19.6 C 13 g/m*3 19.6 C 9.7 km/h
1578 02-07-2017 12:50:00 19.6 C 12.66 g/m*3 19.6 C 8.1 km/h
1579 02-07-2017 12:55:00 19.5 C 12.75 g/m*3 19.5 C 12.9 km/h
1580 02-07-2017 13:00:00 19.5 C 12.59 g/m*3 19.5 C 12.9 km/h
1581 02-07-2017 13:05:00 19.4 C 12.68 g/m*3 19.4 C 17.7 km/h
1582 02-07-2017 13:10:00 19.4 C 12.85 g/m*3 19.4 C 17.7 km/h
1583 02-07-2017 13:15:00 19.3 C 12.27 g/m*3 19.3 C 9.7 km/h
1584 02-07-2017 13:20:00 19.3 C 12.27 g/m*3 19.3 C 11.3 km/h
1585 02-07-2017 13:25:00 19.4 C 12.35 g/m*3 19.4 C 9.7 km/h
1586 02-07-2017 13:30:00 19.4 C 12.35 g/m*3 19.4 C 9.7 km/h
1587 02-07-2017 13:35:00 19.6 C 12.66 g/m*3 19.6 C 9.7 km/h
1588 02-07-2017 13:40:00 19.6 C 12.66 g/m*3 19.6 C 14.5 km/h
1589 02-07-2017 13:45:00 19.7 C 12.74 g/m*3 19.7 C 12.9 km/h
1590 02-07-2017 13:50:00 19.7 C 12.4 g/m*3 19.7 C 11.3 km/h
1591 02-07-2017 13:55:00 19.7 C 12.57 g/m*3 19.7 C 11.3 km/h
1592 02-07-2017 14:00:00 19.5 C 12.42 g/m*3 19.5 C 17.7 km/h
1593 02-07-2017 14:05:00 19.1 C 12.46 g/m*3 19.1 C 16.1 km/h
1594 02-07-2017 14:10:00 18.6 C 12.57 g/m*3 18.6 C 17.7 km/h
1595 02-07-2017 14:15:00 18.2 C 12.75 g/m*3 18.2 C 11.3 km/h
1596 02-07-2017 14:20:00 17.9 C 12.83 g/m*3 17.9 C 8.1 km/h
1597 02-07-2017 14:25:00 17.7 C 12.82 g/m*3 17.7 C 4.8 km/h
1598 02-07-2017 14:30:00 17.7 C 12.82 g/m*3 17.7 C 8.1 km/h
1599 02-07-2017 14:35:00 17.8 C 13.05 g/m*3 17.8 C 6.4 km/h
1600 02-07-2017 14:40:00 18.1 C 13.13 g/m*3 18.1 C 6.4 km/h
Sensor: Nr:Datum:Temp:Abs-Feuchte:Windchill:Wind:
Aussen-T/F 1601 02-07-2017 14:45:00 18.3 C 13.13 g/m*3 18.3 C 12.9 km/h
1602 02-07-2017 14:50:00 18.5 C 13.13 g/m*3 18.5 C 11.3 km/h
1603 02-07-2017 14:55:00 18.6 C 12.89 g/m*3 18.6 C 14.5 km/h
1604 02-07-2017 15:00:00 18.6 C 13.05 g/m*3 18.6 C 6.4 km/h
1605 02-07-2017 15:05:00 18.6 C 13.05 g/m*3 18.6 C 9.7 km/h
1606 02-07-2017 15:10:00 18.7 C 13.13 g/m*3 18.7 C 8.1 km/h
1607 02-07-2017 15:15:00 18.7 C 12.97 g/m*3 18.7 C 6.4 km/h
1608 02-07-2017 15:20:00 18.7 C 12.97 g/m*3 18.7 C 9.7 km/h
1609 02-07-2017 15:25:00 18.7 C 13.13 g/m*3 18.7 C 6.4 km/h
1610 02-07-2017 15:30:00 18.7 C 13.13 g/m*3 18.7 C 4.8 km/h
1611 02-07-2017 15:35:00 18.9 C 13.12 g/m*3 18.9 C 12.9 km/h
1612 02-07-2017 15:40:00 19.2 C 13.36 g/m*3 19.2 C 6.4 km/h
1613 02-07-2017 15:45:00 19.6 C 13.34 g/m*3 19.6 C 9.7 km/h
1614 02-07-2017 15:50:00 19.7 C 13.08 g/m*3 19.7 C 8.1 km/h
1615 02-07-2017 15:55:00 19.7 C 13.25 g/m*3 19.7 C 6.4 km/h
1616 02-07-2017 16:00:00 19.7 C 13.25 g/m*3 19.7 C 6.4 km/h
1617 02-07-2017 16:05:00 19.8 C 13.32 g/m*3 19.8 C 4.8 km/h
1618 02-07-2017 16:10:00 19.8 C 13.15 g/m*3 19.8 C 3.2 km/h
1619 02-07-2017 16:15:00 19.7 C 13.25 g/m*3 19.7 C 3.2 km/h
1620 02-07-2017 16:20:00 19.7 C 13.41 g/m*3 19.7 C 0 km/h
1621 02-07-2017 16:25:00 19.5 C 13.43 g/m*3 19.5 C 1.6 km/h
1622 02-07-2017 16:30:00 19.3 C 13.1 g/m*3 19.3 C 1.6 km/h
1623 02-07-2017 16:35:00 19.2 C 13.03 g/m*3 19.2 C 1.6 km/h
1624 02-07-2017 16:40:00 19.1 C 12.95 g/m*3 19.1 C 1.6 km/h
1625 02-07-2017 16:45:00 19.1 C 12.46 g/m*3 19.1 C 9.7 km/h
Sensor: Nr:Datum:Temp:Abs-Feuchte:Windchill:Wind:
Aussen-T/F 1626 02-07-2017 16:50:00 19.2 C 12.53 g/m*3 19.2 C 8.1 km/h
1627 02-07-2017 16:55:00 19.3 C 12.94 g/m*3 19.3 C 11.3 km/h
1628 02-07-2017 17:00:00 19.2 C 12.37 g/m*3 19.2 C 11.3 km/h
1629 02-07-2017 17:05:00 19.2 C 12.04 g/m*3 19.2 C 14.5 km/h
1630 02-07-2017 17:10:00 19.2 C 12.37 g/m*3 19.2 C 12.9 km/h
1631 02-07-2017 17:15:00 19.2 C 12.53 g/m*3 19.2 C 8.1 km/h
1632 02-07-2017 17:20:00 19.1 C 12.79 g/m*3 19.1 C 4.8 km/h
1633 02-07-2017 17:25:00 19.1 C 12.79 g/m*3 19.1 C 6.4 km/h
1634 02-07-2017 17:30:00 18.9 C 12.64 g/m*3 18.9 C 6.4 km/h
1635 02-07-2017 17:35:00 18.8 C 12.56 g/m*3 18.8 C 6.4 km/h
1636 02-07-2017 17:40:00 18.8 C 12.56 g/m*3 18.8 C 9.7 km/h
1637 02-07-2017 17:45:00 18.7 C 12.49 g/m*3 18.7 C 9.7 km/h
1638 02-07-2017 17:50:00 18.7 C 12.81 g/m*3 18.7 C 9.7 km/h
1639 02-07-2017 17:55:00 18.7 C 12.65 g/m*3 18.7 C 8.1 km/h
1640 02-07-2017 18:00:00 18.7 C 12.65 g/m*3 18.7 C 4.8 km/h
1641 02-07-2017 18:05:00 18.7 C 12.65 g/m*3 18.7 C 8.1 km/h
1642 02-07-2017 18:10:00 18.7 C 12.81 g/m*3 18.7 C 8.1 km/h
1643 02-07-2017 18:15:00 18.5 C 12.82 g/m*3 18.5 C 8.1 km/h
1644 02-07-2017 18:20:00 18.3 C 13.13 g/m*3 18.3 C 1.6 km/h
1645 02-07-2017 18:25:00 18.1 C 13.29 g/m*3 18.1 C 1.6 km/h
1646 02-07-2017 18:30:00 18.2 C 13.83 g/m*3 18.2 C 0 km/h
1647 02-07-2017 18:35:00 18.2 C 13.83 g/m*3 18.2 C 0 km/h
1648 02-07-2017 18:40:00 18.1 C 13.44 g/m*3 18.1 C 6.4 km/h
1649 02-07-2017 18:45:00 18.1 C 13.6 g/m*3 18.1 C 1.6 km/h
1650 02-07-2017 18:50:00 18.1 C 13.6 g/m*3 18.1 C 3.2 km/h
Sensor: Nr:Datum:Temp:Abs-Feuchte:Windchill:Wind:
Aussen-T/F 1651 02-07-2017 18:55:00 18.1 C 13.6 g/m*3 18.1 C 1.6 km/h
1652 02-07-2017 19:00:00 18.1 C 13.6 g/m*3 18.1 C 1.6 km/h
1653 02-07-2017 19:05:00 18.2 C 13.68 g/m*3 18.2 C 1.6 km/h
1654 02-07-2017 19:10:00 18 C 13.21 g/m*3 18 C 6.4 km/h
1655 02-07-2017 19:15:00 17.9 C 13.28 g/m*3 17.9 C 3.2 km/h
1656 02-07-2017 19:20:00 17.8 C 13.2 g/m*3 17.8 C 0 km/h
1657 02-07-2017 19:25:00 17.7 C 13.13 g/m*3 17.7 C 1.6 km/h
1658 02-07-2017 19:30:00 17.6 C 13.2 g/m*3 17.6 C 9.7 km/h
1659 02-07-2017 19:35:00 17.4 C 13.19 g/m*3 17.4 C 4.8 km/h
1660 02-07-2017 19:40:00 17.2 C 13.03 g/m*3 17.2 C 6.4 km/h
1661 02-07-2017 19:45:00 17.2 C 13.18 g/m*3 17.2 C 1.6 km/h
1662 02-07-2017 19:50:00 17.2 C 13.33 g/m*3 17.2 C 0 km/h
1663 02-07-2017 19:55:00 17.1 C 13.25 g/m*3 17.1 C 3.2 km/h
1664 02-07-2017 20:00:00 17.1 C 13.25 g/m*3 17.1 C 3.2 km/h
1665 02-07-2017 20:05:00 17 C 13.17 g/m*3 17 C 8.1 km/h
1666 02-07-2017 20:10:00 16.9 C 13.09 g/m*3 16.9 C 1.6 km/h
1667 02-07-2017 20:15:00 16.9 C 13.09 g/m*3 16.9 C 6.4 km/h
1668 02-07-2017 20:20:00 17 C 13.31 g/m*3 17 C 0 km/h
1669 02-07-2017 20:25:00 16.9 C 13.09 g/m*3 16.9 C 1.6 km/h
1670 02-07-2017 20:30:00 16.9 C 13.23 g/m*3 16.9 C 3.2 km/h
1671 02-07-2017 20:35:00 16.9 C 13.23 g/m*3 16.9 C 1.6 km/h
1672 02-07-2017 20:40:00 16.8 C 13.15 g/m*3 16.8 C 3.2 km/h
1673 02-07-2017 20:45:00 16.9 C 13.23 g/m*3 16.9 C 4.8 km/h
1674 02-07-2017 20:50:00 17 C 13.31 g/m*3 17 C 0 km/h
1675 02-07-2017 20:55:00 17.1 C 13.25 g/m*3 17.1 C 3.2 km/h
Sensor: Nr:Datum:Temp:Abs-Feuchte:Windchill:Wind:
Aussen-T/F 1676 02-07-2017 21:00:00 17 C 13.02 g/m*3 17 C 6.4 km/h
1677 02-07-2017 21:05:00 17 C 13.17 g/m*3 17 C 0 km/h
1678 02-07-2017 21:10:00 16.9 C 12.94 g/m*3 16.9 C 3.2 km/h
1679 02-07-2017 21:15:00 16.8 C 12.87 g/m*3 16.8 C 0 km/h
1680 02-07-2017 21:20:00 16.7 C 12.93 g/m*3 16.7 C 0 km/h
1681 02-07-2017 21:25:00 16.6 C 12.86 g/m*3 16.6 C 1.6 km/h
1682 02-07-2017 21:30:00 16.6 C 12.86 g/m*3 16.6 C 0 km/h
1683 02-07-2017 21:35:00 16.4 C 12.84 g/m*3 16.4 C 1.6 km/h
1684 02-07-2017 21:40:00 16.4 C 12.84 g/m*3 16.4 C 0 km/h
1685 02-07-2017 21:45:00 16.3 C 12.76 g/m*3 16.3 C 0 km/h
1686 02-07-2017 21:50:00 16.3 C 12.76 g/m*3 16.3 C 0 km/h
1687 02-07-2017 21:55:00 16.2 C 12.82 g/m*3 16.2 C 0 km/h
1688 02-07-2017 22:00:00 16.1 C 12.75 g/m*3 16.1 C 0 km/h
1689 02-07-2017 22:05:00 16.1 C 12.75 g/m*3 16.1 C 1.6 km/h
1690 02-07-2017 22:10:00 16.1 C 12.75 g/m*3 16.1 C 1.6 km/h
1691 02-07-2017 22:15:00 16.1 C 12.75 g/m*3 16.1 C 0 km/h
1692 02-07-2017 22:20:00 16 C 12.67 g/m*3 16 C 0 km/h
1693 02-07-2017 22:25:00 15.9 C 12.59 g/m*3 15.9 C 0 km/h
1694 02-07-2017 22:30:00 15.9 C 12.59 g/m*3 15.9 C 0 km/h
1695 02-07-2017 22:35:00 15.8 C 12.52 g/m*3 15.8 C 3.2 km/h
1696 02-07-2017 22:40:00 15.8 C 12.52 g/m*3 15.8 C 1.6 km/h
1697 02-07-2017 22:45:00 15.8 C 12.52 g/m*3 15.8 C 0 km/h
1698 02-07-2017 22:50:00 15.8 C 12.52 g/m*3 15.8 C 3.2 km/h
1699 02-07-2017 22:55:00 15.8 C 12.65 g/m*3 15.8 C 6.4 km/h
1700 02-07-2017 23:00:00 15.8 C 12.52 g/m*3 15.8 C 0 km/h
Sensor: Nr:Datum:Temp:Abs-Feuchte:Windchill:Wind:
Aussen-T/F 1701 02-07-2017 23:05:00 15.7 C 12.44 g/m*3 15.7 C 4.8 km/h
1702 02-07-2017 23:10:00 15.7 C 12.58 g/m*3 15.7 C 1.6 km/h
1703 02-07-2017 23:15:00 15.7 C 12.58 g/m*3 15.7 C 0 km/h
1704 02-07-2017 23:20:00 15.7 C 12.58 g/m*3 15.7 C 1.6 km/h
1705 02-07-2017 23:25:00 15.7 C 12.58 g/m*3 15.7 C 0 km/h
1706 02-07-2017 23:30:00 15.8 C 12.65 g/m*3 15.8 C 3.2 km/h
1707 02-07-2017 23:35:00 15.8 C 12.65 g/m*3 15.8 C 1.6 km/h
1708 02-07-2017 23:40:00 15.8 C 12.65 g/m*3 15.8 C 0 km/h
1709 02-07-2017 23:45:00 15.8 C 12.65 g/m*3 15.8 C 0 km/h
1710 02-07-2017 23:50:00 15.8 C 12.65 g/m*3 15.8 C 1.6 km/h
1711 02-07-2017 23:55:00 15.8 C 12.65 g/m*3 15.8 C 0 km/h
1712 03-07-2017 00:00:00 15.8 C 12.65 g/m*3 15.8 C 0 km/h
1713 03-07-2017 00:05:00 15.7 C 12.58 g/m*3 15.7 C 0 km/h
1714 03-07-2017 00:10:00 15.5 C 12.29 g/m*3 15.5 C 0 km/h
1715 03-07-2017 00:15:00 15.3 C 12.14 g/m*3 15.3 C 0 km/h
1716 03-07-2017 00:20:00 15.2 C 12.07 g/m*3 15.2 C 0 km/h
1717 03-07-2017 00:25:00 15.1 C 12 g/m*3 15.1 C 0 km/h
1718 03-07-2017 00:30:00 15.1 C 12 g/m*3 15.1 C 0 km/h
1719 03-07-2017 00:35:00 15.1 C 12.13 g/m*3 15.1 C 0 km/h
1720 03-07-2017 00:40:00 15.1 C 12.13 g/m*3 15.1 C 0 km/h
1721 03-07-2017 00:45:00 15.1 C 12.13 g/m*3 15.1 C 0 km/h
1722 03-07-2017 00:50:00 15.1 C 12.13 g/m*3 15.1 C 0 km/h
1723 03-07-2017 00:55:00 15.2 C 12.2 g/m*3 15.2 C 0 km/h
1724 03-07-2017 01:00:00 15.1 C 12.13 g/m*3 15.1 C 0 km/h
1725 03-07-2017 01:05:00 14.9 C 11.85 g/m*3 14.9 C 0 km/h
Sensor: Nr:Datum:Temp:Abs-Feuchte:Windchill:Wind:
Aussen-T/F 1726 03-07-2017 01:10:00 14.7 C 11.71 g/m*3 14.7 C 0 km/h
1727 03-07-2017 01:15:00 14.6 C 11.64 g/m*3 14.6 C 0 km/h
1728 03-07-2017 01:20:00 14.5 C 11.57 g/m*3 14.5 C 0 km/h
1729 03-07-2017 01:25:00 14.4 C 11.5 g/m*3 14.4 C 0 km/h
1730 03-07-2017 01:30:00 14.3 C 11.3 g/m*3 14.3 C 0 km/h
1731 03-07-2017 01:35:00 14.2 C 11.23 g/m*3 14.2 C 0 km/h
1732 03-07-2017 01:40:00 14.1 C 11.17 g/m*3 14.1 C 0 km/h
1733 03-07-2017 01:45:00 13.9 C 11.03 g/m*3 13.9 C 0 km/h
1734 03-07-2017 01:50:00 13.8 C 10.96 g/m*3 13.8 C 0 km/h
1735 03-07-2017 01:55:00 13.7 C 10.89 g/m*3 13.7 C 0 km/h
1736 03-07-2017 02:00:00 13.6 C 10.83 g/m*3 13.6 C 0 km/h
1737 03-07-2017 02:05:00 13.6 C 10.83 g/m*3 13.6 C 0 km/h
1738 03-07-2017 02:10:00 13.4 C 10.69 g/m*3 13.4 C 0 km/h
1739 03-07-2017 02:15:00 13.3 C 10.63 g/m*3 13.3 C 0 km/h
1740 03-07-2017 02:20:00 13.3 C 10.63 g/m*3 13.3 C 0 km/h
1741 03-07-2017 02:25:00 13.3 C 10.63 g/m*3 13.3 C 3.2 km/h
1742 03-07-2017 02:30:00 13.3 C 10.63 g/m*3 13.3 C 0 km/h
1743 03-07-2017 02:35:00 13.2 C 10.56 g/m*3 13.2 C 0 km/h
1744 03-07-2017 02:40:00 13.2 C 10.45 g/m*3 13.2 C 0 km/h
1745 03-07-2017 02:45:00 13.1 C 10.5 g/m*3 13.1 C 0 km/h
1746 03-07-2017 02:50:00 13.1 C 10.5 g/m*3 13.1 C 0 km/h
1747 03-07-2017 02:55:00 12.9 C 10.26 g/m*3 12.9 C 0 km/h
1748 03-07-2017 03:00:00 12.9 C 10.26 g/m*3 12.9 C 0 km/h
1749 03-07-2017 03:05:00 12.8 C 10.19 g/m*3 12.8 C 0 km/h
1750 03-07-2017 03:10:00 12.7 C 10.24 g/m*3 12.7 C 0 km/h
Sensor: Nr:Datum:Temp:Abs-Feuchte:Windchill:Wind:
Aussen-T/F 1751 03-07-2017 03:15:00 12.7 C 10.24 g/m*3 12.7 C 0 km/h
1752 03-07-2017 03:20:00 12.6 C 10.07 g/m*3 12.6 C 0 km/h
1753 03-07-2017 03:25:00 12.3 C 9.99 g/m*3 12.3 C 0 km/h
1754 03-07-2017 03:30:00 12.2 C 9.93 g/m*3 12.2 C 0 km/h
1755 03-07-2017 03:35:00 12.1 C 9.87 g/m*3 12.1 C 0 km/h
1756 03-07-2017 03:40:00 11.9 C 9.74 g/m*3 11.9 C 0 km/h
1757 03-07-2017 03:45:00 11.9 C 9.74 g/m*3 11.9 C 0 km/h
1758 03-07-2017 03:50:00 11.8 C 9.79 g/m*3 11.8 C 0 km/h
1759 03-07-2017 03:55:00 11.7 C 9.73 g/m*3 11.7 C 0 km/h
1760 03-07-2017 04:00:00 11.5 C 9.61 g/m*3 11.5 C 0 km/h
1761 03-07-2017 04:05:00 11.4 C 9.55 g/m*3 11.4 C 0 km/h
1762 03-07-2017 04:10:00 11.4 C 9.55 g/m*3 11.4 C 0 km/h
1763 03-07-2017 04:15:00 11.3 C 9.49 g/m*3 11.3 C 0 km/h
1764 03-07-2017 04:20:00 11.3 C 9.59 g/m*3 11.3 C 0 km/h
1765 03-07-2017 04:25:00 11.2 C 9.53 g/m*3 11.2 C 0 km/h
1766 03-07-2017 04:30:00 11.1 C 9.37 g/m*3 11.1 C 0 km/h
1767 03-07-2017 04:35:00 11.1 C 9.47 g/m*3 11.1 C 0 km/h
1768 03-07-2017 04:40:00 11.1 C 9.47 g/m*3 11.1 C 0 km/h
1769 03-07-2017 04:45:00 11.1 C 9.47 g/m*3 11.1 C 0 km/h
1770 03-07-2017 04:50:00 11.1 C 9.47 g/m*3 11.1 C 0 km/h
1771 03-07-2017 04:55:00 11 C 9.41 g/m*3 11 C 0 km/h
1772 03-07-2017 05:00:00 11 C 9.41 g/m*3 11 C 0 km/h
1773 03-07-2017 05:05:00 10.9 C 9.35 g/m*3 10.9 C 0 km/h
1774 03-07-2017 05:10:00 11 C 9.51 g/m*3 11 C 0 km/h
1775 03-07-2017 05:15:00 11 C 9.51 g/m*3 11 C 0 km/h
Sensor: Nr:Datum:Temp:Abs-Feuchte:Windchill:Wind:
Aussen-T/F 1776 03-07-2017 05:20:00 11.1 C 9.57 g/m*3 11.1 C 0 km/h
1777 03-07-2017 05:25:00 11.1 C 9.57 g/m*3 11.1 C 0 km/h
1778 03-07-2017 05:30:00 11.1 C 9.57 g/m*3 11.1 C 0 km/h
1779 03-07-2017 05:35:00 11 C 9.51 g/m*3 11 C 0 km/h
1780 03-07-2017 05:40:00 11 C 9.51 g/m*3 11 C 0 km/h
1781 03-07-2017 05:45:00 11.1 C 9.57 g/m*3 11.1 C 0 km/h
1782 03-07-2017 05:50:00 11.1 C 9.57 g/m*3 11.1 C 0 km/h
1783 03-07-2017 05:55:00 11.1 C 9.57 g/m*3 11.1 C 0 km/h
1784 03-07-2017 06:00:00 11.2 C 9.63 g/m*3 11.2 C 0 km/h
1785 03-07-2017 06:05:00 11.2 C 9.63 g/m*3 11.2 C 0 km/h
1786 03-07-2017 06:10:00 11.3 C 9.69 g/m*3 11.3 C 0 km/h
1787 03-07-2017 06:15:00 11.3 C 9.69 g/m*3 11.3 C 0 km/h
1788 03-07-2017 06:20:00 11.4 C 9.85 g/m*3 11.4 C 0 km/h
1789 03-07-2017 06:25:00 11.6 C 9.98 g/m*3 11.6 C 0 km/h
1790 03-07-2017 06:30:00 11.6 C 9.98 g/m*3 11.6 C 1.6 km/h
1791 03-07-2017 06:35:00 11.7 C 10.04 g/m*3 11.7 C 1.6 km/h
1792 03-07-2017 06:40:00 11.8 C 10.1 g/m*3 11.8 C 0 km/h
1793 03-07-2017 06:45:00 11.8 C 10.1 g/m*3 11.8 C 0 km/h
1794 03-07-2017 06:50:00 12 C 10.23 g/m*3 12 C 0 km/h
1795 03-07-2017 06:55:00 12.1 C 10.29 g/m*3 12.1 C 3.2 km/h
1796 03-07-2017 07:00:00 12.1 C 10.29 g/m*3 12.1 C 1.6 km/h
1797 03-07-2017 07:05:00 12.1 C 10.29 g/m*3 12.1 C 3.2 km/h
1798 03-07-2017 07:10:00 12 C 10.23 g/m*3 12 C 1.6 km/h
1799 03-07-2017 07:15:00 12 C 10.23 g/m*3 12 C 3.2 km/h
1800 03-07-2017 07:20:00 12 C 10.23 g/m*3 12 C 0 km/h
Sensor: Nr:Datum:Temp:Abs-Feuchte:Windchill:Wind:
Aussen-T/F 1801 03-07-2017 07:25:00 12 C 10.23 g/m*3 12 C 0 km/h
1802 03-07-2017 07:30:00 12.2 C 10.36 g/m*3 12.2 C 1.6 km/h
1803 03-07-2017 07:35:00 12.2 C 10.36 g/m*3 12.2 C 0 km/h
1804 03-07-2017 07:40:00 12.3 C 10.42 g/m*3 12.3 C 0 km/h
1805 03-07-2017 07:45:00 12.4 C 10.49 g/m*3 12.4 C 0 km/h
1806 03-07-2017 07:50:00 12.6 C 10.62 g/m*3 12.6 C 3.2 km/h
1807 03-07-2017 07:55:00 12.6 C 10.62 g/m*3 12.6 C 3.2 km/h
1808 03-07-2017 08:00:00 12.7 C 10.69 g/m*3 12.7 C 1.6 km/h
1809 03-07-2017 08:05:00 12.7 C 10.69 g/m*3 12.7 C 1.6 km/h
1810 03-07-2017 08:10:00 12.8 C 10.75 g/m*3 12.8 C 3.2 km/h
1811 03-07-2017 08:15:00 12.9 C 10.82 g/m*3 12.9 C 3.2 km/h
1812 03-07-2017 08:20:00 12.9 C 10.82 g/m*3 12.9 C 4.8 km/h
1813 03-07-2017 08:25:00 13.1 C 10.95 g/m*3 13.1 C 3.2 km/h
1814 03-07-2017 08:30:00 13.1 C 10.95 g/m*3 13.1 C 3.2 km/h
1815 03-07-2017 08:35:00 13.1 C 10.95 g/m*3 13.1 C 4.8 km/h
1816 03-07-2017 08:40:00 13.1 C 10.95 g/m*3 13.1 C 3.2 km/h
1817 03-07-2017 08:45:00 13.1 C 10.84 g/m*3 13.1 C 3.2 km/h
1818 03-07-2017 08:50:00 13.2 C 10.91 g/m*3 13.2 C 3.2 km/h
1819 03-07-2017 08:55:00 13.2 C 10.91 g/m*3 13.2 C 1.6 km/h
1820 03-07-2017 09:00:00 13.3 C 11.09 g/m*3 13.3 C 0 km/h
1821 03-07-2017 09:05:00 13.4 C 11.04 g/m*3 13.4 C 1.6 km/h
1822 03-07-2017 09:10:00 13.4 C 11.04 g/m*3 13.4 C 0 km/h
1823 03-07-2017 09:15:00 13.5 C 11.11 g/m*3 13.5 C 0 km/h
1824 03-07-2017 09:20:00 13.6 C 11.18 g/m*3 13.6 C 0 km/h
1825 03-07-2017 09:25:00 13.7 C 11.25 g/m*3 13.7 C 0 km/h
Sensor: Nr:Datum:Temp:Abs-Feuchte:Windchill:Wind:
Aussen-T/F 1826 03-07-2017 09:30:00 13.7 C 11.25 g/m*3 13.7 C 1.6 km/h
1827 03-07-2017 09:35:00 13.7 C 11.25 g/m*3 13.7 C 4.8 km/h
1828 03-07-2017 09:40:00 13.8 C 11.32 g/m*3 13.8 C 0 km/h
1829 03-07-2017 09:45:00 13.9 C 11.27 g/m*3 13.9 C 1.6 km/h
1830 03-07-2017 09:50:00 14.1 C 11.41 g/m*3 14.1 C 0 km/h
1831 03-07-2017 09:55:00 14.3 C 11.55 g/m*3 14.3 C 0 km/h
1832 03-07-2017 10:00:00 14.4 C 11.62 g/m*3 14.4 C 0 km/h
1833 03-07-2017 10:05:00 14.7 C 11.71 g/m*3 14.7 C 3.2 km/h
1834 03-07-2017 10:10:00 14.9 C 11.73 g/m*3 14.9 C 4.8 km/h
1835 03-07-2017 10:15:00 15.2 C 11.81 g/m*3 15.2 C 6.4 km/h
1836 03-07-2017 10:20:00 15.5 C 12.03 g/m*3 15.5 C 4.8 km/h
1837 03-07-2017 10:25:00 15.9 C 11.92 g/m*3 15.9 C 9.7 km/h
1838 03-07-2017 10:30:00 16.4 C 12 g/m*3 16.4 C 11.3 km/h
1839 03-07-2017 10:35:00 16.9 C 11.94 g/m*3 16.9 C 12.9 km/h
1840 03-07-2017 10:40:00 17.3 C 11.93 g/m*3 17.3 C 12.9 km/h
1841 03-07-2017 10:45:00 17.6 C 12 g/m*3 17.6 C 9.7 km/h
1842 03-07-2017 10:50:00 17.8 C 12.14 g/m*3 17.8 C 6.4 km/h
1843 03-07-2017 10:55:00 18.1 C 11.9 g/m*3 18.1 C 3.2 km/h
1844 03-07-2017 11:00:00 18.3 C 12.04 g/m*3 18.3 C 11.3 km/h
1845 03-07-2017 11:05:00 18.3 C 11.88 g/m*3 18.3 C 8.1 km/h
1846 03-07-2017 11:10:00 18.4 C 11.95 g/m*3 18.4 C 12.9 km/h
1847 03-07-2017 11:15:00 18.5 C 12.02 g/m*3 18.5 C 11.3 km/h
1848 03-07-2017 11:20:00 18.6 C 11.94 g/m*3 18.6 C 11.3 km/h
1849 03-07-2017 11:25:00 18.7 C 11.85 g/m*3 18.7 C 8.1 km/h
1850 03-07-2017 11:30:00 18.8 C 11.92 g/m*3 18.8 C 6.4 km/h
Sensor: Nr:Datum:Temp:Abs-Feuchte:Windchill:Wind:
Aussen-T/F 1851 03-07-2017 11:35:00 18.9 C 11.99 g/m*3 18.9 C 12.9 km/h
1852 03-07-2017 11:40:00 19 C 12.22 g/m*3 19 C 8.1 km/h
1853 03-07-2017 11:45:00 19.1 C 12.29 g/m*3 19.1 C 4.8 km/h
1854 03-07-2017 11:50:00 19.3 C 11.94 g/m*3 19.3 C 9.7 km/h
1855 03-07-2017 11:55:00 19.6 C 11.99 g/m*3 19.6 C 8.1 km/h
1856 03-07-2017 12:00:00 19.8 C 11.96 g/m*3 19.8 C 16.1 km/h
1857 03-07-2017 12:05:00 19.9 C 12.03 g/m*3 19.9 C 9.7 km/h
1858 03-07-2017 12:10:00 20.1 C 11.82 g/m*3 20.1 C 8.1 km/h
1859 03-07-2017 12:15:00 20.1 C 11.3 g/m*3 20.1 C 12.9 km/h
1860 03-07-2017 12:20:00 20.2 C 11.54 g/m*3 20.2 C 9.7 km/h
1861 03-07-2017 12:25:00 20.2 C 11.54 g/m*3 20.2 C 16.1 km/h
1862 03-07-2017 12:30:00 20.3 C 11.61 g/m*3 20.3 C 12.9 km/h
1863 03-07-2017 12:35:00 20.4 C 11.5 g/m*3 20.4 C 16.1 km/h
1864 03-07-2017 12:40:00 20.6 C 11.45 g/m*3 20.6 C 12.9 km/h
1865 03-07-2017 12:45:00 20.8 C 11.41 g/m*3 20.8 C 16.1 km/h
1866 03-07-2017 12:50:00 21.1 C 10.87 g/m*3 21.1 C 16.1 km/h
1867 03-07-2017 12:55:00 21.2 C 11.49 g/m*3 21.2 C 11.3 km/h
1868 03-07-2017 13:00:00 21.3 C 11 g/m*3 21.3 C 12.9 km/h
1869 03-07-2017 13:05:00 21.5 C 11.13 g/m*3 21.5 C 17.7 km/h
1870 03-07-2017 13:10:00 21.7 C 11.25 g/m*3 21.7 C 19.3 km/h
1871 03-07-2017 13:15:00 21.8 C 10.74 g/m*3 21.8 C 16.1 km/h
1872 03-07-2017 13:20:00 21.7 C 10.87 g/m*3 21.7 C 14.5 km/h
1873 03-07-2017 13:25:00 21.5 C 10.56 g/m*3 21.5 C 12.9 km/h
1874 03-07-2017 13:30:00 21.3 C 11 g/m*3 21.3 C 9.7 km/h
1875 03-07-2017 13:35:00 21.3 C 10.62 g/m*3 21.3 C 14.5 km/h
Sensor: Nr:Datum:Temp:Abs-Feuchte:Windchill:Wind:
Aussen-T/F 1876 03-07-2017 13:40:00 21.3 C 10.81 g/m*3 21.3 C 16.1 km/h
1877 03-07-2017 13:45:00 21.4 C 10.12 g/m*3 21.4 C 14.5 km/h
1878 03-07-2017 13:50:00 21.7 C 9.73 g/m*3 21.7 C 16.1 km/h
1879 03-07-2017 13:55:00 21.9 C 9.84 g/m*3 21.9 C 12.9 km/h
1880 03-07-2017 14:00:00 22.2 C 9.82 g/m*3 22.2 C 24.1 km/h
1881 03-07-2017 14:05:00 22.6 C 9.44 g/m*3 22.6 C 12.9 km/h
1882 03-07-2017 14:10:00 22.7 C 9.9 g/m*3 22.7 C 16.1 km/h
1883 03-07-2017 14:15:00 22.8 C 10.57 g/m*3 22.8 C 16.1 km/h
1884 03-07-2017 14:20:00 23.1 C 10.96 g/m*3 23.1 C 11.3 km/h
1885 03-07-2017 14:25:00 23.2 C 9.77 g/m*3 23.2 C 12.9 km/h
1886 03-07-2017 14:30:00 23.2 C 9.98 g/m*3 23.2 C 11.3 km/h
1887 03-07-2017 14:35:00 23.4 C 10.09 g/m*3 23.4 C 19.3 km/h
1888 03-07-2017 14:40:00 23.6 C 10.42 g/m*3 23.6 C 14.5 km/h
1889 03-07-2017 14:45:00 23.8 C 10.11 g/m*3 23.8 C 16.1 km/h
1890 03-07-2017 14:50:00 23.9 C 10.17 g/m*3 23.9 C 11.3 km/h
1891 03-07-2017 14:55:00 24 C 10.01 g/m*3 24 C 16.1 km/h
1892 03-07-2017 15:00:00 23.9 C 9.52 g/m*3 23.9 C 11.3 km/h
1893 03-07-2017 15:05:00 23.9 C 9.95 g/m*3 23.9 C 16.1 km/h
1894 03-07-2017 15:10:00 23.9 C 10.38 g/m*3 23.9 C 8.1 km/h
1895 03-07-2017 15:15:00 23.8 C 10.33 g/m*3 23.8 C 11.3 km/h
1896 03-07-2017 15:20:00 24 C 10.23 g/m*3 24 C 11.3 km/h
1897 03-07-2017 15:25:00 24.6 C 10.58 g/m*3 24.6 C 11.3 km/h
1898 03-07-2017 15:30:00 25.1 C 10.65 g/m*3 25.1 C 17.7 km/h
1899 03-07-2017 15:35:00 25.3 C 10.3 g/m*3 25.3 C 12.9 km/h
1900 03-07-2017 15:40:00 25.1 C 11.11 g/m*3 25.1 C 3.2 km/h
Sensor: Nr:Datum:Temp:Abs-Feuchte:Windchill:Wind:
Aussen-T/F 1901 03-07-2017 15:45:00 24.9 C 10.76 g/m*3 24.9 C 9.7 km/h
1902 03-07-2017 15:50:00 25.3 C 11 g/m*3 25.3 C 17.7 km/h
1903 03-07-2017 15:55:00 25.2 C 10.48 g/m*3 25.2 C 8.1 km/h
1904 03-07-2017 16:00:00 24.8 C 10.24 g/m*3 24.8 C 6.4 km/h
1905 03-07-2017 16:05:00 24.4 C 10.68 g/m*3 24.4 C 9.7 km/h
1906 03-07-2017 16:10:00 24.3 C 10.18 g/m*3 24.3 C 6.4 km/h
1907 03-07-2017 16:15:00 24.7 C 11.09 g/m*3 24.7 C 9.7 km/h
1908 03-07-2017 16:20:00 25.4 C 11.06 g/m*3 25.4 C 14.5 km/h
1909 03-07-2017 16:25:00 25.8 C 10.59 g/m*3 25.8 C 11.3 km/h
1910 03-07-2017 16:30:00 25.8 C 10.83 g/m*3 25.8 C 12.9 km/h
1911 03-07-2017 16:35:00 26.2 C 10.83 g/m*3 26.2 C 12.9 km/h
1912 03-07-2017 16:40:00 26.8 C 10.69 g/m*3 26.8 C 11.3 km/h
1913 03-07-2017 16:45:00 26.7 C 10.12 g/m*3 26.7 C 9.7 km/h
1914 03-07-2017 16:50:00 26.6 C 11.08 g/m*3 26.6 C 9.7 km/h
1915 03-07-2017 16:55:00 26.2 C 9.85 g/m*3 26.2 C 11.3 km/h
1916 03-07-2017 17:00:00 26 C 9.49 g/m*3 26 C 12.9 km/h
1917 03-07-2017 17:05:00 26 C 9.98 g/m*3 26 C 11.3 km/h
1918 03-07-2017 17:10:00 26.2 C 10.09 g/m*3 26.2 C 12.9 km/h
1919 03-07-2017 17:15:00 26.2 C 9.35 g/m*3 26.2 C 17.7 km/h
1920 03-07-2017 17:20:00 26 C 9.25 g/m*3 26 C 12.9 km/h
1921 03-07-2017 17:25:00 25.7 C 9.82 g/m*3 25.7 C 14.5 km/h
1922 03-07-2017 17:30:00 25.3 C 10.3 g/m*3 25.3 C 14.5 km/h
1923 03-07-2017 17:35:00 25.1 C 10.19 g/m*3 25.1 C 12.9 km/h
1924 03-07-2017 17:40:00 24.8 C 10.02 g/m*3 24.8 C 8.1 km/h
1925 03-07-2017 17:45:00 24.6 C 9.9 g/m*3 24.6 C 12.9 km/h
Sensor: Nr:Datum:Temp:Abs-Feuchte:Windchill:Wind:
Aussen-T/F 1926 03-07-2017 17:50:00 24.4 C 10.46 g/m*3 24.4 C 6.4 km/h
1927 03-07-2017 17:55:00 24.2 C 10.34 g/m*3 24.2 C 12.9 km/h
1928 03-07-2017 18:00:00 23.9 C 9.74 g/m*3 23.9 C 20.9 km/h
1929 03-07-2017 18:05:00 23.8 C 9.46 g/m*3 23.8 C 14.5 km/h
1930 03-07-2017 18:10:00 23.8 C 10.54 g/m*3 23.8 C 11.3 km/h
1931 03-07-2017 18:15:00 23.9 C 9.74 g/m*3 23.9 C 16.1 km/h
1932 03-07-2017 18:20:00 23.8 C 9.68 g/m*3 23.8 C 12.9 km/h
1933 03-07-2017 18:25:00 23.7 C 10.05 g/m*3 23.7 C 6.4 km/h
1934 03-07-2017 18:30:00 23.4 C 10.09 g/m*3 23.4 C 14.5 km/h
1935 03-07-2017 18:35:00 23.3 C 10.45 g/m*3 23.3 C 6.4 km/h
1936 03-07-2017 18:40:00 23.2 C 10.6 g/m*3 23.2 C 8.1 km/h
1937 03-07-2017 18:45:00 23 C 10.28 g/m*3 23 C 4.8 km/h
1938 03-07-2017 18:50:00 22.9 C 9.4 g/m*3 22.9 C 16.1 km/h
1939 03-07-2017 18:55:00 23.5 C 9.73 g/m*3 23.5 C 16.1 km/h
1940 03-07-2017 19:00:00 24 C 9.57 g/m*3 24 C 8.1 km/h
1941 03-07-2017 19:05:00 24 C 9.57 g/m*3 24 C 14.5 km/h
1942 03-07-2017 19:10:00 23.8 C 9.68 g/m*3 23.8 C 16.1 km/h
1943 03-07-2017 19:15:00 23.5 C 9.52 g/m*3 23.5 C 14.5 km/h
1944 03-07-2017 19:20:00 23.6 C 9.78 g/m*3 23.6 C 11.3 km/h
1945 03-07-2017 19:25:00 23.7 C 9.84 g/m*3 23.7 C 12.9 km/h
1946 03-07-2017 19:30:00 23.7 C 9.84 g/m*3 23.7 C 9.7 km/h
1947 03-07-2017 19:35:00 23.8 C 10.11 g/m*3 23.8 C 11.3 km/h
1948 03-07-2017 19:40:00 23.9 C 10.17 g/m*3 23.9 C 14.5 km/h
1949 03-07-2017 19:45:00 24.1 C 10.28 g/m*3 24.1 C 9.7 km/h
1950 03-07-2017 19:50:00 24 C 9.79 g/m*3 24 C 12.9 km/h
Sensor: Nr:Datum:Temp:Abs-Feuchte:Windchill:Wind:
Aussen-T/F 1951 03-07-2017 19:55:00 23.8 C 9.46 g/m*3 23.8 C 12.9 km/h
1952 03-07-2017 20:00:00 23.8 C 9.68 g/m*3 23.8 C 12.9 km/h
1953 03-07-2017 20:05:00 23.8 C 10.11 g/m*3 23.8 C 9.7 km/h
1954 03-07-2017 20:10:00 23.8 C 9.9 g/m*3 23.8 C 9.7 km/h
1955 03-07-2017 20:15:00 23.8 C 9.46 g/m*3 23.8 C 11.3 km/h
1956 03-07-2017 20:20:00 23.7 C 10.05 g/m*3 23.7 C 11.3 km/h
1957 03-07-2017 20:25:00 23.4 C 9.67 g/m*3 23.4 C 9.7 km/h
1958 03-07-2017 20:30:00 23.1 C 9.92 g/m*3 23.1 C 11.3 km/h
1959 03-07-2017 20:35:00 22.9 C 11.04 g/m*3 22.9 C 6.4 km/h
1960 03-07-2017 20:40:00 22.9 C 11.04 g/m*3 22.9 C 3.2 km/h
1961 03-07-2017 20:45:00 22.8 C 10.57 g/m*3 22.8 C 6.4 km/h
1962 03-07-2017 20:50:00 22.6 C 10.25 g/m*3 22.6 C 8.1 km/h
1963 03-07-2017 20:55:00 22.4 C 10.33 g/m*3 22.4 C 8.1 km/h
1964 03-07-2017 21:00:00 22.2 C 10.21 g/m*3 22.2 C 3.2 km/h
1965 03-07-2017 21:05:00 22 C 10.29 g/m*3 22 C 4.8 km/h
1966 03-07-2017 21:10:00 21.8 C 10.36 g/m*3 21.8 C 3.2 km/h
1967 03-07-2017 21:15:00 21.6 C 10.62 g/m*3 21.6 C 3.2 km/h
1968 03-07-2017 21:20:00 21.3 C 10.81 g/m*3 21.3 C 1.6 km/h
1969 03-07-2017 21:25:00 21.2 C 10.75 g/m*3 21.2 C 0 km/h
1970 03-07-2017 21:30:00 20.9 C 11.11 g/m*3 20.9 C 0 km/h
1971 03-07-2017 21:35:00 20.7 C 11.16 g/m*3 20.7 C 0 km/h
1972 03-07-2017 21:40:00 20.4 C 11.14 g/m*3 20.4 C 0 km/h
1973 03-07-2017 21:45:00 20.2 C 11.02 g/m*3 20.2 C 0 km/h
1974 03-07-2017 21:50:00 19.9 C 11 g/m*3 19.9 C 0 km/h
1975 03-07-2017 21:55:00 19.6 C 10.97 g/m*3 19.6 C 0 km/h
Sensor: Nr:Datum:Temp:Abs-Feuchte:Windchill:Wind:
Aussen-T/F 1976 03-07-2017 22:00:00 19.3 C 10.78 g/m*3 19.3 C 0 km/h
1977 03-07-2017 22:05:00 19 C 10.76 g/m*3 19 C 0 km/h
1978 03-07-2017 22:10:00 18.7 C 10.57 g/m*3 18.7 C 0 km/h
1979 03-07-2017 22:15:00 18.5 C 10.6 g/m*3 18.5 C 0 km/h
1980 03-07-2017 22:20:00 18.3 C 10.63 g/m*3 18.3 C 0 km/h
1981 03-07-2017 22:25:00 18.1 C 10.66 g/m*3 18.1 C 0 km/h
1982 03-07-2017 22:30:00 17.9 C 10.54 g/m*3 17.9 C 0 km/h
1983 03-07-2017 22:35:00 17.8 C 10.62 g/m*3 17.8 C 0 km/h
1984 03-07-2017 22:40:00 17.7 C 10.71 g/m*3 17.7 C 0 km/h
1985 03-07-2017 22:45:00 17.7 C 10.86 g/m*3 17.7 C 0 km/h
1986 03-07-2017 22:50:00 17.6 C 10.8 g/m*3 17.6 C 0 km/h
1987 03-07-2017 22:55:00 17.5 C 10.73 g/m*3 17.5 C 0 km/h
1988 03-07-2017 23:00:00 17.4 C 10.82 g/m*3 17.4 C 0 km/h
1989 03-07-2017 23:05:00 17.3 C 10.9 g/m*3 17.3 C 0 km/h
1990 03-07-2017 23:10:00 17.3 C 10.9 g/m*3 17.3 C 0 km/h
1991 03-07-2017 23:15:00 17.2 C 10.98 g/m*3 17.2 C 0 km/h
1992 03-07-2017 23:20:00 17.2 C 11.13 g/m*3 17.2 C 0 km/h
1993 03-07-2017 23:25:00 17.2 C 11.13 g/m*3 17.2 C 0 km/h
1994 03-07-2017 23:30:00 17.1 C 11.06 g/m*3 17.1 C 0 km/h
1995 03-07-2017 23:35:00 17.1 C 11.06 g/m*3 17.1 C 0 km/h
1996 03-07-2017 23:40:00 17.1 C 11.06 g/m*3 17.1 C 0 km/h
1997 03-07-2017 23:45:00 17.1 C 11.21 g/m*3 17.1 C 0 km/h
1998 03-07-2017 23:50:00 17 C 11.14 g/m*3 17 C 0 km/h
1999 03-07-2017 23:55:00 17 C 11.14 g/m*3 17 C 0 km/h
2000 04-07-2017 00:00:00 16.9 C 11.22 g/m*3 16.9 C 0 km/h
Sensor: Nr:Datum:Temp:Abs-Feuchte:Windchill:Wind:
Aussen-T/F 2001 04-07-2017 00:05:00 16.9 C 11.22 g/m*3 16.9 C 0 km/h
2002 04-07-2017 00:10:00 16.9 C 11.22 g/m*3 16.9 C 0 km/h
2003 04-07-2017 00:15:00 16.8 C 11.15 g/m*3 16.8 C 0 km/h
2004 04-07-2017 00:20:00 16.8 C 11.29 g/m*3 16.8 C 0 km/h
2005 04-07-2017 00:25:00 16.8 C 11.29 g/m*3 16.8 C 0 km/h
2006 04-07-2017 00:30:00 16.8 C 11.44 g/m*3 16.8 C 0 km/h
2007 04-07-2017 00:35:00 16.7 C 11.37 g/m*3 16.7 C 0 km/h
2008 04-07-2017 00:40:00 16.7 C 11.37 g/m*3 16.7 C 1.6 km/h
2009 04-07-2017 00:45:00 16.7 C 11.37 g/m*3 16.7 C 1.6 km/h
2010 04-07-2017 00:50:00 16.7 C 11.23 g/m*3 16.7 C 4.8 km/h
2011 04-07-2017 00:55:00 16.7 C 10.94 g/m*3 16.7 C 6.4 km/h
2012 04-07-2017 01:00:00 16.7 C 10.8 g/m*3 16.7 C 8.1 km/h
2013 04-07-2017 01:05:00 16.8 C 10.87 g/m*3 16.8 C 6.4 km/h
2014 04-07-2017 01:10:00 16.9 C 10.93 g/m*3 16.9 C 0 km/h
2015 04-07-2017 01:15:00 16.9 C 10.64 g/m*3 16.9 C 8.1 km/h
2016 04-07-2017 01:20:00 16.9 C 10.5 g/m*3 16.9 C 0 km/h
2017 04-07-2017 01:25:00 17.1 C 10.92 g/m*3 17.1 C 0 km/h
2018 04-07-2017 01:30:00 17.1 C 10.92 g/m*3 17.1 C 0 km/h
2019 04-07-2017 01:35:00 17 C 11.14 g/m*3 17 C 0 km/h
2020 04-07-2017 01:40:00 16.8 C 10.87 g/m*3 16.8 C 4.8 km/h
2021 04-07-2017 01:45:00 16.7 C 10.94 g/m*3 16.7 C 3.2 km/h
2022 04-07-2017 01:50:00 16.4 C 10.75 g/m*3 16.4 C 0 km/h
2023 04-07-2017 01:55:00 16.3 C 10.68 g/m*3 16.3 C 0 km/h
2024 04-07-2017 02:00:00 16.1 C 10.69 g/m*3 16.1 C 0 km/h
2025 04-07-2017 02:05:00 15.9 C 10.56 g/m*3 15.9 C 0 km/h
Sensor: Nr:Datum:Temp:Abs-Feuchte:Windchill:Wind:
Aussen-T/F 2026 04-07-2017 02:10:00 15.8 C 10.63 g/m*3 15.8 C 0 km/h
2027 04-07-2017 02:15:00 15.7 C 10.57 g/m*3 15.7 C 1.6 km/h
2028 04-07-2017 02:20:00 15.6 C 10.64 g/m*3 15.6 C 0 km/h
2029 04-07-2017 02:25:00 15.4 C 10.64 g/m*3 15.4 C 1.6 km/h
2030 04-07-2017 02:30:00 15.3 C 10.58 g/m*3 15.3 C 0 km/h
2031 04-07-2017 02:35:00 15.3 C 10.71 g/m*3 15.3 C 0 km/h
2032 04-07-2017 02:40:00 15.2 C 10.64 g/m*3 15.2 C 0 km/h
2033 04-07-2017 02:45:00 15.2 C 10.64 g/m*3 15.2 C 0 km/h
2034 04-07-2017 02:50:00 15.2 C 10.64 g/m*3 15.2 C 0 km/h
2035 04-07-2017 02:55:00 15.1 C 10.71 g/m*3 15.1 C 0 km/h
2036 04-07-2017 03:00:00 15.1 C 10.71 g/m*3 15.1 C 0 km/h
2037 04-07-2017 03:05:00 15 C 10.64 g/m*3 15 C 0 km/h
2038 04-07-2017 03:10:00 14.9 C 10.58 g/m*3 14.9 C 0 km/h
2039 04-07-2017 03:15:00 14.8 C 10.51 g/m*3 14.8 C 0 km/h
2040 04-07-2017 03:20:00 14.8 C 10.51 g/m*3 14.8 C 0 km/h
2041 04-07-2017 03:25:00 14.7 C 10.58 g/m*3 14.7 C 0 km/h
2042 04-07-2017 03:30:00 14.6 C 10.51 g/m*3 14.6 C 0 km/h
2043 04-07-2017 03:35:00 14.6 C 10.64 g/m*3 14.6 C 0 km/h
2044 04-07-2017 03:40:00 14.4 C 10.51 g/m*3 14.4 C 0 km/h
2045 04-07-2017 03:45:00 14.3 C 10.57 g/m*3 14.3 C 0 km/h
2046 04-07-2017 03:50:00 14.3 C 10.57 g/m*3 14.3 C 0 km/h
2047 04-07-2017 03:55:00 14.2 C 10.5 g/m*3 14.2 C 0 km/h
2048 04-07-2017 04:00:00 14.2 C 10.62 g/m*3 14.2 C 0 km/h
2049 04-07-2017 04:05:00 14.2 C 10.62 g/m*3 14.2 C 0 km/h
2050 04-07-2017 04:10:00 14.1 C 10.56 g/m*3 14.1 C 0 km/h
Sensor: Nr:Datum:Temp:Abs-Feuchte:Windchill:Wind:
Aussen-T/F 2051 04-07-2017 04:15:00 14 C 10.49 g/m*3 14 C 0 km/h
2052 04-07-2017 04:20:00 13.9 C 10.43 g/m*3 13.9 C 0 km/h
2053 04-07-2017 04:25:00 13.8 C 10.37 g/m*3 13.8 C 0 km/h
2054 04-07-2017 04:30:00 13.7 C 10.42 g/m*3 13.7 C 0 km/h
2055 04-07-2017 04:35:00 13.6 C 10.36 g/m*3 13.6 C 0 km/h
2056 04-07-2017 04:40:00 13.6 C 10.36 g/m*3 13.6 C 0 km/h
2057 04-07-2017 04:45:00 13.5 C 10.29 g/m*3 13.5 C 0 km/h
2058 04-07-2017 04:50:00 13.4 C 10.35 g/m*3 13.4 C 0 km/h
2059 04-07-2017 04:55:00 13.3 C 10.28 g/m*3 13.3 C 0 km/h
2060 04-07-2017 05:00:00 13.3 C 10.28 g/m*3 13.3 C 0 km/h
2061 04-07-2017 05:05:00 13.2 C 10.22 g/m*3 13.2 C 0 km/h
2062 04-07-2017 05:10:00 13.1 C 10.16 g/m*3 13.1 C 0 km/h
2063 04-07-2017 05:15:00 13.1 C 10.27 g/m*3 13.1 C 0 km/h
2064 04-07-2017 05:20:00 13.1 C 10.27 g/m*3 13.1 C 0 km/h
2065 04-07-2017 05:25:00 13 C 10.21 g/m*3 13 C 0 km/h
2066 04-07-2017 05:30:00 12.9 C 10.14 g/m*3 12.9 C 0 km/h
2067 04-07-2017 05:35:00 12.9 C 10.14 g/m*3 12.9 C 0 km/h
2068 04-07-2017 05:40:00 12.8 C 10.08 g/m*3 12.8 C 0 km/h
2069 04-07-2017 05:45:00 12.8 C 10.19 g/m*3 12.8 C 0 km/h
2070 04-07-2017 05:50:00 12.8 C 10.19 g/m*3 12.8 C 0 km/h
2071 04-07-2017 05:55:00 12.8 C 10.19 g/m*3 12.8 C 0 km/h
2072 04-07-2017 06:00:00 12.7 C 10.13 g/m*3 12.7 C 0 km/h
2073 04-07-2017 06:05:00 12.7 C 10.13 g/m*3 12.7 C 3.2 km/h
2074 04-07-2017 06:10:00 12.8 C 10.19 g/m*3 12.8 C 0 km/h
2075 04-07-2017 06:15:00 12.7 C 10.24 g/m*3 12.7 C 0 km/h
Sensor: Nr:Datum:Temp:Abs-Feuchte:Windchill:Wind:
Aussen-T/F 2076 04-07-2017 06:20:00 12.7 C 10.24 g/m*3 12.7 C 0 km/h
2077 04-07-2017 06:25:00 12.7 C 10.24 g/m*3 12.7 C 0 km/h
2078 04-07-2017 06:30:00 12.8 C 10.3 g/m*3 12.8 C 0 km/h
2079 04-07-2017 06:35:00 12.8 C 10.3 g/m*3 12.8 C 6.4 km/h
2080 04-07-2017 06:40:00 12.9 C 10.37 g/m*3 12.9 C 0 km/h
2081 04-07-2017 06:45:00 12.9 C 10.37 g/m*3 12.9 C 3.2 km/h
2082 04-07-2017 06:50:00 13 C 10.43 g/m*3 13 C 0 km/h
2083 04-07-2017 06:55:00 13 C 10.43 g/m*3 13 C 0 km/h
2084 04-07-2017 07:00:00 13 C 10.43 g/m*3 13 C 0 km/h
2085 04-07-2017 07:05:00 13.1 C 10.5 g/m*3 13.1 C 0 km/h
2086 04-07-2017 07:10:00 13.1 C 10.5 g/m*3 13.1 C 0 km/h
2087 04-07-2017 07:15:00 13.1 C 10.5 g/m*3 13.1 C 0 km/h
2088 04-07-2017 07:20:00 13.2 C 10.56 g/m*3 13.2 C 0 km/h
2089 04-07-2017 07:25:00 13.3 C 10.63 g/m*3 13.3 C 1.6 km/h
2090 04-07-2017 07:30:00 13.4 C 10.69 g/m*3 13.4 C 0 km/h
2091 04-07-2017 07:35:00 13.5 C 10.76 g/m*3 13.5 C 3.2 km/h
2092 04-07-2017 07:40:00 13.6 C 10.95 g/m*3 13.6 C 0 km/h
2093 04-07-2017 07:45:00 13.8 C 11.08 g/m*3 13.8 C 0 km/h
2094 04-07-2017 07:50:00 14.1 C 11.29 g/m*3 14.1 C 3.2 km/h
2095 04-07-2017 07:55:00 14.4 C 11.25 g/m*3 14.4 C 4.8 km/h
2096 04-07-2017 08:00:00 14.8 C 11.53 g/m*3 14.8 C 4.8 km/h
2097 04-07-2017 08:05:00 15.2 C 11.42 g/m*3 15.2 C 4.8 km/h
2098 04-07-2017 08:10:00 15.6 C 11.44 g/m*3 15.6 C 4.8 km/h
2099 04-07-2017 08:15:00 15.9 C 11.51 g/m*3 15.9 C 6.4 km/h
2100 04-07-2017 08:20:00 16.2 C 11.58 g/m*3 16.2 C 6.4 km/h
Sensor: Nr:Datum:Temp:Abs-Feuchte:Windchill:Wind:
Aussen-T/F 2101 04-07-2017 08:25:00 16.4 C 11.45 g/m*3 16.4 C 4.8 km/h
2102 04-07-2017 08:30:00 16.6 C 11.44 g/m*3 16.6 C 6.4 km/h
2103 04-07-2017 08:35:00 16.8 C 11.72 g/m*3 16.8 C 3.2 km/h
2104 04-07-2017 08:40:00 16.8 C 11.58 g/m*3 16.8 C 3.2 km/h
2105 04-07-2017 08:45:00 16.9 C 11.65 g/m*3 16.9 C 3.2 km/h
2106 04-07-2017 08:50:00 17.1 C 11.79 g/m*3 17.1 C 4.8 km/h
2107 04-07-2017 08:55:00 17.2 C 11.86 g/m*3 17.2 C 4.8 km/h
2108 04-07-2017 09:00:00 17.3 C 11.49 g/m*3 17.3 C 4.8 km/h
2109 04-07-2017 09:05:00 17.4 C 11.56 g/m*3 17.4 C 4.8 km/h
2110 04-07-2017 09:10:00 17.6 C 11.7 g/m*3 17.6 C 6.4 km/h
2111 04-07-2017 09:15:00 17.7 C 11.62 g/m*3 17.7 C 3.2 km/h
2112 04-07-2017 09:20:00 17.8 C 11.84 g/m*3 17.8 C 3.2 km/h
2113 04-07-2017 09:25:00 17.8 C 11.84 g/m*3 17.8 C 1.6 km/h
2114 04-07-2017 09:30:00 17.9 C 11.91 g/m*3 17.9 C 3.2 km/h
2115 04-07-2017 09:35:00 17.9 C 11.76 g/m*3 17.9 C 1.6 km/h
2116 04-07-2017 09:40:00 18 C 11.98 g/m*3 18 C 3.2 km/h
2117 04-07-2017 09:45:00 17.9 C 11.76 g/m*3 17.9 C 4.8 km/h
2118 04-07-2017 09:50:00 17.9 C 11.76 g/m*3 17.9 C 4.8 km/h
2119 04-07-2017 09:55:00 17.9 C 11.6 g/m*3 17.9 C 3.2 km/h
2120 04-07-2017 10:00:00 17.9 C 11.76 g/m*3 17.9 C 1.6 km/h
2121 04-07-2017 10:05:00 18.1 C 11.74 g/m*3 18.1 C 4.8 km/h
2122 04-07-2017 10:10:00 18.1 C 11.74 g/m*3 18.1 C 4.8 km/h
2123 04-07-2017 10:15:00 18.3 C 11.88 g/m*3 18.3 C 4.8 km/h
2124 04-07-2017 10:20:00 18.6 C 11.94 g/m*3 18.6 C 4.8 km/h
2125 04-07-2017 10:25:00 18.8 C 11.6 g/m*3 18.8 C 3.2 km/h
Sensor: Nr:Datum:Temp:Abs-Feuchte:Windchill:Wind:
Aussen-T/F 2126 04-07-2017 10:30:00 19.2 C 11.87 g/m*3 19.2 C 8.1 km/h
2127 04-07-2017 10:35:00 19.6 C 11.82 g/m*3 19.6 C 4.8 km/h
2128 04-07-2017 10:40:00 20 C 11.75 g/m*3 20 C 6.4 km/h
2129 04-07-2017 10:45:00 20.2 C 12.06 g/m*3 20.2 C 4.8 km/h
2130 04-07-2017 10:50:00 20.4 C 12.03 g/m*3 20.4 C 4.8 km/h
2131 04-07-2017 10:55:00 20.7 C 12.06 g/m*3 20.7 C 4.8 km/h
2132 04-07-2017 11:00:00 20.7 C 11.7 g/m*3 20.7 C 6.4 km/h
2133 04-07-2017 11:05:00 20.6 C 11.99 g/m*3 20.6 C 6.4 km/h
2134 04-07-2017 11:10:00 20.5 C 12.1 g/m*3 20.5 C 8.1 km/h
2135 04-07-2017 11:15:00 20.5 C 11.92 g/m*3 20.5 C 8.1 km/h
2136 04-07-2017 11:20:00 20.6 C 11.99 g/m*3 20.6 C 8.1 km/h
2137 04-07-2017 11:25:00 20.7 C 11.88 g/m*3 20.7 C 4.8 km/h
2138 04-07-2017 11:30:00 20.8 C 11.77 g/m*3 20.8 C 9.7 km/h
2139 04-07-2017 11:35:00 20.8 C 11.59 g/m*3 20.8 C 3.2 km/h
2140 04-07-2017 11:40:00 21 C 12.09 g/m*3 21 C 4.8 km/h
2141 04-07-2017 11:45:00 21.2 C 11.86 g/m*3 21.2 C 8.1 km/h
2142 04-07-2017 11:50:00 21.2 C 11.49 g/m*3 21.2 C 8.1 km/h
2143 04-07-2017 11:55:00 21.3 C 11.56 g/m*3 21.3 C 6.4 km/h
2144 04-07-2017 12:00:00 21.3 C 11.56 g/m*3 21.3 C 9.7 km/h
2145 04-07-2017 12:05:00 21.3 C 11.37 g/m*3 21.3 C 6.4 km/h
2146 04-07-2017 12:10:00 21.3 C 11.56 g/m*3 21.3 C 6.4 km/h
2147 04-07-2017 12:15:00 21.4 C 11.44 g/m*3 21.4 C 8.1 km/h
2148 04-07-2017 12:20:00 21.5 C 11.5 g/m*3 21.5 C 6.4 km/h
2149 04-07-2017 12:25:00 21.7 C 12.4 g/m*3 21.7 C 4.8 km/h
2150 04-07-2017 12:30:00 21.8 C 11.9 g/m*3 21.8 C 11.3 km/h
Sensor: Nr:Datum:Temp:Abs-Feuchte:Windchill:Wind:
Aussen-T/F 2151 04-07-2017 12:35:00 21.9 C 11.96 g/m*3 21.9 C 3.2 km/h
2152 04-07-2017 12:40:00 22.1 C 12.1 g/m*3 22.1 C 1.6 km/h
2153 04-07-2017 12:45:00 22.3 C 11.85 g/m*3 22.3 C 8.1 km/h
2154 04-07-2017 12:50:00 22.4 C 11.92 g/m*3 22.4 C 11.3 km/h
2155 04-07-2017 12:55:00 22.6 C 12.25 g/m*3 22.6 C 8.1 km/h
2156 04-07-2017 13:00:00 22.7 C 12.12 g/m*3 22.7 C 1.6 km/h
2157 04-07-2017 13:05:00 22.7 C 11.72 g/m*3 22.7 C 1.6 km/h
2158 04-07-2017 13:10:00 22.6 C 12.25 g/m*3 22.6 C 3.2 km/h
2159 04-07-2017 13:15:00 22.7 C 12.12 g/m*3 22.7 C 4.8 km/h
2160 04-07-2017 13:20:00 22.8 C 11.99 g/m*3 22.8 C 11.3 km/h
2161 04-07-2017 13:25:00 23 C 11.72 g/m*3 23 C 8.1 km/h
2162 04-07-2017 13:30:00 23.1 C 11.78 g/m*3 23.1 C 9.7 km/h
2163 04-07-2017 13:35:00 23.2 C 11.85 g/m*3 23.2 C 8.1 km/h
2164 04-07-2017 13:40:00 23.3 C 11.92 g/m*3 23.3 C 9.7 km/h
2165 04-07-2017 13:45:00 23.3 C 11.92 g/m*3 23.3 C 6.4 km/h
2166 04-07-2017 13:50:00 23.3 C 11.92 g/m*3 23.3 C 3.2 km/h
2167 04-07-2017 13:55:00 23.2 C 11.64 g/m*3 23.2 C 8.1 km/h
2168 04-07-2017 14:00:00 23.2 C 11.85 g/m*3 23.2 C 3.2 km/h
2169 04-07-2017 14:05:00 23.2 C 11.64 g/m*3 23.2 C 6.4 km/h
2170 04-07-2017 14:10:00 23.3 C 11.71 g/m*3 23.3 C 9.7 km/h
2171 04-07-2017 14:15:00 23.6 C 11.91 g/m*3 23.6 C 6.4 km/h
2172 04-07-2017 14:20:00 23.8 C 11.83 g/m*3 23.8 C 8.1 km/h
2173 04-07-2017 14:25:00 23.9 C 11.9 g/m*3 23.9 C 14.5 km/h
2174 04-07-2017 14:30:00 24.1 C 11.82 g/m*3 24.1 C 14.5 km/h
2175 04-07-2017 14:35:00 24.1 C 11.82 g/m*3 24.1 C 8.1 km/h
Sensor: Nr:Datum:Temp:Abs-Feuchte:Windchill:Wind:
Aussen-T/F 2176 04-07-2017 14:40:00 23.9 C 11.68 g/m*3 23.9 C 6.4 km/h
2177 04-07-2017 14:45:00 23.8 C 11.83 g/m*3 23.8 C 6.4 km/h
2178 04-07-2017 14:50:00 23.7 C 11.55 g/m*3 23.7 C 6.4 km/h
2179 04-07-2017 14:55:00 23.7 C 11.55 g/m*3 23.7 C 4.8 km/h
2180 04-07-2017 15:00:00 23.9 C 11.68 g/m*3 23.9 C 4.8 km/h
2181 04-07-2017 15:05:00 24.3 C 11.95 g/m*3 24.3 C 8.1 km/h
2182 04-07-2017 15:10:00 24.6 C 11.93 g/m*3 24.6 C 11.3 km/h
2183 04-07-2017 15:15:00 24.7 C 12 g/m*3 24.7 C 6.4 km/h
2184 04-07-2017 15:20:00 24.9 C 11.67 g/m*3 24.9 C 9.7 km/h
2185 04-07-2017 15:25:00 25.3 C 12.17 g/m*3 25.3 C 11.3 km/h
2186 04-07-2017 15:30:00 25.8 C 12.28 g/m*3 25.8 C 9.7 km/h
2187 04-07-2017 15:35:00 26.1 C 11.75 g/m*3 26.1 C 11.3 km/h
2188 04-07-2017 15:40:00 26.4 C 11.95 g/m*3 26.4 C 9.7 km/h
2189 04-07-2017 15:45:00 26.7 C 11.9 g/m*3 26.7 C 8.1 km/h
2190 04-07-2017 15:50:00 26.9 C 12.03 g/m*3 26.9 C 9.7 km/h
2191 04-07-2017 15:55:00 27.1 C 12.16 g/m*3 27.1 C 11.3 km/h
2192 04-07-2017 16:00:00 27.1 C 11.65 g/m*3 27.1 C 6.4 km/h
2193 04-07-2017 16:05:00 27.1 C 11.39 g/m*3 27.1 C 6.4 km/h
2194 04-07-2017 16:10:00 27.3 C 12.04 g/m*3 27.3 C 8.1 km/h
2195 04-07-2017 16:15:00 27.6 C 11.44 g/m*3 27.6 C 8.1 km/h
2196 04-07-2017 16:20:00 27.4 C 11.31 g/m*3 27.4 C 6.4 km/h
2197 04-07-2017 16:25:00 27.3 C 11.51 g/m*3 27.3 C 9.7 km/h
2198 04-07-2017 16:30:00 27.2 C 11.45 g/m*3 27.2 C 9.7 km/h
2199 04-07-2017 16:35:00 27.2 C 11.71 g/m*3 27.2 C 12.9 km/h
2200 04-07-2017 16:40:00 27.4 C 11.58 g/m*3 27.4 C 11.3 km/h
Sensor: Nr:Datum:Temp:Abs-Feuchte:Windchill:Wind:
Aussen-T/F 2201 04-07-2017 16:45:00 27.7 C 11.77 g/m*3 27.7 C 4.8 km/h
2202 04-07-2017 16:50:00 27.9 C 11.63 g/m*3 27.9 C 6.4 km/h
2203 04-07-2017 16:55:00 28.1 C 11.76 g/m*3 28.1 C 9.7 km/h
2204 04-07-2017 17:00:00 28 C 11.42 g/m*3 28 C 6.4 km/h
2205 04-07-2017 17:05:00 28.2 C 11.82 g/m*3 28.2 C 8.1 km/h
2206 04-07-2017 17:10:00 28.2 C 11.82 g/m*3 28.2 C 8.1 km/h
2207 04-07-2017 17:15:00 28.4 C 11.67 g/m*3 28.4 C 8.1 km/h
2208 04-07-2017 17:20:00 28.3 C 11.33 g/m*3 28.3 C 6.4 km/h
2209 04-07-2017 17:25:00 28.1 C 12.03 g/m*3 28.1 C 6.4 km/h
2210 04-07-2017 17:30:00 28.2 C 11.55 g/m*3 28.2 C 6.4 km/h
2211 04-07-2017 17:35:00 28.3 C 11.61 g/m*3 28.3 C 11.3 km/h
2212 04-07-2017 17:40:00 28.2 C 11.27 g/m*3 28.2 C 6.4 km/h
2213 04-07-2017 17:45:00 28.2 C 11.27 g/m*3 28.2 C 8.1 km/h
2214 04-07-2017 17:50:00 28.1 C 11.21 g/m*3 28.1 C 11.3 km/h
2215 04-07-2017 17:55:00 27.9 C 11.63 g/m*3 27.9 C 9.7 km/h
2216 04-07-2017 18:00:00 27.7 C 11.23 g/m*3 27.7 C 9.7 km/h
2217 04-07-2017 18:05:00 27.3 C 11.25 g/m*3 27.3 C 9.7 km/h
2218 04-07-2017 18:10:00 27.1 C 11.13 g/m*3 27.1 C 8.1 km/h
2219 04-07-2017 18:15:00 27.1 C 11.39 g/m*3 27.1 C 8.1 km/h
2220 04-07-2017 18:20:00 27.4 C 11.31 g/m*3 27.4 C 4.8 km/h
2221 04-07-2017 18:25:00 27.6 C 11.17 g/m*3 27.6 C 6.4 km/h
2222 04-07-2017 18:30:00 27.7 C 11.5 g/m*3 27.7 C 4.8 km/h
2223 04-07-2017 18:35:00 28.2 C 11.55 g/m*3 28.2 C 6.4 km/h
2224 04-07-2017 18:40:00 28.3 C 11.33 g/m*3 28.3 C 4.8 km/h
2225 04-07-2017 18:45:00 27.8 C 11.03 g/m*3 27.8 C 6.4 km/h
Sensor: Nr:Datum:Temp:Abs-Feuchte:Windchill:Wind:
Aussen-T/F 2226 04-07-2017 18:50:00 27.4 C 11.31 g/m*3 27.4 C 8.1 km/h
2227 04-07-2017 18:55:00 27.4 C 11.05 g/m*3 27.4 C 4.8 km/h
2228 04-07-2017 19:00:00 27.6 C 11.17 g/m*3 27.6 C 4.8 km/h
2229 04-07-2017 19:05:00 27.8 C 11.57 g/m*3 27.8 C 1.6 km/h
2230 04-07-2017 19:10:00 28.1 C 11.48 g/m*3 28.1 C 6.4 km/h
2231 04-07-2017 19:15:00 28.2 C 11.27 g/m*3 28.2 C 3.2 km/h
2232 04-07-2017 19:20:00 28.1 C 11.21 g/m*3 28.1 C 8.1 km/h
2233 04-07-2017 19:25:00 27.6 C 11.17 g/m*3 27.6 C 9.7 km/h
2234 04-07-2017 19:30:00 27.3 C 11.25 g/m*3 27.3 C 6.4 km/h
2235 04-07-2017 19:35:00 27.2 C 11.71 g/m*3 27.2 C 3.2 km/h
2236 04-07-2017 19:40:00 27.1 C 11.39 g/m*3 27.1 C 6.4 km/h
2237 04-07-2017 19:45:00 26.8 C 11.2 g/m*3 26.8 C 8.1 km/h
2238 04-07-2017 19:50:00 26.5 C 11.51 g/m*3 26.5 C 6.4 km/h
2239 04-07-2017 19:55:00 26.3 C 11.39 g/m*3 26.3 C 3.2 km/h
2240 04-07-2017 20:00:00 26.1 C 13.46 g/m*3 26.1 C 0 km/h
2241 04-07-2017 20:05:00 25.7 C 13.65 g/m*3 25.7 C 0 km/h
2242 04-07-2017 20:10:00 25.2 C 13.5 g/m*3 25.2 C 0 km/h
2243 04-07-2017 20:15:00 24.8 C 13.43 g/m*3 24.8 C 0 km/h
2244 04-07-2017 20:20:00 24.7 C 13.58 g/m*3 24.7 C 0 km/h
2245 04-07-2017 20:25:00 24.7 C 13.35 g/m*3 24.7 C 0 km/h
2246 04-07-2017 20:30:00 24.8 C 13.43 g/m*3 24.8 C 0 km/h
2247 04-07-2017 20:35:00 24.8 C 13.88 g/m*3 24.8 C 0 km/h
2248 04-07-2017 20:40:00 24.7 C 13.58 g/m*3 24.7 C 1.6 km/h
2249 04-07-2017 20:45:00 24.6 C 13.73 g/m*3 24.6 C 0 km/h
2250 04-07-2017 20:50:00 24.4 C 13.58 g/m*3 24.4 C 0 km/h
Sensor: Nr:Datum:Temp:Abs-Feuchte:Windchill:Wind:
Aussen-T/F 2251 04-07-2017 20:55:00 24.1 C 13.35 g/m*3 24.1 C 0 km/h
2252 04-07-2017 21:00:00 23.7 C 13.26 g/m*3 23.7 C 0 km/h
2253 04-07-2017 21:05:00 23.3 C 13.17 g/m*3 23.3 C 0 km/h
2254 04-07-2017 21:10:00 22.9 C 12.88 g/m*3 22.9 C 0 km/h
2255 04-07-2017 21:15:00 22.4 C 12.71 g/m*3 22.4 C 0 km/h
2256 04-07-2017 21:20:00 22.1 C 12.88 g/m*3 22.1 C 0 km/h
2257 04-07-2017 21:25:00 21.8 C 12.66 g/m*3 21.8 C 0 km/h
2258 04-07-2017 21:30:00 21.5 C 12.63 g/m*3 21.5 C 0 km/h
2259 04-07-2017 21:35:00 21.2 C 12.6 g/m*3 21.2 C 0 km/h
2260 04-07-2017 21:40:00 20.9 C 12.38 g/m*3 20.9 C 0 km/h
2261 04-07-2017 21:45:00 20.7 C 12.42 g/m*3 20.7 C 0 km/h
2262 04-07-2017 21:50:00 20.6 C 12.35 g/m*3 20.6 C 0 km/h
2263 04-07-2017 21:55:00 20.3 C 12.14 g/m*3 20.3 C 0 km/h
2264 04-07-2017 22:00:00 20.2 C 12.24 g/m*3 20.2 C 0 km/h
2265 04-07-2017 22:05:00 20.1 C 12.17 g/m*3 20.1 C 0 km/h
2266 04-07-2017 22:10:00 19.9 C 12.2 g/m*3 19.9 C 0 km/h
2267 04-07-2017 22:15:00 19.8 C 12.13 g/m*3 19.8 C 0 km/h
2268 04-07-2017 22:20:00 19.8 C 12.13 g/m*3 19.8 C 0 km/h
2269 04-07-2017 22:25:00 19.7 C 12.23 g/m*3 19.7 C 0 km/h
2270 04-07-2017 22:30:00 19.6 C 12.15 g/m*3 19.6 C 0 km/h
2271 04-07-2017 22:35:00 19.5 C 12.25 g/m*3 19.5 C 0 km/h
2272 04-07-2017 22:40:00 19.4 C 12.51 g/m*3 19.4 C 0 km/h
2273 04-07-2017 22:45:00 19.3 C 12.44 g/m*3 19.3 C 0 km/h
2274 04-07-2017 22:50:00 19.2 C 12.53 g/m*3 19.2 C 0 km/h
2275 04-07-2017 22:55:00 18.9 C 12.31 g/m*3 18.9 C 0 km/h
Sensor: Nr:Datum:Temp:Abs-Feuchte:Windchill:Wind:
Aussen-T/F 2276 04-07-2017 23:00:00 18.8 C 12.4 g/m*3 18.8 C 0 km/h
2277 04-07-2017 23:05:00 18.7 C 12.33 g/m*3 18.7 C 0 km/h
2278 04-07-2017 23:10:00 18.5 C 12.34 g/m*3 18.5 C 0 km/h
2279 04-07-2017 23:15:00 18.4 C 12.43 g/m*3 18.4 C 0 km/h
2280 04-07-2017 23:20:00 18.2 C 12.28 g/m*3 18.2 C 0 km/h
2281 04-07-2017 23:25:00 18.2 C 12.43 g/m*3 18.2 C 0 km/h
2282 04-07-2017 23:30:00 18 C 12.44 g/m*3 18 C 0 km/h
2283 04-07-2017 23:35:00 17.9 C 12.37 g/m*3 17.9 C 0 km/h
2284 04-07-2017 23:40:00 17.8 C 12.45 g/m*3 17.8 C 0 km/h
2285 04-07-2017 23:45:00 17.6 C 12.3 g/m*3 17.6 C 0 km/h
2286 04-07-2017 23:50:00 17.5 C 12.37 g/m*3 17.5 C 0 km/h
2287 04-07-2017 23:55:00 17.3 C 12.23 g/m*3 17.3 C 0 km/h
2288 05-07-2017 00:00:00 17.3 C 12.37 g/m*3 17.3 C 0 km/h
2289 05-07-2017 00:05:00 17.2 C 12.3 g/m*3 17.2 C 0 km/h
2290 05-07-2017 00:10:00 17.2 C 12.3 g/m*3 17.2 C 0 km/h
2291 05-07-2017 00:15:00 17.1 C 12.23 g/m*3 17.1 C 0 km/h
2292 05-07-2017 00:20:00 16.9 C 12.08 g/m*3 16.9 C 0 km/h
2293 05-07-2017 00:25:00 16.8 C 12.15 g/m*3 16.8 C 0 km/h
2294 05-07-2017 00:30:00 16.7 C 12.08 g/m*3 16.7 C 0 km/h
2295 05-07-2017 00:35:00 16.6 C 12.01 g/m*3 16.6 C 0 km/h
2296 05-07-2017 00:40:00 16.4 C 12 g/m*3 16.4 C 0 km/h
2297 05-07-2017 00:45:00 16.3 C 11.93 g/m*3 16.3 C 0 km/h
2298 05-07-2017 00:50:00 16.3 C 11.93 g/m*3 16.3 C 0 km/h
2299 05-07-2017 00:55:00 16.2 C 11.86 g/m*3 16.2 C 0 km/h
2300 05-07-2017 01:00:00 16 C 11.72 g/m*3 16 C 0 km/h
Sensor: Nr:Datum:Temp:Abs-Feuchte:Windchill:Wind:
Aussen-T/F 2301 05-07-2017 01:05:00 15.9 C 11.78 g/m*3 15.9 C 0 km/h
2302 05-07-2017 01:10:00 15.9 C 11.78 g/m*3 15.9 C 0 km/h
2303 05-07-2017 01:15:00 15.8 C 11.71 g/m*3 15.8 C 0 km/h
2304 05-07-2017 01:20:00 15.8 C 11.71 g/m*3 15.8 C 0 km/h
2305 05-07-2017 01:25:00 15.7 C 11.64 g/m*3 15.7 C 0 km/h
2306 05-07-2017 01:30:00 15.6 C 11.7 g/m*3 15.6 C 0 km/h
2307 05-07-2017 01:35:00 15.5 C 11.63 g/m*3 15.5 C 0 km/h
2308 05-07-2017 01:40:00 15.4 C 11.56 g/m*3 15.4 C 0 km/h
2309 05-07-2017 01:45:00 15.3 C 11.49 g/m*3 15.3 C 0 km/h
2310 05-07-2017 01:50:00 15.2 C 11.55 g/m*3 15.2 C 0 km/h
2311 05-07-2017 01:55:00 15.2 C 11.55 g/m*3 15.2 C 0 km/h
2312 05-07-2017 02:00:00 15.1 C 11.48 g/m*3 15.1 C 0 km/h
2313 05-07-2017 02:05:00 15.1 C 11.48 g/m*3 15.1 C 0 km/h
2314 05-07-2017 02:10:00 15 C 11.41 g/m*3 15 C 0 km/h
2315 05-07-2017 02:15:00 14.9 C 11.34 g/m*3 14.9 C 0 km/h
2316 05-07-2017 02:20:00 14.8 C 11.27 g/m*3 14.8 C 0 km/h
2317 05-07-2017 02:25:00 14.8 C 11.4 g/m*3 14.8 C 0 km/h
2318 05-07-2017 02:30:00 14.7 C 11.33 g/m*3 14.7 C 0 km/h
2319 05-07-2017 02:35:00 14.6 C 11.26 g/m*3 14.6 C 0 km/h
2320 05-07-2017 02:40:00 14.6 C 11.26 g/m*3 14.6 C 0 km/h
2321 05-07-2017 02:45:00 14.6 C 11.26 g/m*3 14.6 C 0 km/h
2322 05-07-2017 02:50:00 14.5 C 11.32 g/m*3 14.5 C 0 km/h
2323 05-07-2017 02:55:00 14.4 C 11.25 g/m*3 14.4 C 0 km/h
2324 05-07-2017 03:00:00 14.4 C 11.25 g/m*3 14.4 C 0 km/h
2325 05-07-2017 03:05:00 14.4 C 11.25 g/m*3 14.4 C 0 km/h
Sensor: Nr:Datum:Temp:Abs-Feuchte:Windchill:Wind:
Aussen-T/F 2326 05-07-2017 03:10:00 14.3 C 11.18 g/m*3 14.3 C 0 km/h
2327 05-07-2017 03:15:00 14.3 C 11.3 g/m*3 14.3 C 0 km/h
2328 05-07-2017 03:20:00 14.3 C 11.3 g/m*3 14.3 C 0 km/h
2329 05-07-2017 03:25:00 14.3 C 11.3 g/m*3 14.3 C 0 km/h
2330 05-07-2017 03:30:00 14.2 C 11.23 g/m*3 14.2 C 0 km/h
2331 05-07-2017 03:35:00 14.2 C 11.23 g/m*3 14.2 C 0 km/h
2332 05-07-2017 03:40:00 14.2 C 11.23 g/m*3 14.2 C 0 km/h
2333 05-07-2017 03:45:00 14.2 C 11.23 g/m*3 14.2 C 0 km/h
2334 05-07-2017 03:50:00 14.2 C 11.23 g/m*3 14.2 C 0 km/h
2335 05-07-2017 03:55:00 14.1 C 11.17 g/m*3 14.1 C 0 km/h
2336 05-07-2017 04:00:00 14 C 11.1 g/m*3 14 C 0 km/h
2337 05-07-2017 04:05:00 13.9 C 11.03 g/m*3 13.9 C 0 km/h
2338 05-07-2017 04:10:00 13.9 C 11.03 g/m*3 13.9 C 0 km/h
2339 05-07-2017 04:15:00 14 C 11.22 g/m*3 14 C 0 km/h
2340 05-07-2017 04:20:00 14 C 11.22 g/m*3 14 C 0 km/h
2341 05-07-2017 04:25:00 13.9 C 11.15 g/m*3 13.9 C 0 km/h
2342 05-07-2017 04:30:00 13.9 C 11.03 g/m*3 13.9 C 0 km/h
2343 05-07-2017 04:35:00 13.8 C 11.08 g/m*3 13.8 C 0 km/h
2344 05-07-2017 04:40:00 13.8 C 11.08 g/m*3 13.8 C 0 km/h
2345 05-07-2017 04:45:00 13.7 C 11.01 g/m*3 13.7 C 0 km/h
2346 05-07-2017 04:50:00 13.7 C 11.01 g/m*3 13.7 C 0 km/h
2347 05-07-2017 04:55:00 13.6 C 10.95 g/m*3 13.6 C 0 km/h
2348 05-07-2017 05:00:00 13.6 C 10.95 g/m*3 13.6 C 0 km/h
2349 05-07-2017 05:05:00 13.5 C 10.88 g/m*3 13.5 C 1.6 km/h
2350 05-07-2017 05:10:00 13.6 C 10.95 g/m*3 13.6 C 0 km/h
Sensor: Nr:Datum:Temp:Abs-Feuchte:Windchill:Wind:
Aussen-T/F 2351 05-07-2017 05:15:00 13.6 C 10.95 g/m*3 13.6 C 1.6 km/h
2352 05-07-2017 05:20:00 13.6 C 10.95 g/m*3 13.6 C 0 km/h
2353 05-07-2017 05:25:00 13.6 C 10.95 g/m*3 13.6 C 0 km/h
2354 05-07-2017 05:30:00 13.6 C 11.06 g/m*3 13.6 C 1.6 km/h
2355 05-07-2017 05:35:00 13.6 C 11.06 g/m*3 13.6 C 0 km/h
2356 05-07-2017 05:40:00 13.6 C 11.06 g/m*3 13.6 C 1.6 km/h
2357 05-07-2017 05:45:00 13.6 C 11.06 g/m*3 13.6 C 1.6 km/h
2358 05-07-2017 05:50:00 13.5 C 10.88 g/m*3 13.5 C 0 km/h
2359 05-07-2017 05:55:00 13.4 C 10.81 g/m*3 13.4 C 1.6 km/h
2360 05-07-2017 06:00:00 13.4 C 10.93 g/m*3 13.4 C 0 km/h
2361 05-07-2017 06:05:00 13.4 C 10.93 g/m*3 13.4 C 0 km/h
2362 05-07-2017 06:10:00 13.4 C 10.93 g/m*3 13.4 C 0 km/h
2363 05-07-2017 06:15:00 13.4 C 10.93 g/m*3 13.4 C 1.6 km/h
2364 05-07-2017 06:20:00 13.5 C 10.99 g/m*3 13.5 C 0 km/h
2365 05-07-2017 06:25:00 13.6 C 11.06 g/m*3 13.6 C 3.2 km/h
2366 05-07-2017 06:30:00 13.7 C 11.13 g/m*3 13.7 C 3.2 km/h
2367 05-07-2017 06:35:00 13.7 C 11.13 g/m*3 13.7 C 3.2 km/h
2368 05-07-2017 06:40:00 13.7 C 11.13 g/m*3 13.7 C 0 km/h
2369 05-07-2017 06:45:00 13.7 C 11.13 g/m*3 13.7 C 0 km/h
2370 05-07-2017 06:50:00 13.7 C 11.13 g/m*3 13.7 C 0 km/h
2371 05-07-2017 06:55:00 13.7 C 11.13 g/m*3 13.7 C 0 km/h
2372 05-07-2017 07:00:00 13.7 C 11.13 g/m*3 13.7 C 0 km/h
2373 05-07-2017 07:05:00 13.8 C 11.2 g/m*3 13.8 C 3.2 km/h
2374 05-07-2017 07:10:00 13.9 C 11.27 g/m*3 13.9 C 3.2 km/h
2375 05-07-2017 07:15:00 13.9 C 11.27 g/m*3 13.9 C 4.8 km/h
Sensor: Nr:Datum:Temp:Abs-Feuchte:Windchill:Wind:
Aussen-T/F 2376 05-07-2017 07:20:00 14 C 11.34 g/m*3 14 C 3.2 km/h
2377 05-07-2017 07:25:00 14.1 C 11.41 g/m*3 14.1 C 4.8 km/h
2378 05-07-2017 07:30:00 14.2 C 11.48 g/m*3 14.2 C 4.8 km/h
2379 05-07-2017 07:35:00 14.3 C 11.55 g/m*3 14.3 C 1.6 km/h
2380 05-07-2017 07:40:00 14.3 C 11.43 g/m*3 14.3 C 0 km/h
2381 05-07-2017 07:45:00 14.3 C 11.43 g/m*3 14.3 C 0 km/h
2382 05-07-2017 07:50:00 14.3 C 11.43 g/m*3 14.3 C 0 km/h
2383 05-07-2017 07:55:00 14.3 C 11.43 g/m*3 14.3 C 0 km/h
2384 05-07-2017 08:00:00 14.4 C 11.5 g/m*3 14.4 C 0 km/h
2385 05-07-2017 08:05:00 14.5 C 11.69 g/m*3 14.5 C 1.6 km/h
2386 05-07-2017 08:10:00 18.3 C 14.7 g/m*3 18.3 C 3.2 km/h
2387 05-07-2017 08:15:00 18.8 C 12.4 g/m*3 18.8 C 1.6 km/h
2388 05-07-2017 08:20:00 14.8 C 11.91 g/m*3 14.8 C 3.2 km/h
2389 05-07-2017 08:25:00 15 C 12.05 g/m*3 15 C 0 km/h
2390 05-07-2017 08:30:00 15.1 C 12 g/m*3 15.1 C 0 km/h
2391 05-07-2017 08:35:00 15.3 C 12.14 g/m*3 15.3 C 3.2 km/h
2392 05-07-2017 08:40:00 15.4 C 12.22 g/m*3 15.4 C 4.8 km/h
2393 05-07-2017 08:45:00 15.7 C 12.31 g/m*3 15.7 C 6.4 km/h
2394 05-07-2017 08:50:00 15.9 C 12.46 g/m*3 15.9 C 3.2 km/h
2395 05-07-2017 08:55:00 16.1 C 12.47 g/m*3 16.1 C 0 km/h
2396 05-07-2017 09:00:00 16.3 C 12.49 g/m*3 16.3 C 0 km/h
2397 05-07-2017 09:05:00 16.5 C 12.64 g/m*3 16.5 C 0 km/h
2398 05-07-2017 09:10:00 16.6 C 12.71 g/m*3 16.6 C 0 km/h
2399 05-07-2017 09:15:00 16.7 C 12.65 g/m*3 16.7 C 0 km/h
2400 05-07-2017 09:20:00 16.8 C 12.72 g/m*3 16.8 C 0 km/h
Sensor: Nr:Datum:Temp:Abs-Feuchte:Windchill:Wind:
Aussen-T/F 2401 05-07-2017 09:25:00 16.9 C 12.66 g/m*3 16.9 C 0 km/h
2402 05-07-2017 09:30:00 17.1 C 12.81 g/m*3 17.1 C 0 km/h
2403 05-07-2017 09:35:00 17.2 C 12.74 g/m*3 17.2 C 0 km/h
2404 05-07-2017 09:40:00 17.4 C 12.89 g/m*3 17.4 C 0 km/h
2405 05-07-2017 09:45:00 17.5 C 12.97 g/m*3 17.5 C 0 km/h
2406 05-07-2017 09:50:00 17.6 C 13.05 g/m*3 17.6 C 0 km/h
2407 05-07-2017 09:55:00 17.8 C 13.2 g/m*3 17.8 C 0 km/h
2408 05-07-2017 10:00:00 18.1 C 13.13 g/m*3 18.1 C 1.6 km/h
2409 05-07-2017 10:05:00 18.3 C 13.29 g/m*3 18.3 C 0 km/h
2410 05-07-2017 10:10:00 18.6 C 13.37 g/m*3 18.6 C 1.6 km/h
2411 05-07-2017 10:15:00 18.9 C 13.28 g/m*3 18.9 C 3.2 km/h
2412 05-07-2017 10:20:00 19.3 C 13.6 g/m*3 19.3 C 1.6 km/h
2413 05-07-2017 10:25:00 19.7 C 13.58 g/m*3 19.7 C 1.6 km/h
2414 05-07-2017 10:30:00 20.3 C 13.54 g/m*3 20.3 C 3.2 km/h
2415 05-07-2017 10:35:00 20.9 C 13.66 g/m*3 20.9 C 3.2 km/h
2416 05-07-2017 10:40:00 21.5 C 13.39 g/m*3 21.5 C 1.6 km/h
2417 05-07-2017 10:45:00 21.9 C 13.12 g/m*3 21.9 C 1.6 km/h
2418 05-07-2017 10:50:00 22.3 C 13.43 g/m*3 22.3 C 4.8 km/h
2419 05-07-2017 10:55:00 22.6 C 13.26 g/m*3 22.6 C 1.6 km/h
2420 05-07-2017 11:00:00 22.8 C 13.41 g/m*3 22.8 C 1.6 km/h
2421 05-07-2017 11:05:00 22.8 C 13.61 g/m*3 22.8 C 3.2 km/h
2422 05-07-2017 11:10:00 22.9 C 13.9 g/m*3 22.9 C 0 km/h
2423 05-07-2017 11:15:00 22.8 C 13.21 g/m*3 22.8 C 4.8 km/h
2424 05-07-2017 11:20:00 22.9 C 13.28 g/m*3 22.9 C 3.2 km/h
2425 05-07-2017 11:25:00 22.9 C 13.9 g/m*3 22.9 C 4.8 km/h
Sensor: Nr:Datum:Temp:Abs-Feuchte:Windchill:Wind:
Aussen-T/F 2426 05-07-2017 11:30:00 23.1 C 13.23 g/m*3 23.1 C 6.4 km/h
2427 05-07-2017 11:35:00 23.3 C 13.38 g/m*3 23.3 C 8.1 km/h
2428 05-07-2017 11:40:00 23.6 C 13.19 g/m*3 23.6 C 6.4 km/h
2429 05-07-2017 11:45:00 23.7 C 12.62 g/m*3 23.7 C 4.8 km/h
2430 05-07-2017 11:50:00 23.7 C 13.05 g/m*3 23.7 C 1.6 km/h
2431 05-07-2017 11:55:00 23.7 C 13.69 g/m*3 23.7 C 4.8 km/h
2432 05-07-2017 12:00:00 23.7 C 12.83 g/m*3 23.7 C 3.2 km/h
2433 05-07-2017 12:05:00 23.7 C 12.62 g/m*3 23.7 C 6.4 km/h
2434 05-07-2017 12:10:00 23.8 C 12.69 g/m*3 23.8 C 4.8 km/h
2435 05-07-2017 12:15:00 24.1 C 12.69 g/m*3 24.1 C 9.7 km/h
2436 05-07-2017 12:20:00 24.3 C 12.61 g/m*3 24.3 C 4.8 km/h
2437 05-07-2017 12:25:00 24.4 C 12.24 g/m*3 24.4 C 3.2 km/h
2438 05-07-2017 12:30:00 24.5 C 12.31 g/m*3 24.5 C 6.4 km/h
2439 05-07-2017 12:35:00 24.6 C 12.15 g/m*3 24.6 C 9.7 km/h
2440 05-07-2017 12:40:00 24.7 C 12.22 g/m*3 24.7 C 8.1 km/h
2441 05-07-2017 12:45:00 24.8 C 12.29 g/m*3 24.8 C 4.8 km/h
2442 05-07-2017 12:50:00 24.9 C 12.36 g/m*3 24.9 C 8.1 km/h
2443 05-07-2017 12:55:00 24.9 C 12.36 g/m*3 24.9 C 6.4 km/h
2444 05-07-2017 13:00:00 25.1 C 12.96 g/m*3 25.1 C 4.8 km/h
2445 05-07-2017 13:05:00 25.3 C 12.64 g/m*3 25.3 C 6.4 km/h
2446 05-07-2017 13:10:00 25.4 C 12.48 g/m*3 25.4 C 12.9 km/h
2447 05-07-2017 13:15:00 25.6 C 12.62 g/m*3 25.6 C 8.1 km/h
2448 05-07-2017 13:20:00 25.7 C 12.45 g/m*3 25.7 C 9.7 km/h
2449 05-07-2017 13:25:00 25.8 C 12.28 g/m*3 25.8 C 6.4 km/h
2450 05-07-2017 13:30:00 25.8 C 12.52 g/m*3 25.8 C 4.8 km/h
Sensor: Nr:Datum:Temp:Abs-Feuchte:Windchill:Wind:
Aussen-T/F 2451 05-07-2017 13:35:00 25.8 C 12.28 g/m*3 25.8 C 6.4 km/h
2452 05-07-2017 13:40:00 25.8 C 12.52 g/m*3 25.8 C 11.3 km/h
2453 05-07-2017 13:45:00 25.8 C 12.52 g/m*3 25.8 C 3.2 km/h
2454 05-07-2017 13:50:00 26 C 12.9 g/m*3 26 C 4.8 km/h
2455 05-07-2017 13:55:00 26.2 C 12.56 g/m*3 26.2 C 9.7 km/h
2456 05-07-2017 14:00:00 26.3 C 12.38 g/m*3 26.3 C 6.4 km/h
2457 05-07-2017 14:05:00 26.3 C 12.38 g/m*3 26.3 C 9.7 km/h
2458 05-07-2017 14:10:00 26.4 C 12.45 g/m*3 26.4 C 6.4 km/h
2459 05-07-2017 14:15:00 26.5 C 12.27 g/m*3 26.5 C 6.4 km/h
2460 05-07-2017 14:20:00 26.6 C 13.34 g/m*3 26.6 C 1.6 km/h
2461 05-07-2017 14:25:00 26.8 C 12.98 g/m*3 26.8 C 8.1 km/h
2462 05-07-2017 14:30:00 27.1 C 12.68 g/m*3 27.1 C 11.3 km/h
2463 05-07-2017 14:35:00 27.1 C 12.42 g/m*3 27.1 C 9.7 km/h
2464 05-07-2017 14:40:00 27.2 C 12.49 g/m*3 27.2 C 11.3 km/h
2465 05-07-2017 14:45:00 27.2 C 12.49 g/m*3 27.2 C 11.3 km/h
2466 05-07-2017 14:50:00 27.3 C 12.82 g/m*3 27.3 C 4.8 km/h
2467 05-07-2017 14:55:00 27.4 C 12.63 g/m*3 27.4 C 12.9 km/h
2468 05-07-2017 15:00:00 27.6 C 12.5 g/m*3 27.6 C 9.7 km/h
2469 05-07-2017 15:05:00 27.8 C 12.91 g/m*3 27.8 C 9.7 km/h
2470 05-07-2017 15:10:00 28.1 C 12.58 g/m*3 28.1 C 6.4 km/h
2471 05-07-2017 15:15:00 28.3 C 12.72 g/m*3 28.3 C 8.1 km/h
2472 05-07-2017 15:20:00 28.5 C 12.86 g/m*3 28.5 C 8.1 km/h
2473 05-07-2017 15:25:00 28.6 C 12.65 g/m*3 28.6 C 12.9 km/h
2474 05-07-2017 15:30:00 28.7 C 12.43 g/m*3 28.7 C 6.4 km/h
2475 05-07-2017 15:35:00 28.8 C 12.79 g/m*3 28.8 C 4.8 km/h
Sensor: Nr:Datum:Temp:Abs-Feuchte:Windchill:Wind:
Aussen-T/F 2476 05-07-2017 15:40:00 29.1 C 12.71 g/m*3 29.1 C 9.7 km/h
2477 05-07-2017 15:45:00 29.7 C 13.13 g/m*3 29.7 C 6.4 km/h
2478 05-07-2017 15:50:00 30.3 C 13.25 g/m*3 30.3 C 4.8 km/h
2479 05-07-2017 15:55:00 30.2 C 12.57 g/m*3 30.2 C 9.7 km/h
2480 05-07-2017 16:00:00 30 C 12.74 g/m*3 30 C 11.3 km/h
2481 05-07-2017 16:05:00 30 C 12.43 g/m*3 30 C 8.1 km/h
2482 05-07-2017 16:10:00 30.2 C 13.18 g/m*3 30.2 C 6.4 km/h
2483 05-07-2017 16:15:00 30.4 C 12.7 g/m*3 30.4 C 9.7 km/h
2484 05-07-2017 16:20:00 30.8 C 12.98 g/m*3 30.8 C 4.8 km/h
2485 05-07-2017 16:25:00 31 C 12.48 g/m*3 31 C 6.4 km/h
2486 05-07-2017 16:30:00 30.9 C 12.41 g/m*3 30.9 C 9.7 km/h
2487 05-07-2017 16:35:00 30.7 C 12.6 g/m*3 30.7 C 6.4 km/h
2488 05-07-2017 16:40:00 30.8 C 12.35 g/m*3 30.8 C 12.9 km/h
2489 05-07-2017 16:45:00 30.8 C 12.66 g/m*3 30.8 C 16.1 km/h
2490 05-07-2017 16:50:00 30.8 C 12.66 g/m*3 30.8 C 16.1 km/h
2491 05-07-2017 16:55:00 30.9 C 12.41 g/m*3 30.9 C 11.3 km/h
2492 05-07-2017 17:00:00 30.7 C 12.6 g/m*3 30.7 C 12.9 km/h
2493 05-07-2017 17:05:00 30.9 C 12.41 g/m*3 30.9 C 8.1 km/h
2494 05-07-2017 17:10:00 30.9 C 12.41 g/m*3 30.9 C 9.7 km/h
2495 05-07-2017 17:15:00 31.2 C 12.29 g/m*3 31.2 C 8.1 km/h
2496 05-07-2017 17:20:00 31.6 C 13.22 g/m*3 31.6 C 9.7 km/h
2497 05-07-2017 17:25:00 31.8 C 12.69 g/m*3 31.8 C 11.3 km/h
2498 05-07-2017 17:30:00 31.7 C 12.62 g/m*3 31.7 C 6.4 km/h
2499 05-07-2017 17:35:00 31.3 C 12.36 g/m*3 31.3 C 8.1 km/h
2500 05-07-2017 17:40:00 31.1 C 12.87 g/m*3 31.1 C 9.7 km/h
Sensor: Nr:Datum:Temp:Abs-Feuchte:Windchill:Wind:
Aussen-T/F 2501 05-07-2017 17:45:00 31.1 C 12.55 g/m*3 31.1 C 9.7 km/h
2502 05-07-2017 17:50:00 31.1 C 12.23 g/m*3 31.1 C 9.7 km/h
2503 05-07-2017 17:55:00 31.3 C 12.36 g/m*3 31.3 C 11.3 km/h
2504 05-07-2017 18:00:00 31.4 C 12.42 g/m*3 31.4 C 8.1 km/h
2505 05-07-2017 18:05:00 31.6 C 12.56 g/m*3 31.6 C 3.2 km/h
2506 05-07-2017 18:10:00 31.6 C 12.56 g/m*3 31.6 C 14.5 km/h
2507 05-07-2017 18:15:00 31.2 C 12.62 g/m*3 31.2 C 14.5 km/h
2508 05-07-2017 18:20:00 30.9 C 13.05 g/m*3 30.9 C 11.3 km/h
2509 05-07-2017 18:25:00 30.9 C 12.73 g/m*3 30.9 C 9.7 km/h
2510 05-07-2017 18:30:00 30.8 C 12.66 g/m*3 30.8 C 9.7 km/h
2511 05-07-2017 18:35:00 30.7 C 12.91 g/m*3 30.7 C 8.1 km/h
2512 05-07-2017 18:40:00 30.7 C 12.6 g/m*3 30.7 C 9.7 km/h
2513 05-07-2017 18:45:00 30.8 C 12.66 g/m*3 30.8 C 12.9 km/h
2514 05-07-2017 18:50:00 30.9 C 13.05 g/m*3 30.9 C 8.1 km/h
2515 05-07-2017 18:55:00 31 C 12.8 g/m*3 31 C 9.7 km/h
2516 05-07-2017 19:00:00 31 C 12.8 g/m*3 31 C 8.1 km/h
2517 05-07-2017 19:05:00 30.9 C 12.73 g/m*3 30.9 C 8.1 km/h
2518 05-07-2017 19:10:00 30.8 C 12.98 g/m*3 30.8 C 11.3 km/h
2519 05-07-2017 19:15:00 30.7 C 12.91 g/m*3 30.7 C 6.4 km/h
2520 05-07-2017 19:20:00 30.4 C 12.7 g/m*3 30.4 C 11.3 km/h
2521 05-07-2017 19:25:00 30.1 C 12.81 g/m*3 30.1 C 9.7 km/h
2522 05-07-2017 19:30:00 29.8 C 12.6 g/m*3 29.8 C 14.5 km/h
2523 05-07-2017 19:35:00 29.4 C 13.21 g/m*3 29.4 C 12.9 km/h
2524 05-07-2017 19:40:00 28.9 C 12.86 g/m*3 28.9 C 11.3 km/h
2525 05-07-2017 19:45:00 28.6 C 12.93 g/m*3 28.6 C 11.3 km/h
Sensor: Nr:Datum:Temp:Abs-Feuchte:Windchill:Wind:
Aussen-T/F 2526 05-07-2017 19:50:00 28.5 C 12.86 g/m*3 28.5 C 8.1 km/h
2527 05-07-2017 19:55:00 28.4 C 12.51 g/m*3 28.4 C 6.4 km/h
2528 05-07-2017 20:00:00 28.6 C 13.21 g/m*3 28.6 C 6.4 km/h
2529 05-07-2017 20:05:00 28.7 C 13.28 g/m*3 28.7 C 4.8 km/h
2530 05-07-2017 20:10:00 28.7 C 13 g/m*3 28.7 C 8.1 km/h
2531 05-07-2017 20:15:00 28.7 C 12.72 g/m*3 28.7 C 8.1 km/h
2532 05-07-2017 20:20:00 28.6 C 12.93 g/m*3 28.6 C 4.8 km/h
2533 05-07-2017 20:25:00 28.6 C 12.65 g/m*3 28.6 C 9.7 km/h
2534 05-07-2017 20:30:00 28.5 C 13.14 g/m*3 28.5 C 6.4 km/h
2535 05-07-2017 20:35:00 28.4 C 12.79 g/m*3 28.4 C 8.1 km/h
2536 05-07-2017 20:40:00 28.3 C 12.72 g/m*3 28.3 C 6.4 km/h
2537 05-07-2017 20:45:00 28.2 C 12.65 g/m*3 28.2 C 6.4 km/h
2538 05-07-2017 20:50:00 28.1 C 12.85 g/m*3 28.1 C 4.8 km/h
2539 05-07-2017 20:55:00 27.9 C 12.98 g/m*3 27.9 C 4.8 km/h
2540 05-07-2017 21:00:00 27.8 C 12.91 g/m*3 27.8 C 3.2 km/h
2541 05-07-2017 21:05:00 27.5 C 14.02 g/m*3 27.5 C 0 km/h
2542 05-07-2017 21:10:00 27.1 C 13.97 g/m*3 27.1 C 0 km/h
2543 05-07-2017 21:15:00 26.6 C 14.1 g/m*3 26.6 C 0 km/h
2544 05-07-2017 21:20:00 26.1 C 14.2 g/m*3 26.1 C 0 km/h
2545 05-07-2017 21:25:00 25.5 C 14.2 g/m*3 25.5 C 0 km/h
2546 05-07-2017 21:30:00 24.9 C 13.73 g/m*3 24.9 C 0 km/h
2547 05-07-2017 21:35:00 24.6 C 13.95 g/m*3 24.6 C 1.6 km/h
2548 05-07-2017 21:40:00 24.2 C 13.64 g/m*3 24.2 C 0 km/h
2549 05-07-2017 21:45:00 23.8 C 13.55 g/m*3 23.8 C 0 km/h
2550 05-07-2017 21:50:00 23.5 C 13.53 g/m*3 23.5 C 0 km/h
Sensor: Nr:Datum:Temp:Abs-Feuchte:Windchill:Wind:
Aussen-T/F 2551 05-07-2017 21:55:00 23.3 C 13.59 g/m*3 23.3 C 0 km/h
2552 05-07-2017 22:00:00 23 C 13.36 g/m*3 23 C 0 km/h
2553 05-07-2017 22:05:00 22.8 C 13.61 g/m*3 22.8 C 0 km/h
2554 05-07-2017 22:10:00 22.7 C 13.54 g/m*3 22.7 C 0 km/h
2555 05-07-2017 22:15:00 22.4 C 13.5 g/m*3 22.4 C 0 km/h
2556 05-07-2017 22:20:00 22.3 C 13.43 g/m*3 22.3 C 0 km/h
2557 05-07-2017 22:25:00 22.2 C 13.35 g/m*3 22.2 C 0 km/h
2558 05-07-2017 22:30:00 22.1 C 13.27 g/m*3 22.1 C 0 km/h
2559 05-07-2017 22:35:00 22 C 13.39 g/m*3 22 C 0 km/h
2560 05-07-2017 22:40:00 21.9 C 13.31 g/m*3 21.9 C 0 km/h
2561 05-07-2017 22:45:00 21.8 C 13.24 g/m*3 21.8 C 0 km/h
2562 05-07-2017 22:50:00 21.8 C 13.24 g/m*3 21.8 C 0 km/h
2563 05-07-2017 22:55:00 21.7 C 13.35 g/m*3 21.7 C 0 km/h
2564 05-07-2017 23:00:00 21.6 C 13.09 g/m*3 21.6 C 0 km/h
2565 05-07-2017 23:05:00 21.4 C 12.94 g/m*3 21.4 C 0 km/h
2566 05-07-2017 23:10:00 21.3 C 12.86 g/m*3 21.3 C 0 km/h
2567 05-07-2017 23:15:00 21.3 C 13.05 g/m*3 21.3 C 0 km/h
2568 05-07-2017 23:20:00 21.2 C 12.97 g/m*3 21.2 C 0 km/h
2569 05-07-2017 23:25:00 21.2 C 13.16 g/m*3 21.2 C 0 km/h
2570 05-07-2017 23:30:00 21.1 C 12.9 g/m*3 21.1 C 0 km/h
2571 05-07-2017 23:35:00 20.9 C 13.3 g/m*3 20.9 C 0 km/h
2572 05-07-2017 23:40:00 20.7 C 13.14 g/m*3 20.7 C 0 km/h
2573 05-07-2017 23:45:00 20.6 C 13.24 g/m*3 20.6 C 0 km/h
2574 05-07-2017 23:50:00 20.4 C 13.27 g/m*3 20.4 C 0 km/h
2575 05-07-2017 23:55:00 20.2 C 13.29 g/m*3 20.2 C 0 km/h
Sensor: Nr:Datum:Temp:Abs-Feuchte:Windchill:Wind:
Aussen-T/F 2576 06-07-2017 00:00:00 20 C 13.13 g/m*3 20 C 0 km/h
2577 06-07-2017 00:05:00 19.8 C 13.15 g/m*3 19.8 C 0 km/h
2578 06-07-2017 00:10:00 19.6 C 13.17 g/m*3 19.6 C 0 km/h
2579 06-07-2017 00:15:00 19.3 C 12.94 g/m*3 19.3 C 0 km/h
2580 06-07-2017 00:20:00 19.1 C 12.95 g/m*3 19.1 C 0 km/h
2581 06-07-2017 00:25:00 19 C 13.04 g/m*3 19 C 0 km/h
2582 06-07-2017 00:30:00 18.8 C 12.88 g/m*3 18.8 C 0 km/h
2583 06-07-2017 00:35:00 18.6 C 12.73 g/m*3 18.6 C 0 km/h
2584 06-07-2017 00:40:00 18.5 C 12.82 g/m*3 18.5 C 0 km/h
2585 06-07-2017 00:45:00 18.4 C 12.74 g/m*3 18.4 C 0 km/h
2586 06-07-2017 00:50:00 18.3 C 12.66 g/m*3 18.3 C 0 km/h
2587 06-07-2017 00:55:00 18.3 C 12.82 g/m*3 18.3 C 0 km/h
2588 06-07-2017 01:00:00 18.2 C 12.59 g/m*3 18.2 C 0 km/h
2589 06-07-2017 01:05:00 18.1 C 12.67 g/m*3 18.1 C 0 km/h
2590 06-07-2017 01:10:00 18.1 C 12.67 g/m*3 18.1 C 0 km/h
2591 06-07-2017 01:15:00 17.9 C 12.67 g/m*3 17.9 C 0 km/h
2592 06-07-2017 01:20:00 17.8 C 12.6 g/m*3 17.8 C 0 km/h
2593 06-07-2017 01:25:00 17.7 C 12.52 g/m*3 17.7 C 0 km/h
2594 06-07-2017 01:30:00 17.6 C 12.6 g/m*3 17.6 C 0 km/h
2595 06-07-2017 01:35:00 17.4 C 12.45 g/m*3 17.4 C 0 km/h
2596 06-07-2017 01:40:00 17.4 C 12.6 g/m*3 17.4 C 0 km/h
2597 06-07-2017 01:45:00 17.3 C 12.52 g/m*3 17.3 C 0 km/h
2598 06-07-2017 01:50:00 17.3 C 12.52 g/m*3 17.3 C 0 km/h
2599 06-07-2017 01:55:00 17.2 C 12.45 g/m*3 17.2 C 0 km/h
2600 06-07-2017 02:00:00 17.1 C 12.37 g/m*3 17.1 C 0 km/h
Sensor: Nr:Datum:Temp:Abs-Feuchte:Windchill:Wind:
Aussen-T/F 2601 06-07-2017 02:05:00 17.1 C 12.37 g/m*3 17.1 C 0 km/h
2602 06-07-2017 02:10:00 16.9 C 12.37 g/m*3 16.9 C 0 km/h
2603 06-07-2017 02:15:00 16.9 C 12.37 g/m*3 16.9 C 0 km/h
2604 06-07-2017 02:20:00 16.8 C 12.3 g/m*3 16.8 C 0 km/h
2605 06-07-2017 02:25:00 16.8 C 12.44 g/m*3 16.8 C 0 km/h
2606 06-07-2017 02:30:00 16.7 C 12.36 g/m*3 16.7 C 0 km/h
2607 06-07-2017 02:35:00 16.7 C 12.36 g/m*3 16.7 C 0 km/h
2608 06-07-2017 02:40:00 16.6 C 12.29 g/m*3 16.6 C 0 km/h
2609 06-07-2017 02:45:00 16.5 C 12.22 g/m*3 16.5 C 0 km/h
2610 06-07-2017 02:50:00 16.4 C 12.14 g/m*3 16.4 C 0 km/h
2611 06-07-2017 02:55:00 16.4 C 12.28 g/m*3 16.4 C 0 km/h
2612 06-07-2017 03:00:00 16.3 C 12.21 g/m*3 16.3 C 0 km/h
2613 06-07-2017 03:05:00 16.3 C 12.21 g/m*3 16.3 C 0 km/h
2614 06-07-2017 03:10:00 16.2 C 12.14 g/m*3 16.2 C 0 km/h
2615 06-07-2017 03:15:00 16.2 C 12.14 g/m*3 16.2 C 0 km/h
2616 06-07-2017 03:20:00 16.1 C 12.2 g/m*3 16.1 C 0 km/h
2617 06-07-2017 03:25:00 16.1 C 12.2 g/m*3 16.1 C 0 km/h
2618 06-07-2017 03:30:00 16.1 C 12.2 g/m*3 16.1 C 0 km/h
2619 06-07-2017 03:35:00 16.1 C 12.2 g/m*3 16.1 C 0 km/h
2620 06-07-2017 03:40:00 16 C 12.13 g/m*3 16 C 0 km/h
2621 06-07-2017 03:45:00 15.9 C 12.05 g/m*3 15.9 C 0 km/h
2622 06-07-2017 03:50:00 15.9 C 12.05 g/m*3 15.9 C 0 km/h
2623 06-07-2017 03:55:00 15.9 C 12.19 g/m*3 15.9 C 0 km/h
2624 06-07-2017 04:00:00 15.8 C 12.11 g/m*3 15.8 C 0 km/h
2625 06-07-2017 04:05:00 15.8 C 12.11 g/m*3 15.8 C 0 km/h
Sensor: Nr:Datum:Temp:Abs-Feuchte:Windchill:Wind:
Aussen-T/F 2626 06-07-2017 04:10:00 15.7 C 12.04 g/m*3 15.7 C 0 km/h
2627 06-07-2017 04:15:00 15.7 C 12.04 g/m*3 15.7 C 0 km/h
2628 06-07-2017 04:20:00 15.7 C 12.04 g/m*3 15.7 C 0 km/h
2629 06-07-2017 04:25:00 15.6 C 11.97 g/m*3 15.6 C 0 km/h
2630 06-07-2017 04:30:00 15.6 C 12.1 g/m*3 15.6 C 0 km/h
2631 06-07-2017 04:35:00 15.6 C 12.1 g/m*3 15.6 C 0 km/h
2632 06-07-2017 04:40:00 15.5 C 12.03 g/m*3 15.5 C 0 km/h
2633 06-07-2017 04:45:00 15.4 C 11.96 g/m*3 15.4 C 0 km/h
2634 06-07-2017 04:50:00 15.4 C 11.96 g/m*3 15.4 C 0 km/h
2635 06-07-2017 04:55:00 15.3 C 11.88 g/m*3 15.3 C 0 km/h
2636 06-07-2017 05:00:00 15.3 C 11.88 g/m*3 15.3 C 0 km/h
2637 06-07-2017 05:05:00 15.3 C 11.88 g/m*3 15.3 C 0 km/h
2638 06-07-2017 05:10:00 15.3 C 12.01 g/m*3 15.3 C 0 km/h
2639 06-07-2017 05:15:00 15.2 C 11.81 g/m*3 15.2 C 0 km/h
2640 06-07-2017 05:20:00 15.2 C 11.94 g/m*3 15.2 C 0 km/h
2641 06-07-2017 05:25:00 15.2 C 11.94 g/m*3 15.2 C 0 km/h
2642 06-07-2017 05:30:00 15.2 C 11.94 g/m*3 15.2 C 0 km/h
2643 06-07-2017 05:35:00 15.1 C 11.87 g/m*3 15.1 C 0 km/h
2644 06-07-2017 05:40:00 15.1 C 11.87 g/m*3 15.1 C 0 km/h
2645 06-07-2017 05:45:00 15 C 11.8 g/m*3 15 C 0 km/h
2646 06-07-2017 05:50:00 14.9 C 11.73 g/m*3 14.9 C 0 km/h
2647 06-07-2017 05:55:00 14.9 C 11.73 g/m*3 14.9 C 0 km/h
2648 06-07-2017 06:00:00 15 C 11.93 g/m*3 15 C 0 km/h
2649 06-07-2017 06:05:00 15 C 11.93 g/m*3 15 C 0 km/h
2650 06-07-2017 06:10:00 15.1 C 12 g/m*3 15.1 C 1.6 km/h
Sensor: Nr:Datum:Temp:Abs-Feuchte:Windchill:Wind:
Aussen-T/F 2651 06-07-2017 06:15:00 15.1 C 12 g/m*3 15.1 C 0 km/h
2652 06-07-2017 06:20:00 15.1 C 12 g/m*3 15.1 C 0 km/h
2653 06-07-2017 06:25:00 15.2 C 12.07 g/m*3 15.2 C 0 km/h
2654 06-07-2017 06:30:00 15.2 C 12.07 g/m*3 15.2 C 0 km/h
2655 06-07-2017 06:35:00 15.2 C 12.07 g/m*3 15.2 C 0 km/h
2656 06-07-2017 06:40:00 15.2 C 12.07 g/m*3 15.2 C 0 km/h
2657 06-07-2017 06:45:00 15.2 C 12.07 g/m*3 15.2 C 0 km/h
2658 06-07-2017 06:50:00 15.3 C 12.14 g/m*3 15.3 C 0 km/h
2659 06-07-2017 06:55:00 15.3 C 12.14 g/m*3 15.3 C 1.6 km/h
2660 06-07-2017 07:00:00 15.3 C 12.14 g/m*3 15.3 C 0 km/h
2661 06-07-2017 07:05:00 15.4 C 12.22 g/m*3 15.4 C 0 km/h
2662 06-07-2017 07:10:00 15.4 C 12.22 g/m*3 15.4 C 0 km/h
2663 06-07-2017 07:15:00 15.4 C 12.22 g/m*3 15.4 C 0 km/h
2664 06-07-2017 07:20:00 15.5 C 12.29 g/m*3 15.5 C 0 km/h
2665 06-07-2017 07:25:00 15.6 C 12.37 g/m*3 15.6 C 0 km/h
2666 06-07-2017 07:30:00 15.7 C 12.44 g/m*3 15.7 C 0 km/h
2667 06-07-2017 07:35:00 15.7 C 12.44 g/m*3 15.7 C 0 km/h
2668 06-07-2017 07:40:00 15.8 C 12.52 g/m*3 15.8 C 0 km/h
2669 06-07-2017 07:45:00 15.8 C 12.52 g/m*3 15.8 C 0 km/h
2670 06-07-2017 07:50:00 15.9 C 12.59 g/m*3 15.9 C 0 km/h
2671 06-07-2017 07:55:00 16 C 12.67 g/m*3 16 C 0 km/h
2672 06-07-2017 08:00:00 16.1 C 12.75 g/m*3 16.1 C 0 km/h
2673 06-07-2017 08:05:00 16.2 C 12.82 g/m*3 16.2 C 0 km/h
2674 06-07-2017 08:10:00 16.3 C 12.9 g/m*3 16.3 C 0 km/h
2675 06-07-2017 08:15:00 16.3 C 12.9 g/m*3 16.3 C 0 km/h
Sensor: Nr:Datum:Temp:Abs-Feuchte:Windchill:Wind:
Aussen-T/F 2676 06-07-2017 08:20:00 16.4 C 12.98 g/m*3 16.4 C 0 km/h
2677 06-07-2017 08:25:00 16.6 C 13.14 g/m*3 16.6 C 0 km/h
2678 06-07-2017 08:30:00 16.7 C 13.22 g/m*3 16.7 C 0 km/h
2679 06-07-2017 08:35:00 16.8 C 13.3 g/m*3 16.8 C 0 km/h
2680 06-07-2017 08:40:00 16.9 C 13.38 g/m*3 16.9 C 0 km/h
2681 06-07-2017 08:45:00 17 C 13.46 g/m*3 17 C 0 km/h
2682 06-07-2017 08:50:00 17.2 C 13.62 g/m*3 17.2 C 0 km/h
2683 06-07-2017 08:55:00 17.3 C 13.7 g/m*3 17.3 C 0 km/h
2684 06-07-2017 09:00:00 17.4 C 13.63 g/m*3 17.4 C 0 km/h
2685 06-07-2017 09:05:00 17.6 C 13.8 g/m*3 17.6 C 0 km/h
2686 06-07-2017 09:10:00 17.7 C 13.88 g/m*3 17.7 C 0 km/h
2687 06-07-2017 09:15:00 17.8 C 13.81 g/m*3 17.8 C 0 km/h
2688 06-07-2017 09:20:00 18 C 13.98 g/m*3 18 C 0 km/h
2689 06-07-2017 09:25:00 18.1 C 14.06 g/m*3 18.1 C 0 km/h
2690 06-07-2017 09:30:00 18.3 C 14.07 g/m*3 18.3 C 1.6 km/h
2691 06-07-2017 09:35:00 18.5 C 14.08 g/m*3 18.5 C 0 km/h
2692 06-07-2017 09:40:00 18.7 C 14.25 g/m*3 18.7 C 0 km/h
2693 06-07-2017 09:45:00 18.9 C 14.09 g/m*3 18.9 C 1.6 km/h
2694 06-07-2017 09:50:00 19.2 C 14.35 g/m*3 19.2 C 0 km/h
2695 06-07-2017 09:55:00 19.4 C 14.35 g/m*3 19.4 C 1.6 km/h
2696 06-07-2017 10:00:00 19.6 C 14.18 g/m*3 19.6 C 1.6 km/h
2697 06-07-2017 10:05:00 19.9 C 14.09 g/m*3 19.9 C 4.8 km/h
2698 06-07-2017 10:10:00 20.3 C 14.25 g/m*3 20.3 C 4.8 km/h
2699 06-07-2017 10:15:00 20.7 C 14.4 g/m*3 20.7 C 0 km/h
2700 06-07-2017 10:20:00 21.1 C 14.92 g/m*3 21.1 C 1.6 km/h
Sensor: Nr:Datum:Temp:Abs-Feuchte:Windchill:Wind:
Aussen-T/F 2701 06-07-2017 10:25:00 21.4 C 14.62 g/m*3 21.4 C 3.2 km/h
2702 06-07-2017 10:30:00 21.8 C 14.39 g/m*3 21.8 C 1.6 km/h
2703 06-07-2017 10:35:00 22.4 C 15.09 g/m*3 22.4 C 1.6 km/h
2704 06-07-2017 10:40:00 22.9 C 15.33 g/m*3 22.9 C 1.6 km/h
2705 06-07-2017 10:45:00 23.3 C 14.84 g/m*3 23.3 C 3.2 km/h
2706 06-07-2017 10:50:00 23.8 C 14.63 g/m*3 23.8 C 3.2 km/h
2707 06-07-2017 10:55:00 24.1 C 14.22 g/m*3 24.1 C 3.2 km/h
2708 06-07-2017 11:00:00 24.3 C 14.16 g/m*3 24.3 C 1.6 km/h
2709 06-07-2017 11:05:00 24.5 C 14.32 g/m*3 24.5 C 4.8 km/h
2710 06-07-2017 11:10:00 24.7 C 14.03 g/m*3 24.7 C 4.8 km/h
2711 06-07-2017 11:15:00 24.8 C 14.11 g/m*3 24.8 C 4.8 km/h
2712 06-07-2017 11:20:00 24.9 C 13.73 g/m*3 24.9 C 6.4 km/h
2713 06-07-2017 11:25:00 25.1 C 13.66 g/m*3 25.1 C 6.4 km/h
2714 06-07-2017 11:30:00 25.3 C 13.81 g/m*3 25.3 C 4.8 km/h
2715 06-07-2017 11:35:00 25.4 C 13.89 g/m*3 25.4 C 4.8 km/h
2716 06-07-2017 11:40:00 25.7 C 13.65 g/m*3 25.7 C 6.4 km/h
2717 06-07-2017 11:45:00 25.8 C 13.72 g/m*3 25.8 C 3.2 km/h
2718 06-07-2017 11:50:00 25.9 C 13.56 g/m*3 25.9 C 4.8 km/h
2719 06-07-2017 11:55:00 26 C 13.88 g/m*3 26 C 8.1 km/h
2720 06-07-2017 12:00:00 26.1 C 13.46 g/m*3 26.1 C 8.1 km/h
2721 06-07-2017 12:05:00 26.3 C 14.11 g/m*3 26.3 C 8.1 km/h
2722 06-07-2017 12:10:00 26.4 C 13.69 g/m*3 26.4 C 6.4 km/h
2723 06-07-2017 12:15:00 26.5 C 14.02 g/m*3 26.5 C 3.2 km/h
2724 06-07-2017 12:20:00 26.6 C 13.84 g/m*3 26.6 C 4.8 km/h
2725 06-07-2017 12:25:00 26.7 C 14.17 g/m*3 26.7 C 4.8 km/h
Sensor: Nr:Datum:Temp:Abs-Feuchte:Windchill:Wind:
Aussen-T/F 2726 06-07-2017 12:30:00 27 C 14.15 g/m*3 27 C 6.4 km/h
2727 06-07-2017 12:35:00 27.2 C 14.31 g/m*3 27.2 C 8.1 km/h
2728 06-07-2017 12:40:00 27.4 C 13.94 g/m*3 27.4 C 4.8 km/h
2729 06-07-2017 12:45:00 27.6 C 13.83 g/m*3 27.6 C 6.4 km/h
2730 06-07-2017 12:50:00 27.6 C 14.1 g/m*3 27.6 C 4.8 km/h
2731 06-07-2017 12:55:00 27.6 C 14.1 g/m*3 27.6 C 4.8 km/h
2732 06-07-2017 13:00:00 27.7 C 13.91 g/m*3 27.7 C 4.8 km/h
2733 06-07-2017 13:05:00 27.8 C 13.99 g/m*3 27.8 C 6.4 km/h
2734 06-07-2017 13:10:00 28.1 C 14.22 g/m*3 28.1 C 9.7 km/h
2735 06-07-2017 13:15:00 28.2 C 14.02 g/m*3 28.2 C 4.8 km/h
2736 06-07-2017 13:20:00 28.3 C 14.65 g/m*3 28.3 C 3.2 km/h
2737 06-07-2017 13:25:00 28.4 C 14.18 g/m*3 28.4 C 6.4 km/h
2738 06-07-2017 13:30:00 28.7 C 14.13 g/m*3 28.7 C 8.1 km/h
2739 06-07-2017 13:35:00 28.9 C 14 g/m*3 28.9 C 9.7 km/h
2740 06-07-2017 13:40:00 29.1 C 14.15 g/m*3 29.1 C 6.4 km/h
2741 06-07-2017 13:45:00 29.3 C 14.31 g/m*3 29.3 C 11.3 km/h
2742 06-07-2017 13:50:00 29.6 C 13.95 g/m*3 29.6 C 11.3 km/h
2743 06-07-2017 13:55:00 29.6 C 13.95 g/m*3 29.6 C 9.7 km/h
2744 06-07-2017 14:00:00 29.6 C 14.24 g/m*3 29.6 C 8.1 km/h
2745 06-07-2017 14:05:00 29.7 C 14.62 g/m*3 29.7 C 8.1 km/h
2746 06-07-2017 14:10:00 29.9 C 14.18 g/m*3 29.9 C 9.7 km/h
2747 06-07-2017 14:15:00 30.1 C 14.33 g/m*3 30.1 C 9.7 km/h
2748 06-07-2017 14:20:00 30.3 C 13.87 g/m*3 30.3 C 12.9 km/h
2749 06-07-2017 14:25:00 30.4 C 13.94 g/m*3 30.4 C 8.1 km/h
2750 06-07-2017 14:30:00 30.4 C 13.94 g/m*3 30.4 C 6.4 km/h
Sensor: Nr:Datum:Temp:Abs-Feuchte:Windchill:Wind:
Aussen-T/F 2751 06-07-2017 14:35:00 30.5 C 14.33 g/m*3 30.5 C 3.2 km/h
2752 06-07-2017 14:40:00 30.5 C 14.02 g/m*3 30.5 C 6.4 km/h
2753 06-07-2017 14:45:00 30.6 C 14.09 g/m*3 30.6 C 9.7 km/h
2754 06-07-2017 14:50:00 30.9 C 14.32 g/m*3 30.9 C 4.8 km/h
2755 06-07-2017 14:55:00 31 C 14.4 g/m*3 31 C 4.8 km/h
2756 06-07-2017 15:00:00 31.2 C 14.23 g/m*3 31.2 C 9.7 km/h
2757 06-07-2017 15:05:00 31.3 C 13.98 g/m*3 31.3 C 8.1 km/h
2758 06-07-2017 15:10:00 31.4 C 14.06 g/m*3 31.4 C 6.4 km/h
2759 06-07-2017 15:15:00 31.7 C 13.95 g/m*3 31.7 C 8.1 km/h
2760 06-07-2017 15:20:00 31.9 C 14.44 g/m*3 31.9 C 9.7 km/h
2761 06-07-2017 15:25:00 32.1 C 13.92 g/m*3 32.1 C 6.4 km/h
2762 06-07-2017 15:30:00 32.3 C 13.72 g/m*3 32.3 C 14.5 km/h
2763 06-07-2017 15:35:00 32.4 C 13.79 g/m*3 32.4 C 8.1 km/h
2764 06-07-2017 15:40:00 32.4 C 14.14 g/m*3 32.4 C 12.9 km/h
2765 06-07-2017 15:45:00 32.3 C 13.72 g/m*3 32.3 C 11.3 km/h
2766 06-07-2017 15:50:00 32.3 C 13.72 g/m*3 32.3 C 8.1 km/h
2767 06-07-2017 15:55:00 32.2 C 13.99 g/m*3 32.2 C 9.7 km/h
2768 06-07-2017 16:00:00 31.9 C 14.1 g/m*3 31.9 C 8.1 km/h
2769 06-07-2017 16:05:00 31.7 C 17.28 g/m*3 31.7 C 3.2 km/h
2770 06-07-2017 16:10:00 31.2 C 17.79 g/m*3 31.2 C 1.6 km/h
2771 06-07-2017 16:15:00 30.2 C 14.71 g/m*3 30.2 C 14.5 km/h
2772 06-07-2017 16:20:00 29.6 C 17.81 g/m*3 29.6 C 8.1 km/h
2773 06-07-2017 16:25:00 29.1 C 18.19 g/m*3 29.1 C 1.6 km/h
2774 06-07-2017 16:30:00 28.7 C 17.24 g/m*3 28.7 C 6.4 km/h
2775 06-07-2017 16:35:00 28.6 C 16.3 g/m*3 28.6 C 4.8 km/h
Sensor: Nr:Datum:Temp:Abs-Feuchte:Windchill:Wind:
Aussen-T/F 2776 06-07-2017 16:40:00 28.5 C 15.65 g/m*3 28.5 C 0 km/h
2777 06-07-2017 16:45:00 28.2 C 15.12 g/m*3 28.2 C 11.3 km/h
2778 06-07-2017 16:50:00 27.8 C 14.79 g/m*3 27.8 C 14.5 km/h
2779 06-07-2017 16:55:00 27.3 C 14.91 g/m*3 27.3 C 17.7 km/h
2780 06-07-2017 17:00:00 26.6 C 15.1 g/m*3 26.6 C 16.1 km/h
2781 06-07-2017 17:05:00 25.8 C 15.65 g/m*3 25.8 C 12.9 km/h
2782 06-07-2017 17:10:00 24.6 C 15.08 g/m*3 24.6 C 14.5 km/h
2783 06-07-2017 17:15:00 23.8 C 15.49 g/m*3 23.8 C 4.8 km/h
2784 06-07-2017 17:20:00 23.4 C 16.4 g/m*3 23.4 C 3.2 km/h
2785 06-07-2017 17:25:00 23.1 C 16.74 g/m*3 23.1 C 0 km/h
2786 06-07-2017 17:30:00 22.8 C 16.26 g/m*3 22.8 C 4.8 km/h
2787 06-07-2017 17:35:00 22.7 C 16.37 g/m*3 22.7 C 6.4 km/h
2788 06-07-2017 17:40:00 22.7 C 16.37 g/m*3 22.7 C 4.8 km/h
2789 06-07-2017 17:45:00 22.7 C 16.16 g/m*3 22.7 C 6.4 km/h
2790 06-07-2017 17:50:00 22.8 C 16.46 g/m*3 22.8 C 1.6 km/h
2791 06-07-2017 17:55:00 23.1 C 16.54 g/m*3 23.1 C 1.6 km/h
2792 06-07-2017 18:00:00 23.3 C 16.52 g/m*3 23.3 C 4.8 km/h
2793 06-07-2017 18:05:00 23.6 C 16.59 g/m*3 23.6 C 3.2 km/h
2794 06-07-2017 18:10:00 23.9 C 16.23 g/m*3 23.9 C 4.8 km/h
2795 06-07-2017 18:15:00 24.4 C 16.25 g/m*3 24.4 C 8.1 km/h
2796 06-07-2017 18:20:00 24.8 C 16.39 g/m*3 24.8 C 6.4 km/h
2797 06-07-2017 18:25:00 25.2 C 16.53 g/m*3 25.2 C 6.4 km/h
2798 06-07-2017 18:30:00 25.6 C 16.67 g/m*3 25.6 C 6.4 km/h
2799 06-07-2017 18:35:00 25.8 C 16.13 g/m*3 25.8 C 6.4 km/h
2800 06-07-2017 18:40:00 26.1 C 16.16 g/m*3 26.1 C 8.1 km/h
Sensor: Nr:Datum:Temp:Abs-Feuchte:Windchill:Wind:
Aussen-T/F 2801 06-07-2017 18:45:00 26.2 C 16 g/m*3 26.2 C 6.4 km/h
2802 06-07-2017 18:50:00 26.1 C 14.93 g/m*3 26.1 C 11.3 km/h
2803 06-07-2017 18:55:00 25.7 C 15.56 g/m*3 25.7 C 9.7 km/h
2804 06-07-2017 19:00:00 25.1 C 15.51 g/m*3 25.1 C 9.7 km/h
2805 06-07-2017 19:05:00 24.7 C 15.62 g/m*3 24.7 C 6.4 km/h
2806 06-07-2017 19:10:00 24.5 C 15.89 g/m*3 24.5 C 6.4 km/h
2807 06-07-2017 19:15:00 24.4 C 15.58 g/m*3 24.4 C 8.1 km/h
2808 06-07-2017 19:20:00 24.3 C 15.93 g/m*3 24.3 C 6.4 km/h
2809 06-07-2017 19:25:00 24.1 C 15.97 g/m*3 24.1 C 6.4 km/h
2810 06-07-2017 19:30:00 24 C 15.88 g/m*3 24 C 3.2 km/h
2811 06-07-2017 19:35:00 23.9 C 15.79 g/m*3 23.9 C 8.1 km/h
2812 06-07-2017 19:40:00 23.8 C 15.7 g/m*3 23.8 C 6.4 km/h
2813 06-07-2017 19:45:00 23.7 C 15.61 g/m*3 23.7 C 8.1 km/h
2814 06-07-2017 19:50:00 23.7 C 15.83 g/m*3 23.7 C 3.2 km/h
2815 06-07-2017 19:55:00 23.6 C 15.74 g/m*3 23.6 C 6.4 km/h
2816 06-07-2017 20:00:00 23.4 C 15.56 g/m*3 23.4 C 8.1 km/h
2817 06-07-2017 20:05:00 23.3 C 15.47 g/m*3 23.3 C 6.4 km/h
2818 06-07-2017 20:10:00 23.2 C 15.38 g/m*3 23.2 C 4.8 km/h
2819 06-07-2017 20:15:00 23.1 C 15.5 g/m*3 23.1 C 4.8 km/h
2820 06-07-2017 20:20:00 23 C 15.42 g/m*3 23 C 4.8 km/h
2821 06-07-2017 20:25:00 22.9 C 15.33 g/m*3 22.9 C 6.4 km/h
2822 06-07-2017 20:30:00 22.8 C 15.44 g/m*3 22.8 C 6.4 km/h
2823 06-07-2017 20:35:00 22.7 C 15.76 g/m*3 22.7 C 3.2 km/h
2824 06-07-2017 20:40:00 22.5 C 15.58 g/m*3 22.5 C 9.7 km/h
2825 06-07-2017 20:45:00 22.4 C 15.29 g/m*3 22.4 C 8.1 km/h
Sensor: Nr:Datum:Temp:Abs-Feuchte:Windchill:Wind:
Aussen-T/F 2826 06-07-2017 20:50:00 22.3 C 15.8 g/m*3 22.3 C 1.6 km/h
2827 06-07-2017 20:55:00 22.2 C 15.9 g/m*3 22.2 C 0 km/h
2828 06-07-2017 21:00:00 22.1 C 15.81 g/m*3 22.1 C 0 km/h
2829 06-07-2017 21:05:00 21.8 C 15.54 g/m*3 21.8 C 1.6 km/h
2830 06-07-2017 21:10:00 21.6 C 15.55 g/m*3 21.6 C 1.6 km/h
2831 06-07-2017 21:15:00 21.4 C 15.37 g/m*3 21.4 C 1.6 km/h
2832 06-07-2017 21:20:00 21.4 C 15.56 g/m*3 21.4 C 0 km/h
2833 06-07-2017 21:25:00 21.3 C 15.47 g/m*3 21.3 C 0 km/h
2834 06-07-2017 21:30:00 21.3 C 16.03 g/m*3 21.3 C 1.6 km/h
2835 06-07-2017 21:35:00 21.1 C 16.03 g/m*3 21.1 C 12.9 km/h
2836 06-07-2017 21:40:00 20.7 C 15.66 g/m*3 20.7 C 6.4 km/h
2837 06-07-2017 21:45:00 20.2 C 15.21 g/m*3 20.2 C 14.5 km/h
2838 06-07-2017 21:50:00 19.8 C 15.2 g/m*3 19.8 C 4.8 km/h
2839 06-07-2017 21:55:00 19.6 C 15.19 g/m*3 19.6 C 3.2 km/h
2840 06-07-2017 22:00:00 19.4 C 15.18 g/m*3 19.4 C 3.2 km/h
2841 06-07-2017 22:05:00 19.3 C 15.09 g/m*3 19.3 C 0 km/h
2842 06-07-2017 22:10:00 19.1 C 14.92 g/m*3 19.1 C 9.7 km/h
2843 06-07-2017 22:15:00 18.9 C 14.74 g/m*3 18.9 C 8.1 km/h
2844 06-07-2017 22:20:00 18.9 C 14.74 g/m*3 18.9 C 9.7 km/h
2845 06-07-2017 22:25:00 18.8 C 14.82 g/m*3 18.8 C 6.4 km/h
2846 06-07-2017 22:30:00 18.8 C 14.82 g/m*3 18.8 C 11.3 km/h
2847 06-07-2017 22:35:00 18.8 C 14.82 g/m*3 18.8 C 1.6 km/h
2848 06-07-2017 22:40:00 18.8 C 14.82 g/m*3 18.8 C 0 km/h
2849 06-07-2017 22:45:00 18.7 C 14.73 g/m*3 18.7 C 1.6 km/h
2850 06-07-2017 22:50:00 18.6 C 14.8 g/m*3 18.6 C 1.6 km/h
Sensor: Nr:Datum:Temp:Abs-Feuchte:Windchill:Wind:
Aussen-T/F 2851 06-07-2017 22:55:00 18.6 C 14.8 g/m*3 18.6 C 0 km/h
2852 06-07-2017 23:00:00 18.5 C 14.71 g/m*3 18.5 C 0 km/h
2853 06-07-2017 23:05:00 18.4 C 14.63 g/m*3 18.4 C 0 km/h
2854 06-07-2017 23:10:00 18.3 C 14.54 g/m*3 18.3 C 0 km/h
2855 06-07-2017 23:15:00 18.3 C 14.54 g/m*3 18.3 C 0 km/h
2856 06-07-2017 23:20:00 18.3 C 14.54 g/m*3 18.3 C 0 km/h
2857 06-07-2017 23:25:00 18.2 C 14.61 g/m*3 18.2 C 0 km/h
2858 06-07-2017 23:30:00 18.2 C 14.61 g/m*3 18.2 C 0 km/h
2859 06-07-2017 23:35:00 18.2 C 14.61 g/m*3 18.2 C 0 km/h
2860 06-07-2017 23:40:00 18.1 C 14.52 g/m*3 18.1 C 0 km/h
2861 06-07-2017 23:45:00 18.1 C 14.52 g/m*3 18.1 C 0 km/h
2862 06-07-2017 23:50:00 18.1 C 14.52 g/m*3 18.1 C 0 km/h
2863 06-07-2017 23:55:00 18.1 C 14.52 g/m*3 18.1 C 0 km/h
2864 07-07-2017 00:00:00 18.1 C 14.52 g/m*3 18.1 C 0 km/h
2865 07-07-2017 00:05:00 18.1 C 14.52 g/m*3 18.1 C 0 km/h
2866 07-07-2017 00:10:00 18.1 C 14.52 g/m*3 18.1 C 0 km/h
2867 07-07-2017 00:15:00 18.1 C 14.68 g/m*3 18.1 C 0 km/h
2868 07-07-2017 00:20:00 18.2 C 14.77 g/m*3 18.2 C 0 km/h
2869 07-07-2017 00:25:00 18.2 C 14.77 g/m*3 18.2 C 0 km/h
2870 07-07-2017 00:30:00 18.2 C 14.77 g/m*3 18.2 C 0 km/h
2871 07-07-2017 00:35:00 18.3 C 14.85 g/m*3 18.3 C 8.1 km/h
2872 07-07-2017 00:40:00 18.4 C 14.94 g/m*3 18.4 C 12.9 km/h
2873 07-07-2017 00:45:00 18.5 C 15.03 g/m*3 18.5 C 9.7 km/h
2874 07-07-2017 00:50:00 18.6 C 15.12 g/m*3 18.6 C 6.4 km/h
2875 07-07-2017 00:55:00 18.6 C 15.12 g/m*3 18.6 C 8.1 km/h
Sensor: Nr:Datum:Temp:Abs-Feuchte:Windchill:Wind:
Aussen-T/F 2876 07-07-2017 01:00:00 18.7 C 15.37 g/m*3 18.7 C 11.3 km/h
2877 07-07-2017 01:05:00 18.8 C 15.3 g/m*3 18.8 C 14.5 km/h
2878 07-07-2017 01:10:00 18.8 C 15.3 g/m*3 18.8 C 16.1 km/h
2879 07-07-2017 01:15:00 18.7 C 15.21 g/m*3 18.7 C 8.1 km/h
2880 07-07-2017 01:20:00 18.6 C 15.12 g/m*3 18.6 C 3.2 km/h
2881 07-07-2017 01:25:00 18.6 C 15.12 g/m*3 18.6 C 0 km/h
2882 07-07-2017 01:30:00 18.4 C 14.94 g/m*3 18.4 C 1.6 km/h
2883 07-07-2017 01:35:00 18.4 C 14.94 g/m*3 18.4 C 8.1 km/h
2884 07-07-2017 01:40:00 18.3 C 14.85 g/m*3 18.3 C 1.6 km/h
2885 07-07-2017 01:45:00 18.3 C 14.85 g/m*3 18.3 C 3.2 km/h
2886 07-07-2017 01:50:00 18.2 C 14.77 g/m*3 18.2 C 3.2 km/h
2887 07-07-2017 01:55:00 18.1 C 14.68 g/m*3 18.1 C 4.8 km/h
2888 07-07-2017 02:00:00 18 C 14.59 g/m*3 18 C 4.8 km/h
2889 07-07-2017 02:05:00 17.9 C 14.5 g/m*3 17.9 C 4.8 km/h
2890 07-07-2017 02:10:00 17.9 C 14.5 g/m*3 17.9 C 6.4 km/h
2891 07-07-2017 02:15:00 17.9 C 14.5 g/m*3 17.9 C 0 km/h
2892 07-07-2017 02:20:00 17.8 C 14.42 g/m*3 17.8 C 1.6 km/h
2893 07-07-2017 02:25:00 17.8 C 14.42 g/m*3 17.8 C 0 km/h
2894 07-07-2017 02:30:00 17.8 C 14.42 g/m*3 17.8 C 1.6 km/h
2895 07-07-2017 02:35:00 17.8 C 14.42 g/m*3 17.8 C 0 km/h
2896 07-07-2017 02:40:00 17.7 C 14.33 g/m*3 17.7 C 0 km/h
2897 07-07-2017 02:45:00 17.7 C 14.33 g/m*3 17.7 C 0 km/h
2898 07-07-2017 02:50:00 17.7 C 14.33 g/m*3 17.7 C 0 km/h
2899 07-07-2017 02:55:00 17.7 C 14.33 g/m*3 17.7 C 0 km/h
2900 07-07-2017 03:00:00 17.6 C 14.25 g/m*3 17.6 C 0 km/h
Sensor: Nr:Datum:Temp:Abs-Feuchte:Windchill:Wind:
Aussen-T/F 2901 07-07-2017 03:05:00 17.6 C 14.25 g/m*3 17.6 C 0 km/h
2902 07-07-2017 03:10:00 17.5 C 14.16 g/m*3 17.5 C 0 km/h
2903 07-07-2017 03:15:00 17.4 C 14.08 g/m*3 17.4 C 1.6 km/h
2904 07-07-2017 03:20:00 17.4 C 14.08 g/m*3 17.4 C 1.6 km/h
2905 07-07-2017 03:25:00 17.5 C 14.16 g/m*3 17.5 C 1.6 km/h
2906 07-07-2017 03:30:00 17.5 C 14.16 g/m*3 17.5 C 1.6 km/h
2907 07-07-2017 03:35:00 17.6 C 14.4 g/m*3 17.6 C 1.6 km/h
2908 07-07-2017 03:40:00 17.5 C 14.16 g/m*3 17.5 C 0 km/h
2909 07-07-2017 03:45:00 17.5 C 14.16 g/m*3 17.5 C 1.6 km/h
2910 07-07-2017 03:50:00 17.4 C 14.08 g/m*3 17.4 C 1.6 km/h
2911 07-07-2017 03:55:00 17.3 C 14 g/m*3 17.3 C 1.6 km/h
2912 07-07-2017 04:00:00 17.3 C 14.14 g/m*3 17.3 C 0 km/h
2913 07-07-2017 04:05:00 17.3 C 14.14 g/m*3 17.3 C 1.6 km/h
2914 07-07-2017 04:10:00 17.2 C 14.06 g/m*3 17.2 C 0 km/h
2915 07-07-2017 04:15:00 17.1 C 13.83 g/m*3 17.1 C 0 km/h
2916 07-07-2017 04:20:00 17.1 C 13.83 g/m*3 17.1 C 1.6 km/h
2917 07-07-2017 04:25:00 17.1 C 13.97 g/m*3 17.1 C 0 km/h
2918 07-07-2017 04:30:00 17 C 13.89 g/m*3 17 C 0 km/h
2919 07-07-2017 04:35:00 16.9 C 13.81 g/m*3 16.9 C 0 km/h
2920 07-07-2017 04:40:00 16.9 C 13.81 g/m*3 16.9 C 0 km/h
2921 07-07-2017 04:45:00 16.8 C 13.73 g/m*3 16.8 C 0 km/h
2922 07-07-2017 04:50:00 16.8 C 13.73 g/m*3 16.8 C 0 km/h
2923 07-07-2017 04:55:00 16.8 C 13.73 g/m*3 16.8 C 0 km/h
2924 07-07-2017 05:00:00 16.8 C 13.73 g/m*3 16.8 C 0 km/h
2925 07-07-2017 05:05:00 16.7 C 13.64 g/m*3 16.7 C 0 km/h
Sensor: Nr:Datum:Temp:Abs-Feuchte:Windchill:Wind:
Aussen-T/F 2926 07-07-2017 05:10:00 16.7 C 13.64 g/m*3 16.7 C 0 km/h
2927 07-07-2017 05:15:00 16.7 C 13.64 g/m*3 16.7 C 0 km/h
2928 07-07-2017 05:20:00 16.7 C 13.64 g/m*3 16.7 C 0 km/h
2929 07-07-2017 05:25:00 16.7 C 13.64 g/m*3 16.7 C 0 km/h
2930 07-07-2017 05:30:00 16.7 C 13.64 g/m*3 16.7 C 0 km/h
2931 07-07-2017 05:35:00 16.7 C 13.64 g/m*3 16.7 C 0 km/h
2932 07-07-2017 05:40:00 16.7 C 13.64 g/m*3 16.7 C 0 km/h
2933 07-07-2017 05:45:00 16.7 C 13.64 g/m*3 16.7 C 0 km/h
2934 07-07-2017 05:50:00 16.7 C 13.64 g/m*3 16.7 C 1.6 km/h
2935 07-07-2017 05:55:00 16.7 C 13.64 g/m*3 16.7 C 0 km/h
2936 07-07-2017 06:00:00 16.7 C 13.64 g/m*3 16.7 C 0 km/h
2937 07-07-2017 06:05:00 16.6 C 13.56 g/m*3 16.6 C 0 km/h
2938 07-07-2017 06:10:00 16.6 C 13.56 g/m*3 16.6 C 1.6 km/h
2939 07-07-2017 06:15:00 16.6 C 13.56 g/m*3 16.6 C 1.6 km/h
2940 07-07-2017 06:20:00 16.7 C 13.64 g/m*3 16.7 C 0 km/h
2941 07-07-2017 06:25:00 16.7 C 13.64 g/m*3 16.7 C 0 km/h
2942 07-07-2017 06:30:00 16.7 C 13.64 g/m*3 16.7 C 0 km/h
2943 07-07-2017 06:35:00 16.8 C 13.73 g/m*3 16.8 C 0 km/h
2944 07-07-2017 06:40:00 16.9 C 13.95 g/m*3 16.9 C 0 km/h
2945 07-07-2017 06:45:00 17.1 C 14.12 g/m*3 17.1 C 0 km/h
2946 07-07-2017 06:50:00 17.2 C 14.06 g/m*3 17.2 C 0 km/h
2947 07-07-2017 06:55:00 17.3 C 14.14 g/m*3 17.3 C 0 km/h
2948 07-07-2017 07:00:00 17.3 C 14.29 g/m*3 17.3 C 0 km/h
2949 07-07-2017 07:05:00 17.4 C 14.38 g/m*3 17.4 C 0 km/h
2950 07-07-2017 07:10:00 17.4 C 14.38 g/m*3 17.4 C 0 km/h
Sensor: Nr:Datum:Temp:Abs-Feuchte:Windchill:Wind:
Aussen-T/F 2951 07-07-2017 07:15:00 17.6 C 14.55 g/m*3 17.6 C 0 km/h
2952 07-07-2017 07:20:00 17.6 C 14.55 g/m*3 17.6 C 0 km/h
2953 07-07-2017 07:25:00 17.7 C 14.64 g/m*3 17.7 C 0 km/h
2954 07-07-2017 07:30:00 17.8 C 14.72 g/m*3 17.8 C 0 km/h
2955 07-07-2017 07:35:00 17.9 C 14.81 g/m*3 17.9 C 0 km/h
2956 07-07-2017 07:40:00 18.1 C 14.99 g/m*3 18.1 C 0 km/h
2957 07-07-2017 07:45:00 18.1 C 14.99 g/m*3 18.1 C 0 km/h
2958 07-07-2017 07:50:00 18.1 C 14.99 g/m*3 18.1 C 0 km/h
2959 07-07-2017 07:55:00 18.1 C 14.99 g/m*3 18.1 C 0 km/h
2960 07-07-2017 08:00:00 18.2 C 15.08 g/m*3 18.2 C 0 km/h
2961 07-07-2017 08:05:00 18.2 C 15.08 g/m*3 18.2 C 0 km/h
2962 07-07-2017 08:10:00 18.3 C 15.17 g/m*3 18.3 C 1.6 km/h
2963 07-07-2017 08:15:00 18.3 C 15.01 g/m*3 18.3 C 0 km/h
2964 07-07-2017 08:20:00 18.3 C 15.01 g/m*3 18.3 C 0 km/h
2965 07-07-2017 08:25:00 18.4 C 15.26 g/m*3 18.4 C 0 km/h
2966 07-07-2017 08:30:00 18.4 C 15.26 g/m*3 18.4 C 0 km/h
2967 07-07-2017 08:35:00 18.5 C 15.35 g/m*3 18.5 C 0 km/h
2968 07-07-2017 08:40:00 18.5 C 15.35 g/m*3 18.5 C 0 km/h
2969 07-07-2017 08:45:00 18.5 C 15.19 g/m*3 18.5 C 3.2 km/h
2970 07-07-2017 08:50:00 18.5 C 15.35 g/m*3 18.5 C 0 km/h
2971 07-07-2017 08:55:00 18.6 C 15.28 g/m*3 18.6 C 0 km/h
2972 07-07-2017 09:00:00 18.6 C 15.28 g/m*3 18.6 C 0 km/h
2973 07-07-2017 09:05:00 18.6 C 15.28 g/m*3 18.6 C 1.6 km/h
2974 07-07-2017 09:10:00 18.7 C 15.37 g/m*3 18.7 C 0 km/h
2975 07-07-2017 09:15:00 18.7 C 15.37 g/m*3 18.7 C 1.6 km/h
Sensor: Nr:Datum:Temp:Abs-Feuchte:Windchill:Wind:
Aussen-T/F 2976 07-07-2017 09:20:00 18.8 C 15.62 g/m*3 18.8 C 1.6 km/h
2977 07-07-2017 09:25:00 18.8 C 15.62 g/m*3 18.8 C 4.8 km/h
2978 07-07-2017 09:30:00 18.9 C 15.55 g/m*3 18.9 C 3.2 km/h
2979 07-07-2017 09:35:00 19 C 15.64 g/m*3 19 C 4.8 km/h
2980 07-07-2017 09:40:00 19.1 C 15.74 g/m*3 19.1 C 6.4 km/h
2981 07-07-2017 09:45:00 19.2 C 15.83 g/m*3 19.2 C 4.8 km/h
2982 07-07-2017 09:50:00 19.3 C 15.92 g/m*3 19.3 C 1.6 km/h
2983 07-07-2017 09:55:00 19.3 C 15.92 g/m*3 19.3 C 3.2 km/h
2984 07-07-2017 10:00:00 19.5 C 16.11 g/m*3 19.5 C 4.8 km/h
2985 07-07-2017 10:05:00 19.6 C 16.21 g/m*3 19.6 C 1.6 km/h
2986 07-07-2017 10:10:00 19.7 C 16.3 g/m*3 19.7 C 1.6 km/h
2987 07-07-2017 10:15:00 19.8 C 16.4 g/m*3 19.8 C 6.4 km/h
2988 07-07-2017 10:20:00 20.1 C 16.51 g/m*3 20.1 C 8.1 km/h
2989 07-07-2017 10:25:00 20.4 C 16.63 g/m*3 20.4 C 8.1 km/h
2990 07-07-2017 10:30:00 20.8 C 17.02 g/m*3 20.8 C 6.4 km/h
2991 07-07-2017 10:35:00 21.2 C 17.05 g/m*3 21.2 C 8.1 km/h
2992 07-07-2017 10:40:00 21.5 C 16.78 g/m*3 21.5 C 11.3 km/h
2993 07-07-2017 10:45:00 21.9 C 16.98 g/m*3 21.9 C 11.3 km/h
2994 07-07-2017 10:50:00 22.3 C 16.98 g/m*3 22.3 C 11.3 km/h
2995 07-07-2017 10:55:00 22.6 C 17.68 g/m*3 22.6 C 6.4 km/h
2996 07-07-2017 11:00:00 22.8 C 17.27 g/m*3 22.8 C 9.7 km/h
2997 07-07-2017 11:05:00 22.9 C 17.58 g/m*3 22.9 C 6.4 km/h
2998 07-07-2017 11:10:00 23.1 C 17.36 g/m*3 23.1 C 6.4 km/h
2999 07-07-2017 11:15:00 23.3 C 17.56 g/m*3 23.3 C 11.3 km/h
3000 07-07-2017 11:20:00 23.4 C 17.24 g/m*3 23.4 C 11.3 km/h
Sensor: Nr:Datum:Temp:Abs-Feuchte:Windchill:Wind:
Aussen-T/F 3001 07-07-2017 11:25:00 23.6 C 17.23 g/m*3 23.6 C 11.3 km/h
3002 07-07-2017 11:30:00 23.8 C 17.42 g/m*3 23.8 C 8.1 km/h
3003 07-07-2017 11:35:00 24.1 C 17.72 g/m*3 24.1 C 11.3 km/h
3004 07-07-2017 11:40:00 24.2 C 17.16 g/m*3 24.2 C 9.7 km/h
3005 07-07-2017 11:45:00 24.3 C 18.15 g/m*3 24.3 C 8.1 km/h
3006 07-07-2017 11:50:00 24.3 C 17.7 g/m*3 24.3 C 6.4 km/h
3007 07-07-2017 11:55:00 24.4 C 18.03 g/m*3 24.4 C 4.8 km/h
3008 07-07-2017 12:00:00 24.5 C 17.9 g/m*3 24.5 C 9.7 km/h
3009 07-07-2017 12:05:00 24.6 C 17.33 g/m*3 24.6 C 14.5 km/h
3010 07-07-2017 12:10:00 24.8 C 17.53 g/m*3 24.8 C 9.7 km/h
3011 07-07-2017 12:15:00 24.9 C 17.17 g/m*3 24.9 C 9.7 km/h
3012 07-07-2017 12:20:00 25.2 C 17.93 g/m*3 25.2 C 8.1 km/h
3013 07-07-2017 12:25:00 25.3 C 17.09 g/m*3 25.3 C 12.9 km/h
3014 07-07-2017 12:30:00 25.4 C 17.42 g/m*3 25.4 C 6.4 km/h
3015 07-07-2017 12:35:00 25.6 C 17.86 g/m*3 25.6 C 11.3 km/h
3016 07-07-2017 12:40:00 25.8 C 17.82 g/m*3 25.8 C 8.1 km/h
3017 07-07-2017 12:45:00 26.1 C 17.14 g/m*3 26.1 C 9.7 km/h
3018 07-07-2017 12:50:00 26.3 C 17.82 g/m*3 26.3 C 17.7 km/h
3019 07-07-2017 12:55:00 26.4 C 17.43 g/m*3 26.4 C 9.7 km/h
3020 07-07-2017 13:00:00 26.4 C 17.92 g/m*3 26.4 C 12.9 km/h
3021 07-07-2017 13:05:00 26.7 C 17.21 g/m*3 26.7 C 12.9 km/h
3022 07-07-2017 13:10:00 26.9 C 17.4 g/m*3 26.9 C 12.9 km/h
3023 07-07-2017 13:15:00 27.2 C 18.22 g/m*3 27.2 C 11.3 km/h
3024 07-07-2017 13:20:00 27.2 C 17.7 g/m*3 27.2 C 14.5 km/h
3025 07-07-2017 13:25:00 27.4 C 17.63 g/m*3 27.4 C 8.1 km/h
Sensor: Nr:Datum:Temp:Abs-Feuchte:Windchill:Wind:
Aussen-T/F 3026 07-07-2017 13:30:00 27.6 C 18.36 g/m*3 27.6 C 8.1 km/h
3027 07-07-2017 13:35:00 27.7 C 17.65 g/m*3 27.7 C 9.7 km/h
3028 07-07-2017 13:40:00 27.9 C 17.31 g/m*3 27.9 C 9.7 km/h
3029 07-07-2017 13:45:00 28.3 C 16.59 g/m*3 28.3 C 19.3 km/h
3030 07-07-2017 13:50:00 28.6 C 17.42 g/m*3 28.6 C 19.3 km/h
3031 07-07-2017 13:55:00 28.8 C 16.76 g/m*3 28.8 C 19.3 km/h
3032 07-07-2017 14:00:00 29.1 C 17.33 g/m*3 29.1 C 14.5 km/h
3033 07-07-2017 14:05:00 29.2 C 15.97 g/m*3 29.2 C 22.5 km/h
3034 07-07-2017 14:10:00 29.4 C 15.56 g/m*3 29.4 C 20.9 km/h
3035 07-07-2017 14:15:00 29.7 C 15.81 g/m*3 29.7 C 12.9 km/h
3036 07-07-2017 14:20:00 29.8 C 15.9 g/m*3 29.8 C 22.5 km/h
3037 07-07-2017 14:25:00 29.9 C 15.68 g/m*3 29.9 C 11.3 km/h
3038 07-07-2017 14:30:00 30.1 C 14.94 g/m*3 30.1 C 11.3 km/h
3039 07-07-2017 14:35:00 30.3 C 15.1 g/m*3 30.3 C 16.1 km/h
3040 07-07-2017 14:40:00 30.3 C 13.87 g/m*3 30.3 C 14.5 km/h
3041 07-07-2017 14:45:00 30.4 C 13.94 g/m*3 30.4 C 14.5 km/h
3042 07-07-2017 14:50:00 30.4 C 14.87 g/m*3 30.4 C 11.3 km/h
3043 07-07-2017 14:55:00 30.3 C 17.26 g/m*3 30.3 C 4.8 km/h
3044 07-07-2017 15:00:00 30.2 C 12.87 g/m*3 30.2 C 17.7 km/h
3045 07-07-2017 15:05:00 30.6 C 12.84 g/m*3 30.6 C 14.5 km/h
3046 07-07-2017 15:10:00 30.9 C 14.01 g/m*3 30.9 C 14.5 km/h
3047 07-07-2017 15:15:00 31 C 12.48 g/m*3 31 C 11.3 km/h
3048 07-07-2017 15:20:00 31.3 C 13.98 g/m*3 31.3 C 9.7 km/h
3049 07-07-2017 15:25:00 31.5 C 12.16 g/m*3 31.5 C 11.3 km/h
3050 07-07-2017 15:30:00 31.8 C 13.36 g/m*3 31.8 C 17.7 km/h
Sensor: Nr:Datum:Temp:Abs-Feuchte:Windchill:Wind:
Aussen-T/F 3051 07-07-2017 15:35:00 31.7 C 13.29 g/m*3 31.7 C 12.9 km/h
3052 07-07-2017 15:40:00 31.7 C 15.28 g/m*3 31.7 C 8.1 km/h
3053 07-07-2017 15:45:00 32.1 C 13.92 g/m*3 32.1 C 8.1 km/h
3054 07-07-2017 15:50:00 32.3 C 13.72 g/m*3 32.3 C 8.1 km/h
3055 07-07-2017 15:55:00 32.4 C 13.45 g/m*3 32.4 C 11.3 km/h
3056 07-07-2017 16:00:00 32.4 C 13.45 g/m*3 32.4 C 11.3 km/h
3057 07-07-2017 16:05:00 32.1 C 12.56 g/m*3 32.1 C 11.3 km/h
3058 07-07-2017 16:10:00 31.8 C 12.36 g/m*3 31.8 C 14.5 km/h
3059 07-07-2017 16:15:00 31.5 C 13.15 g/m*3 31.5 C 9.7 km/h
3060 07-07-2017 16:20:00 31.3 C 13.33 g/m*3 31.3 C 8.1 km/h
3061 07-07-2017 16:25:00 31.3 C 14.31 g/m*3 31.3 C 12.9 km/h
3062 07-07-2017 16:30:00 31.7 C 13.95 g/m*3 31.7 C 11.3 km/h
3063 07-07-2017 16:35:00 32 C 12.83 g/m*3 32 C 12.9 km/h
3064 07-07-2017 16:40:00 32.1 C 13.92 g/m*3 32.1 C 20.9 km/h
3065 07-07-2017 16:45:00 32.4 C 10.69 g/m*3 32.4 C 16.1 km/h
3066 07-07-2017 16:50:00 32.9 C 12.75 g/m*3 32.9 C 17.7 km/h
3067 07-07-2017 16:55:00 33.1 C 13.24 g/m*3 33.1 C 8.1 km/h
3068 07-07-2017 17:00:00 33.1 C 12.88 g/m*3 33.1 C 16.1 km/h
3069 07-07-2017 17:05:00 32.9 C 13.81 g/m*3 32.9 C 16.1 km/h
3070 07-07-2017 17:10:00 32.8 C 13.74 g/m*3 32.8 C 9.7 km/h
3071 07-07-2017 17:15:00 32.8 C 13.74 g/m*3 32.8 C 11.3 km/h
3072 07-07-2017 17:20:00 32.9 C 13.81 g/m*3 32.9 C 14.5 km/h
3073 07-07-2017 17:25:00 32.9 C 14.52 g/m*3 32.9 C 12.9 km/h
3074 07-07-2017 17:30:00 32.9 C 14.16 g/m*3 32.9 C 11.3 km/h
3075 07-07-2017 17:35:00 32.8 C 13.74 g/m*3 32.8 C 12.9 km/h
Sensor: Nr:Datum:Temp:Abs-Feuchte:Windchill:Wind:
Aussen-T/F 3076 07-07-2017 17:40:00 32.6 C 14.64 g/m*3 32.6 C 11.3 km/h
3077 07-07-2017 17:45:00 32.3 C 14.06 g/m*3 32.3 C 9.7 km/h
3078 07-07-2017 17:50:00 32.1 C 13.92 g/m*3 32.1 C 8.1 km/h
3079 07-07-2017 17:55:00 31.6 C 13.55 g/m*3 31.6 C 12.9 km/h
3080 07-07-2017 18:00:00 31.2 C 13.59 g/m*3 31.2 C 11.3 km/h
3081 07-07-2017 18:05:00 31.2 C 13.59 g/m*3 31.2 C 9.7 km/h
3082 07-07-2017 18:10:00 31.1 C 14.16 g/m*3 31.1 C 6.4 km/h
3083 07-07-2017 18:15:00 31.2 C 13.91 g/m*3 31.2 C 9.7 km/h
3084 07-07-2017 18:20:00 31.2 C 13.59 g/m*3 31.2 C 9.7 km/h
3085 07-07-2017 18:25:00 30.8 C 14.25 g/m*3 30.8 C 9.7 km/h
3086 07-07-2017 18:30:00 30.4 C 13.63 g/m*3 30.4 C 8.1 km/h
3087 07-07-2017 18:35:00 30.5 C 14.02 g/m*3 30.5 C 9.7 km/h
3088 07-07-2017 18:40:00 30.4 C 13.32 g/m*3 30.4 C 6.4 km/h
3089 07-07-2017 18:45:00 30.5 C 13.71 g/m*3 30.5 C 11.3 km/h
3090 07-07-2017 18:50:00 30.7 C 13.86 g/m*3 30.7 C 11.3 km/h
3091 07-07-2017 18:55:00 30.7 C 13.54 g/m*3 30.7 C 8.1 km/h
3092 07-07-2017 19:00:00 30.7 C 13.23 g/m*3 30.7 C 9.7 km/h
3093 07-07-2017 19:05:00 30.9 C 14.01 g/m*3 30.9 C 11.3 km/h
3094 07-07-2017 19:10:00 31 C 13.44 g/m*3 31 C 9.7 km/h
3095 07-07-2017 19:15:00 30.7 C 13.23 g/m*3 30.7 C 11.3 km/h
3096 07-07-2017 19:20:00 30.3 C 13.25 g/m*3 30.3 C 9.7 km/h
3097 07-07-2017 19:25:00 30.1 C 13.42 g/m*3 30.1 C 6.4 km/h
3098 07-07-2017 19:30:00 30 C 13.65 g/m*3 30 C 8.1 km/h
3099 07-07-2017 19:35:00 30 C 14.25 g/m*3 30 C 6.4 km/h
3100 07-07-2017 19:40:00 29.9 C 13.87 g/m*3 29.9 C 4.8 km/h
Sensor: Nr:Datum:Temp:Abs-Feuchte:Windchill:Wind:
Aussen-T/F 3101 07-07-2017 19:45:00 29.9 C 16.29 g/m*3 29.9 C 0 km/h
3102 07-07-2017 19:50:00 29.6 C 13.65 g/m*3 29.6 C 8.1 km/h
3103 07-07-2017 19:55:00 29.5 C 12.99 g/m*3 29.5 C 6.4 km/h
3104 07-07-2017 20:00:00 29.4 C 13.5 g/m*3 29.4 C 8.1 km/h
3105 07-07-2017 20:05:00 29.4 C 13.21 g/m*3 29.4 C 8.1 km/h
3106 07-07-2017 20:10:00 29.2 C 13.65 g/m*3 29.2 C 4.8 km/h
3107 07-07-2017 20:15:00 29.1 C 13.28 g/m*3 29.1 C 8.1 km/h
3108 07-07-2017 20:20:00 28.9 C 13.14 g/m*3 28.9 C 6.4 km/h
3109 07-07-2017 20:25:00 28.7 C 13.56 g/m*3 28.7 C 6.4 km/h
3110 07-07-2017 20:30:00 28.6 C 12.93 g/m*3 28.6 C 3.2 km/h
3111 07-07-2017 20:35:00 28.5 C 13.42 g/m*3 28.5 C 4.8 km/h
3112 07-07-2017 20:40:00 28.3 C 14.93 g/m*3 28.3 C 3.2 km/h
3113 07-07-2017 20:45:00 28 C 13.6 g/m*3 28 C 8.1 km/h
3114 07-07-2017 20:50:00 27.7 C 13.11 g/m*3 27.7 C 4.8 km/h
3115 07-07-2017 20:55:00 27.4 C 14.73 g/m*3 27.4 C 8.1 km/h
3116 07-07-2017 21:00:00 27.2 C 13.01 g/m*3 27.2 C 6.4 km/h
3117 07-07-2017 21:05:00 27.1 C 12.94 g/m*3 27.1 C 3.2 km/h
3118 07-07-2017 21:10:00 27 C 14.93 g/m*3 27 C 0 km/h
3119 07-07-2017 21:15:00 26.7 C 14.43 g/m*3 26.7 C 8.1 km/h
3120 07-07-2017 21:20:00 26.2 C 13.29 g/m*3 26.2 C 3.2 km/h
3121 07-07-2017 21:25:00 26 C 14.85 g/m*3 26 C 4.8 km/h
3122 07-07-2017 21:30:00 25.7 C 13.89 g/m*3 25.7 C 4.8 km/h
3123 07-07-2017 21:35:00 25.4 C 13.42 g/m*3 25.4 C 1.6 km/h
3124 07-07-2017 21:40:00 25.2 C 14.43 g/m*3 25.2 C 0 km/h
3125 07-07-2017 21:45:00 24.8 C 14.11 g/m*3 24.8 C 6.4 km/h
Sensor: Nr:Datum:Temp:Abs-Feuchte:Windchill:Wind:
Aussen-T/F 3126 07-07-2017 21:50:00 24.4 C 14.02 g/m*3 24.4 C 6.4 km/h
3127 07-07-2017 21:55:00 24.1 C 14 g/m*3 24.1 C 1.6 km/h
3128 07-07-2017 22:00:00 23.8 C 13.77 g/m*3 23.8 C 3.2 km/h
3129 07-07-2017 22:05:00 23.7 C 13.69 g/m*3 23.7 C 4.8 km/h
3130 07-07-2017 22:10:00 23.8 C 14.2 g/m*3 23.8 C 6.4 km/h
3131 07-07-2017 22:15:00 23.7 C 14.12 g/m*3 23.7 C 3.2 km/h
3132 07-07-2017 22:20:00 23.7 C 13.26 g/m*3 23.7 C 11.3 km/h
3133 07-07-2017 22:25:00 23.9 C 13.63 g/m*3 23.9 C 4.8 km/h
3134 07-07-2017 22:30:00 23.9 C 13.63 g/m*3 23.9 C 4.8 km/h
3135 07-07-2017 22:35:00 23.9 C 12.98 g/m*3 23.9 C 4.8 km/h
3136 07-07-2017 22:40:00 23.8 C 13.77 g/m*3 23.8 C 1.6 km/h
3137 07-07-2017 22:45:00 23.8 C 12.48 g/m*3 23.8 C 6.4 km/h
3138 07-07-2017 22:50:00 23.9 C 12.76 g/m*3 23.9 C 8.1 km/h
3139 07-07-2017 22:55:00 24 C 13.05 g/m*3 24 C 6.4 km/h
3140 07-07-2017 23:00:00 24.1 C 12.91 g/m*3 24.1 C 6.4 km/h
3141 07-07-2017 23:05:00 24 C 13.92 g/m*3 24 C 1.6 km/h
3142 07-07-2017 23:10:00 23.7 C 14.12 g/m*3 23.7 C 0 km/h
3143 07-07-2017 23:15:00 23.3 C 14.22 g/m*3 23.3 C 3.2 km/h
3144 07-07-2017 23:20:00 22.9 C 14.31 g/m*3 22.9 C 3.2 km/h
3145 07-07-2017 23:25:00 22.6 C 13.86 g/m*3 22.6 C 1.6 km/h
3146 07-07-2017 23:30:00 22.3 C 14.22 g/m*3 22.3 C 1.6 km/h
3147 07-07-2017 23:35:00 22.1 C 14.05 g/m*3 22.1 C 0 km/h
3148 07-07-2017 23:40:00 21.8 C 14.01 g/m*3 21.8 C 0 km/h
3149 07-07-2017 23:45:00 21.6 C 13.85 g/m*3 21.6 C 1.6 km/h
3150 07-07-2017 23:50:00 21.4 C 13.69 g/m*3 21.4 C 0 km/h
Sensor: Nr:Datum:Temp:Abs-Feuchte:Windchill:Wind:
Aussen-T/F 3151 07-07-2017 23:55:00 21.3 C 13.98 g/m*3 21.3 C 0 km/h
3152 08-07-2017 00:00:00 21.2 C 13.71 g/m*3 21.2 C 0 km/h
3153 08-07-2017 00:05:00 21.1 C 13.82 g/m*3 21.1 C 0 km/h
3154 08-07-2017 00:10:00 21.1 C 14.19 g/m*3 21.1 C 0 km/h
3155 08-07-2017 00:15:00 20.9 C 13.84 g/m*3 20.9 C 1.6 km/h
3156 08-07-2017 00:20:00 20.8 C 13.94 g/m*3 20.8 C 0 km/h
3157 08-07-2017 00:25:00 20.7 C 13.68 g/m*3 20.7 C 0 km/h
3158 08-07-2017 00:30:00 20.6 C 13.6 g/m*3 20.6 C 0 km/h
3159 08-07-2017 00:35:00 20.6 C 13.6 g/m*3 20.6 C 0 km/h
3160 08-07-2017 00:40:00 20.6 C 13.78 g/m*3 20.6 C 0 km/h
3161 08-07-2017 00:45:00 20.5 C 13.52 g/m*3 20.5 C 0 km/h
3162 08-07-2017 00:50:00 20.5 C 13.7 g/m*3 20.5 C 0 km/h
3163 08-07-2017 00:55:00 20.4 C 13.62 g/m*3 20.4 C 0 km/h
3164 08-07-2017 01:00:00 20.3 C 13.54 g/m*3 20.3 C 1.6 km/h
3165 08-07-2017 01:05:00 20.3 C 13.54 g/m*3 20.3 C 0 km/h
3166 08-07-2017 01:10:00 20.3 C 13.54 g/m*3 20.3 C 0 km/h
3167 08-07-2017 01:15:00 20.2 C 13.46 g/m*3 20.2 C 1.6 km/h
3168 08-07-2017 01:20:00 20.1 C 13.56 g/m*3 20.1 C 0 km/h
3169 08-07-2017 01:25:00 19.9 C 13.4 g/m*3 19.9 C 0 km/h
3170 08-07-2017 01:30:00 19.8 C 13.49 g/m*3 19.8 C 0 km/h
3171 08-07-2017 01:35:00 19.7 C 13.58 g/m*3 19.7 C 0 km/h
3172 08-07-2017 01:40:00 19.4 C 13.51 g/m*3 19.4 C 0 km/h
3173 08-07-2017 01:45:00 19.3 C 13.44 g/m*3 19.3 C 0 km/h
3174 08-07-2017 01:50:00 19.1 C 13.44 g/m*3 19.1 C 0 km/h
3175 08-07-2017 01:55:00 18.9 C 13.45 g/m*3 18.9 C 0 km/h
Sensor: Nr:Datum:Temp:Abs-Feuchte:Windchill:Wind:
Aussen-T/F 3176 08-07-2017 02:00:00 18.7 C 13.29 g/m*3 18.7 C 0 km/h
3177 08-07-2017 02:05:00 18.4 C 13.21 g/m*3 18.4 C 0 km/h
3178 08-07-2017 02:10:00 18.3 C 13.13 g/m*3 18.3 C 0 km/h
3179 08-07-2017 02:15:00 18.2 C 13.21 g/m*3 18.2 C 0 km/h
3180 08-07-2017 02:20:00 18.1 C 13.13 g/m*3 18.1 C 0 km/h
3181 08-07-2017 02:25:00 18 C 13.06 g/m*3 18 C 0 km/h
3182 08-07-2017 02:30:00 17.9 C 12.98 g/m*3 17.9 C 0 km/h
3183 08-07-2017 02:35:00 17.9 C 12.98 g/m*3 17.9 C 0 km/h
3184 08-07-2017 02:40:00 17.8 C 13.05 g/m*3 17.8 C 0 km/h
3185 08-07-2017 02:45:00 17.8 C 13.05 g/m*3 17.8 C 0 km/h
3186 08-07-2017 02:50:00 17.7 C 12.98 g/m*3 17.7 C 0 km/h
3187 08-07-2017 02:55:00 17.6 C 12.9 g/m*3 17.6 C 0 km/h
3188 08-07-2017 03:00:00 17.5 C 12.97 g/m*3 17.5 C 0 km/h
3189 08-07-2017 03:05:00 17.4 C 12.89 g/m*3 17.4 C 0 km/h
3190 08-07-2017 03:10:00 17.3 C 12.82 g/m*3 17.3 C 0 km/h
3191 08-07-2017 03:15:00 17.2 C 12.74 g/m*3 17.2 C 0 km/h
3192 08-07-2017 03:20:00 17.1 C 12.81 g/m*3 17.1 C 0 km/h
3193 08-07-2017 03:25:00 17 C 12.73 g/m*3 17 C 0 km/h
3194 08-07-2017 03:30:00 16.9 C 12.66 g/m*3 16.9 C 0 km/h
3195 08-07-2017 03:35:00 16.8 C 12.58 g/m*3 16.8 C 0 km/h
3196 08-07-2017 03:40:00 16.8 C 12.58 g/m*3 16.8 C 0 km/h
3197 08-07-2017 03:45:00 16.7 C 12.51 g/m*3 16.7 C 0 km/h
3198 08-07-2017 03:50:00 16.7 C 12.51 g/m*3 16.7 C 0 km/h
3199 08-07-2017 03:55:00 16.7 C 12.65 g/m*3 16.7 C 0 km/h
3200 08-07-2017 04:00:00 16.6 C 12.57 g/m*3 16.6 C 0 km/h
Sensor: Nr:Datum:Temp:Abs-Feuchte:Windchill:Wind:
Aussen-T/F 3201 08-07-2017 04:05:00 16.6 C 12.57 g/m*3 16.6 C 0 km/h
3202 08-07-2017 04:10:00 16.5 C 12.5 g/m*3 16.5 C 0 km/h
3203 08-07-2017 04:15:00 16.4 C 12.42 g/m*3 16.4 C 0 km/h
3204 08-07-2017 04:20:00 16.3 C 12.35 g/m*3 16.3 C 0 km/h
3205 08-07-2017 04:25:00 16.3 C 12.49 g/m*3 16.3 C 0 km/h
3206 08-07-2017 04:30:00 16.2 C 12.41 g/m*3 16.2 C